<?xml version="1.0" encoding="UTF-8" standalone="no" ?>
<gpx xmlns="http://www.topografix.com/GPX/1/1" xmlns:xsi="http://www.w3.org/2001/XMLSchema-instance" xsi:schemaLocation="http://www.topografix.com/GPX/1/1 http://www.topografix.com/GPX/1/1/gpx.xsd" version="1.1" creator="VisuGPX - https://www.visugpx.com">
  <metadata>
    <name>Rando nocturne La bresse</name>
    <desc><![CDATA[Rando nocturne La bresse]]></desc>
  </metadata>
  <trk>
    <name><![CDATA[19/01/2013 18:20]]></name>
    <desc><![CDATA[]]></desc>
    <trkseg>
      <trkpt lat="48.0038" lon="6.84877">
        <ele>906.2</ele>
        <time>2013-01-19T17:20:10.000Z</time>
      </trkpt>
      <trkpt lat="48.00382" lon="6.84876">
        <ele>905.2</ele>
        <time>2013-01-19T17:21:10.000Z</time>
      </trkpt>
      <trkpt lat="48.00385" lon="6.84871">
        <ele>903.8</ele>
        <time>2013-01-19T17:21:11.000Z</time>
      </trkpt>
      <trkpt lat="48.00386" lon="6.84865">
        <ele>902.6</ele>
        <time>2013-01-19T17:21:14.000Z</time>
      </trkpt>
      <trkpt lat="48.00387" lon="6.84864">
        <ele>902.2</ele>
        <time>2013-01-19T17:21:15.000Z</time>
      </trkpt>
      <trkpt lat="48.00388" lon="6.84858">
        <ele>902.9</ele>
        <time>2013-01-19T17:21:23.000Z</time>
      </trkpt>
      <trkpt lat="48.00388" lon="6.84858">
        <ele>903.3</ele>
        <time>2013-01-19T17:21:24.000Z</time>
      </trkpt>
      <trkpt lat="48.00386" lon="6.84852">
        <ele>906.7</ele>
        <time>2013-01-19T17:21:38.000Z</time>
      </trkpt>
      <trkpt lat="48.00385" lon="6.84851">
        <ele>906.7</ele>
        <time>2013-01-19T17:21:39.000Z</time>
      </trkpt>
      <trkpt lat="48.00385" lon="6.84851">
        <ele>906.9</ele>
        <time>2013-01-19T17:21:43.000Z</time>
      </trkpt>
      <trkpt lat="48.00376" lon="6.84846">
        <ele>906.4</ele>
        <time>2013-01-19T17:21:44.000Z</time>
      </trkpt>
      <trkpt lat="48.00381" lon="6.84845">
        <ele>904.7</ele>
        <time>2013-01-19T17:21:46.000Z</time>
      </trkpt>
      <trkpt lat="48.0038" lon="6.84843">
        <ele>904.7</ele>
        <time>2013-01-19T17:21:47.000Z</time>
      </trkpt>
      <trkpt lat="48.00384" lon="6.84841">
        <ele>906.2</ele>
        <time>2013-01-19T17:21:55.000Z</time>
      </trkpt>
      <trkpt lat="48.00382" lon="6.84836">
        <ele>907.4</ele>
        <time>2013-01-19T17:21:56.000Z</time>
      </trkpt>
      <trkpt lat="48.00379" lon="6.84831">
        <ele>908.4</ele>
        <time>2013-01-19T17:21:58.000Z</time>
      </trkpt>
      <trkpt lat="48.00378" lon="6.8483">
        <ele>909.3</ele>
        <time>2013-01-19T17:21:59.000Z</time>
      </trkpt>
      <trkpt lat="48.00382" lon="6.84829">
        <ele>911.3</ele>
        <time>2013-01-19T17:33:14.000Z</time>
      </trkpt>
      <trkpt lat="48.00387" lon="6.84829">
        <ele>911.2</ele>
        <time>2013-01-19T17:33:15.000Z</time>
      </trkpt>
      <trkpt lat="48.0039" lon="6.84829">
        <ele>912.3</ele>
        <time>2013-01-19T17:33:18.000Z</time>
      </trkpt>
      <trkpt lat="48.00392" lon="6.84829">
        <ele>911.5</ele>
        <time>2013-01-19T17:33:19.000Z</time>
      </trkpt>
      <trkpt lat="48.00395" lon="6.84829">
        <ele>911.2</ele>
        <time>2013-01-19T17:33:21.000Z</time>
      </trkpt>
      <trkpt lat="48.00397" lon="6.84828">
        <ele>911.2</ele>
        <time>2013-01-19T17:33:22.000Z</time>
      </trkpt>
      <trkpt lat="48.004" lon="6.84825">
        <ele>910.3</ele>
        <time>2013-01-19T17:33:27.000Z</time>
      </trkpt>
      <trkpt lat="48.00401" lon="6.84825">
        <ele>910.6</ele>
        <time>2013-01-19T17:33:28.000Z</time>
      </trkpt>
      <trkpt lat="48.00404" lon="6.84822">
        <ele>910</ele>
        <time>2013-01-19T17:33:37.000Z</time>
      </trkpt>
      <trkpt lat="48.00405" lon="6.84821">
        <ele>910.4</ele>
        <time>2013-01-19T17:33:38.000Z</time>
      </trkpt>
      <trkpt lat="48.00408" lon="6.84821">
        <ele>910.4</ele>
        <time>2013-01-19T17:33:53.000Z</time>
      </trkpt>
      <trkpt lat="48.00411" lon="6.84818">
        <ele>910.4</ele>
        <time>2013-01-19T17:33:54.000Z</time>
      </trkpt>
      <trkpt lat="48.00415" lon="6.8482">
        <ele>909.9</ele>
        <time>2013-01-19T17:34:03.000Z</time>
      </trkpt>
      <trkpt lat="48.00416" lon="6.8482">
        <ele>909.9</ele>
        <time>2013-01-19T17:34:04.000Z</time>
      </trkpt>
      <trkpt lat="48.00418" lon="6.84817">
        <ele>908.9</ele>
        <time>2013-01-19T17:34:16.000Z</time>
      </trkpt>
      <trkpt lat="48.0042" lon="6.84816">
        <ele>908.4</ele>
        <time>2013-01-19T17:34:17.000Z</time>
      </trkpt>
      <trkpt lat="48.00423" lon="6.84814">
        <ele>907.7</ele>
        <time>2013-01-19T17:34:19.000Z</time>
      </trkpt>
      <trkpt lat="48.00426" lon="6.84813">
        <ele>908.3</ele>
        <time>2013-01-19T17:34:20.000Z</time>
      </trkpt>
      <trkpt lat="48.00428" lon="6.84808">
        <ele>908.1</ele>
        <time>2013-01-19T17:34:26.000Z</time>
      </trkpt>
      <trkpt lat="48.00427" lon="6.84806">
        <ele>908.1</ele>
        <time>2013-01-19T17:34:27.000Z</time>
      </trkpt>
      <trkpt lat="48.00429" lon="6.84804">
        <ele>908.2</ele>
        <time>2013-01-19T17:34:42.000Z</time>
      </trkpt>
      <trkpt lat="48.00433" lon="6.84803">
        <ele>906.5</ele>
        <time>2013-01-19T17:34:43.000Z</time>
      </trkpt>
      <trkpt lat="48.00435" lon="6.84802">
        <ele>906.4</ele>
        <time>2013-01-19T17:34:44.000Z</time>
      </trkpt>
      <trkpt lat="48.00437" lon="6.84797">
        <ele>905.7</ele>
        <time>2013-01-19T17:34:45.000Z</time>
      </trkpt>
      <trkpt lat="48.0044" lon="6.84794">
        <ele>905.3</ele>
        <time>2013-01-19T17:34:47.000Z</time>
      </trkpt>
      <trkpt lat="48.0044" lon="6.8479">
        <ele>903.5</ele>
        <time>2013-01-19T17:34:48.000Z</time>
      </trkpt>
      <trkpt lat="48.00444" lon="6.84788">
        <ele>902.6</ele>
        <time>2013-01-19T17:34:50.000Z</time>
      </trkpt>
      <trkpt lat="48.00445" lon="6.84784">
        <ele>902.8</ele>
        <time>2013-01-19T17:34:51.000Z</time>
      </trkpt>
      <trkpt lat="48.00449" lon="6.84781">
        <ele>904.2</ele>
        <time>2013-01-19T17:34:53.000Z</time>
      </trkpt>
      <trkpt lat="48.00449" lon="6.8478">
        <ele>905.7</ele>
        <time>2013-01-19T17:34:54.000Z</time>
      </trkpt>
      <trkpt lat="48.00453" lon="6.84776">
        <ele>905.9</ele>
        <time>2013-01-19T17:35:00.000Z</time>
      </trkpt>
      <trkpt lat="48.00454" lon="6.84776">
        <ele>906</ele>
        <time>2013-01-19T17:35:01.000Z</time>
      </trkpt>
      <trkpt lat="48.00456" lon="6.84774">
        <ele>906.6</ele>
        <time>2013-01-19T17:35:03.000Z</time>
      </trkpt>
      <trkpt lat="48.00459" lon="6.84773">
        <ele>906.5</ele>
        <time>2013-01-19T17:35:04.000Z</time>
      </trkpt>
      <trkpt lat="48.00464" lon="6.84772">
        <ele>907.2</ele>
        <time>2013-01-19T17:35:07.000Z</time>
      </trkpt>
      <trkpt lat="48.00466" lon="6.84767">
        <ele>908</ele>
        <time>2013-01-19T17:35:13.000Z</time>
      </trkpt>
      <trkpt lat="48.00467" lon="6.84767">
        <ele>908.6</ele>
        <time>2013-01-19T17:35:14.000Z</time>
      </trkpt>
      <trkpt lat="48.00466" lon="6.84762">
        <ele>909.7</ele>
        <time>2013-01-19T17:36:02.000Z</time>
      </trkpt>
      <trkpt lat="48.00466" lon="6.84757">
        <ele>909.3</ele>
        <time>2013-01-19T17:36:03.000Z</time>
      </trkpt>
      <trkpt lat="48.00467" lon="6.84752">
        <ele>910</ele>
        <time>2013-01-19T17:36:04.000Z</time>
      </trkpt>
      <trkpt lat="48.00468" lon="6.84746">
        <ele>909.3</ele>
        <time>2013-01-19T17:36:07.000Z</time>
      </trkpt>
      <trkpt lat="48.00471" lon="6.84741">
        <ele>909.9</ele>
        <time>2013-01-19T17:36:09.000Z</time>
      </trkpt>
      <trkpt lat="48.00472" lon="6.84738">
        <ele>909.9</ele>
        <time>2013-01-19T17:36:10.000Z</time>
      </trkpt>
      <trkpt lat="48.00472" lon="6.84735">
        <ele>910.6</ele>
        <time>2013-01-19T17:36:12.000Z</time>
      </trkpt>
      <trkpt lat="48.00473" lon="6.84731">
        <ele>911.1</ele>
        <time>2013-01-19T17:36:13.000Z</time>
      </trkpt>
      <trkpt lat="48.00474" lon="6.84725">
        <ele>911</ele>
        <time>2013-01-19T17:36:51.000Z</time>
      </trkpt>
      <trkpt lat="48.00478" lon="6.84724">
        <ele>909.4</ele>
        <time>2013-01-19T17:36:52.000Z</time>
      </trkpt>
      <trkpt lat="48.00481" lon="6.8472">
        <ele>908</ele>
        <time>2013-01-19T17:36:54.000Z</time>
      </trkpt>
      <trkpt lat="48.00482" lon="6.8472">
        <ele>908.3</ele>
        <time>2013-01-19T17:36:55.000Z</time>
      </trkpt>
      <trkpt lat="48.00484" lon="6.84718">
        <ele>908.1</ele>
        <time>2013-01-19T17:36:59.000Z</time>
      </trkpt>
      <trkpt lat="48.00489" lon="6.84718">
        <ele>909.5</ele>
        <time>2013-01-19T17:37:00.000Z</time>
      </trkpt>
      <trkpt lat="48.00491" lon="6.84718">
        <ele>909</ele>
        <time>2013-01-19T17:37:01.000Z</time>
      </trkpt>
      <trkpt lat="48.00495" lon="6.8472">
        <ele>911.3</ele>
        <time>2013-01-19T17:37:02.000Z</time>
      </trkpt>
      <trkpt lat="48.00499" lon="6.84717">
        <ele>910.4</ele>
        <time>2013-01-19T17:37:14.000Z</time>
      </trkpt>
      <trkpt lat="48.00499" lon="6.84717">
        <ele>910.8</ele>
        <time>2013-01-19T17:37:15.000Z</time>
      </trkpt>
      <trkpt lat="48.005" lon="6.84717">
        <ele>911</ele>
        <time>2013-01-19T17:37:22.000Z</time>
      </trkpt>
      <trkpt lat="48.00503" lon="6.84713">
        <ele>912.2</ele>
        <time>2013-01-19T17:37:23.000Z</time>
      </trkpt>
      <trkpt lat="48.00505" lon="6.8471">
        <ele>911.5</ele>
        <time>2013-01-19T17:37:24.000Z</time>
      </trkpt>
      <trkpt lat="48.00508" lon="6.84708">
        <ele>911.6</ele>
        <time>2013-01-19T17:37:25.000Z</time>
      </trkpt>
      <trkpt lat="48.00512" lon="6.84709">
        <ele>911.6</ele>
        <time>2013-01-19T17:37:26.000Z</time>
      </trkpt>
      <trkpt lat="48.00516" lon="6.84707">
        <ele>912.5</ele>
        <time>2013-01-19T17:37:27.000Z</time>
      </trkpt>
      <trkpt lat="48.00519" lon="6.84706">
        <ele>915.1</ele>
        <time>2013-01-19T17:37:28.000Z</time>
      </trkpt>
      <trkpt lat="48.00519" lon="6.84701">
        <ele>919.7</ele>
        <time>2013-01-19T17:37:34.000Z</time>
      </trkpt>
      <trkpt lat="48.0052" lon="6.84699">
        <ele>919.8</ele>
        <time>2013-01-19T17:37:35.000Z</time>
      </trkpt>
      <trkpt lat="48.00522" lon="6.84699">
        <ele>920.9</ele>
        <time>2013-01-19T17:37:36.000Z</time>
      </trkpt>
      <trkpt lat="48.00525" lon="6.84706">
        <ele>919.8</ele>
        <time>2013-01-19T17:37:37.000Z</time>
      </trkpt>
      <trkpt lat="48.00528" lon="6.84705">
        <ele>920</ele>
        <time>2013-01-19T17:37:40.000Z</time>
      </trkpt>
      <trkpt lat="48.00531" lon="6.84706">
        <ele>919.8</ele>
        <time>2013-01-19T17:37:41.000Z</time>
      </trkpt>
      <trkpt lat="48.0053" lon="6.847">
        <ele>923</ele>
        <time>2013-01-19T17:37:46.000Z</time>
      </trkpt>
      <trkpt lat="48.0053" lon="6.84698">
        <ele>922.4</ele>
        <time>2013-01-19T17:37:47.000Z</time>
      </trkpt>
      <trkpt lat="48.00533" lon="6.84693">
        <ele>924.3</ele>
        <time>2013-01-19T17:38:10.000Z</time>
      </trkpt>
      <trkpt lat="48.00534" lon="6.84694">
        <ele>925.6</ele>
        <time>2013-01-19T17:38:11.000Z</time>
      </trkpt>
      <trkpt lat="48.00539" lon="6.84697">
        <ele>925.9</ele>
        <time>2013-01-19T17:38:12.000Z</time>
      </trkpt>
      <trkpt lat="48.00542" lon="6.84701">
        <ele>925.9</ele>
        <time>2013-01-19T17:38:13.000Z</time>
      </trkpt>
      <trkpt lat="48.00543" lon="6.84702">
        <ele>926.4</ele>
        <time>2013-01-19T17:38:14.000Z</time>
      </trkpt>
      <trkpt lat="48.00545" lon="6.84702">
        <ele>925.1</ele>
        <time>2013-01-19T17:38:20.000Z</time>
      </trkpt>
      <trkpt lat="48.00548" lon="6.84701">
        <ele>926.4</ele>
        <time>2013-01-19T17:38:21.000Z</time>
      </trkpt>
      <trkpt lat="48.0055" lon="6.84704">
        <ele>926.4</ele>
        <time>2013-01-19T17:38:26.000Z</time>
      </trkpt>
      <trkpt lat="48.00552" lon="6.84705">
        <ele>925.6</ele>
        <time>2013-01-19T17:38:27.000Z</time>
      </trkpt>
      <trkpt lat="48.00553" lon="6.84707">
        <ele>925</ele>
        <time>2013-01-19T17:38:28.000Z</time>
      </trkpt>
      <trkpt lat="48.00554" lon="6.84711">
        <ele>924.6</ele>
        <time>2013-01-19T17:38:29.000Z</time>
      </trkpt>
      <trkpt lat="48.00556" lon="6.84716">
        <ele>922.6</ele>
        <time>2013-01-19T17:38:32.000Z</time>
      </trkpt>
      <trkpt lat="48.00555" lon="6.84719">
        <ele>921.8</ele>
        <time>2013-01-19T17:38:33.000Z</time>
      </trkpt>
      <trkpt lat="48.00557" lon="6.84722">
        <ele>921.3</ele>
        <time>2013-01-19T17:38:37.000Z</time>
      </trkpt>
      <trkpt lat="48.00559" lon="6.84726">
        <ele>921</ele>
        <time>2013-01-19T17:38:38.000Z</time>
      </trkpt>
      <trkpt lat="48.00556" lon="6.84731">
        <ele>920.1</ele>
        <time>2013-01-19T17:38:45.000Z</time>
      </trkpt>
      <trkpt lat="48.00556" lon="6.84734">
        <ele>920.2</ele>
        <time>2013-01-19T17:38:46.000Z</time>
      </trkpt>
      <trkpt lat="48.00557" lon="6.84735">
        <ele>919.6</ele>
        <time>2013-01-19T17:38:48.000Z</time>
      </trkpt>
      <trkpt lat="48.00558" lon="6.8474">
        <ele>919.8</ele>
        <time>2013-01-19T17:38:49.000Z</time>
      </trkpt>
      <trkpt lat="48.00558" lon="6.84746">
        <ele>921.7</ele>
        <time>2013-01-19T17:38:53.000Z</time>
      </trkpt>
      <trkpt lat="48.0056" lon="6.84746">
        <ele>921.4</ele>
        <time>2013-01-19T17:38:54.000Z</time>
      </trkpt>
      <trkpt lat="48.00563" lon="6.8475">
        <ele>919.3</ele>
        <time>2013-01-19T17:39:00.000Z</time>
      </trkpt>
      <trkpt lat="48.00563" lon="6.84751">
        <ele>919.1</ele>
        <time>2013-01-19T17:39:01.000Z</time>
      </trkpt>
      <trkpt lat="48.00564" lon="6.84755">
        <ele>918.9</ele>
        <time>2013-01-19T17:39:10.000Z</time>
      </trkpt>
      <trkpt lat="48.00564" lon="6.84759">
        <ele>919.3</ele>
        <time>2013-01-19T17:39:11.000Z</time>
      </trkpt>
      <trkpt lat="48.00566" lon="6.84764">
        <ele>919.4</ele>
        <time>2013-01-19T17:39:13.000Z</time>
      </trkpt>
      <trkpt lat="48.00567" lon="6.84766">
        <ele>920</ele>
        <time>2013-01-19T17:39:14.000Z</time>
      </trkpt>
      <trkpt lat="48.00567" lon="6.84771">
        <ele>918.7</ele>
        <time>2013-01-19T17:39:18.000Z</time>
      </trkpt>
      <trkpt lat="48.00566" lon="6.84775">
        <ele>918.7</ele>
        <time>2013-01-19T17:39:19.000Z</time>
      </trkpt>
      <trkpt lat="48.00562" lon="6.84779">
        <ele>920.4</ele>
        <time>2013-01-19T17:39:22.000Z</time>
      </trkpt>
      <trkpt lat="48.00563" lon="6.84781">
        <ele>920.3</ele>
        <time>2013-01-19T17:39:23.000Z</time>
      </trkpt>
      <trkpt lat="48.00565" lon="6.84785">
        <ele>920.7</ele>
        <time>2013-01-19T17:39:27.000Z</time>
      </trkpt>
      <trkpt lat="48.00566" lon="6.84787">
        <ele>920</ele>
        <time>2013-01-19T17:39:28.000Z</time>
      </trkpt>
      <trkpt lat="48.00569" lon="6.84791">
        <ele>920.8</ele>
        <time>2013-01-19T17:39:34.000Z</time>
      </trkpt>
      <trkpt lat="48.00569" lon="6.84793">
        <ele>921</ele>
        <time>2013-01-19T17:39:35.000Z</time>
      </trkpt>
      <trkpt lat="48.00571" lon="6.84799">
        <ele>921.9</ele>
        <time>2013-01-19T17:39:39.000Z</time>
      </trkpt>
      <trkpt lat="48.00571" lon="6.848">
        <ele>921.9</ele>
        <time>2013-01-19T17:39:40.000Z</time>
      </trkpt>
      <trkpt lat="48.00573" lon="6.84806">
        <ele>919.2</ele>
        <time>2013-01-19T17:39:49.000Z</time>
      </trkpt>
      <trkpt lat="48.00574" lon="6.84808">
        <ele>919</ele>
        <time>2013-01-19T17:39:50.000Z</time>
      </trkpt>
      <trkpt lat="48.00576" lon="6.84814">
        <ele>917.5</ele>
        <time>2013-01-19T17:39:57.000Z</time>
      </trkpt>
      <trkpt lat="48.00576" lon="6.84815">
        <ele>917.2</ele>
        <time>2013-01-19T17:39:58.000Z</time>
      </trkpt>
      <trkpt lat="48.00574" lon="6.84812">
        <ele>916.2</ele>
        <time>2013-01-19T17:40:00.000Z</time>
      </trkpt>
      <trkpt lat="48.00573" lon="6.84809">
        <ele>915.2</ele>
        <time>2013-01-19T17:40:01.000Z</time>
      </trkpt>
      <trkpt lat="48.00576" lon="6.84812">
        <ele>914.1</ele>
        <time>2013-01-19T17:40:07.000Z</time>
      </trkpt>
      <trkpt lat="48.00577" lon="6.84815">
        <ele>913.9</ele>
        <time>2013-01-19T17:40:08.000Z</time>
      </trkpt>
      <trkpt lat="48.0058" lon="6.8481">
        <ele>915.6</ele>
        <time>2013-01-19T17:40:12.000Z</time>
      </trkpt>
      <trkpt lat="48.00581" lon="6.8481">
        <ele>914.2</ele>
        <time>2013-01-19T17:40:13.000Z</time>
      </trkpt>
      <trkpt lat="48.00584" lon="6.84805">
        <ele>914.9</ele>
        <time>2013-01-19T17:40:19.000Z</time>
      </trkpt>
      <trkpt lat="48.00584" lon="6.84803">
        <ele>915.6</ele>
        <time>2013-01-19T17:40:20.000Z</time>
      </trkpt>
      <trkpt lat="48.00584" lon="6.84797">
        <ele>913.5</ele>
        <time>2013-01-19T17:40:43.000Z</time>
      </trkpt>
      <trkpt lat="48.00583" lon="6.84796">
        <ele>913.1</ele>
        <time>2013-01-19T17:40:44.000Z</time>
      </trkpt>
      <trkpt lat="48.00587" lon="6.84795">
        <ele>913.9</ele>
        <time>2013-01-19T17:40:48.000Z</time>
      </trkpt>
      <trkpt lat="48.00589" lon="6.84799">
        <ele>913.7</ele>
        <time>2013-01-19T17:40:49.000Z</time>
      </trkpt>
      <trkpt lat="48.00593" lon="6.84805">
        <ele>912.6</ele>
        <time>2013-01-19T17:40:50.000Z</time>
      </trkpt>
      <trkpt lat="48.00597" lon="6.84802">
        <ele>910.4</ele>
        <time>2013-01-19T17:41:00.000Z</time>
      </trkpt>
      <trkpt lat="48.00597" lon="6.84802">
        <ele>910.7</ele>
        <time>2013-01-19T17:41:01.000Z</time>
      </trkpt>
      <trkpt lat="48.006" lon="6.84799">
        <ele>910.7</ele>
        <time>2013-01-19T17:42:20.000Z</time>
      </trkpt>
      <trkpt lat="48.00603" lon="6.84796">
        <ele>913.6</ele>
        <time>2013-01-19T17:42:21.000Z</time>
      </trkpt>
      <trkpt lat="48.00604" lon="6.84792">
        <ele>912.6</ele>
        <time>2013-01-19T17:42:22.000Z</time>
      </trkpt>
      <trkpt lat="48.00606" lon="6.84787">
        <ele>913.3</ele>
        <time>2013-01-19T17:42:23.000Z</time>
      </trkpt>
      <trkpt lat="48.00608" lon="6.84786">
        <ele>913.1</ele>
        <time>2013-01-19T17:42:26.000Z</time>
      </trkpt>
      <trkpt lat="48.0061" lon="6.84783">
        <ele>913</ele>
        <time>2013-01-19T17:42:27.000Z</time>
      </trkpt>
      <trkpt lat="48.00614" lon="6.84786">
        <ele>913.9</ele>
        <time>2013-01-19T17:42:36.000Z</time>
      </trkpt>
      <trkpt lat="48.00614" lon="6.84786">
        <ele>913.9</ele>
        <time>2013-01-19T17:42:37.000Z</time>
      </trkpt>
      <trkpt lat="48.00617" lon="6.84788">
        <ele>914.6</ele>
        <time>2013-01-19T17:42:54.000Z</time>
      </trkpt>
      <trkpt lat="48.00619" lon="6.84792">
        <ele>915</ele>
        <time>2013-01-19T17:42:55.000Z</time>
      </trkpt>
      <trkpt lat="48.0062" lon="6.84794">
        <ele>914.9</ele>
        <time>2013-01-19T17:42:56.000Z</time>
      </trkpt>
      <trkpt lat="48.00623" lon="6.84797">
        <ele>914</ele>
        <time>2013-01-19T17:42:57.000Z</time>
      </trkpt>
      <trkpt lat="48.00625" lon="6.84801">
        <ele>913</ele>
        <time>2013-01-19T17:42:59.000Z</time>
      </trkpt>
      <trkpt lat="48.0063" lon="6.84803">
        <ele>912.8</ele>
        <time>2013-01-19T17:43:00.000Z</time>
      </trkpt>
      <trkpt lat="48.00635" lon="6.84804">
        <ele>914.5</ele>
        <time>2013-01-19T17:43:05.000Z</time>
      </trkpt>
      <trkpt lat="48.00638" lon="6.84805">
        <ele>913.8</ele>
        <time>2013-01-19T17:43:06.000Z</time>
      </trkpt>
      <trkpt lat="48.00641" lon="6.84808">
        <ele>913.2</ele>
        <time>2013-01-19T17:43:12.000Z</time>
      </trkpt>
      <trkpt lat="48.00643" lon="6.84809">
        <ele>914.1</ele>
        <time>2013-01-19T17:43:13.000Z</time>
      </trkpt>
      <trkpt lat="48.00647" lon="6.84811">
        <ele>916.3</ele>
        <time>2013-01-19T17:43:17.000Z</time>
      </trkpt>
      <trkpt lat="48.00648" lon="6.84813">
        <ele>915.1</ele>
        <time>2013-01-19T17:43:18.000Z</time>
      </trkpt>
      <trkpt lat="48.0065" lon="6.84817">
        <ele>915.8</ele>
        <time>2013-01-19T17:43:19.000Z</time>
      </trkpt>
      <trkpt lat="48.00651" lon="6.84819">
        <ele>916.5</ele>
        <time>2013-01-19T17:43:20.000Z</time>
      </trkpt>
      <trkpt lat="48.00653" lon="6.84824">
        <ele>915.6</ele>
        <time>2013-01-19T17:43:25.000Z</time>
      </trkpt>
      <trkpt lat="48.00653" lon="6.84826">
        <ele>915.5</ele>
        <time>2013-01-19T17:43:26.000Z</time>
      </trkpt>
      <trkpt lat="48.00657" lon="6.84827">
        <ele>920.8</ele>
        <time>2013-01-19T17:43:30.000Z</time>
      </trkpt>
      <trkpt lat="48.00658" lon="6.84828">
        <ele>922</ele>
        <time>2013-01-19T17:43:31.000Z</time>
      </trkpt>
      <trkpt lat="48.00657" lon="6.84833">
        <ele>922.9</ele>
        <time>2013-01-19T17:43:35.000Z</time>
      </trkpt>
      <trkpt lat="48.00658" lon="6.84835">
        <ele>922.4</ele>
        <time>2013-01-19T17:43:36.000Z</time>
      </trkpt>
      <trkpt lat="48.00656" lon="6.8484">
        <ele>924.7</ele>
        <time>2013-01-19T17:43:42.000Z</time>
      </trkpt>
      <trkpt lat="48.00657" lon="6.84842">
        <ele>924.6</ele>
        <time>2013-01-19T17:43:43.000Z</time>
      </trkpt>
      <trkpt lat="48.00661" lon="6.84838">
        <ele>927</ele>
        <time>2013-01-19T17:43:58.000Z</time>
      </trkpt>
      <trkpt lat="48.00661" lon="6.84837">
        <ele>926.8</ele>
        <time>2013-01-19T17:43:59.000Z</time>
      </trkpt>
      <trkpt lat="48.00664" lon="6.84837">
        <ele>930.8</ele>
        <time>2013-01-19T17:45:31.000Z</time>
      </trkpt>
      <trkpt lat="48.00667" lon="6.84838">
        <ele>928.8</ele>
        <time>2013-01-19T17:45:32.000Z</time>
      </trkpt>
      <trkpt lat="48.00671" lon="6.8484">
        <ele>928.7</ele>
        <time>2013-01-19T17:46:15.000Z</time>
      </trkpt>
      <trkpt lat="48.00673" lon="6.84837">
        <ele>929.3</ele>
        <time>2013-01-19T17:46:16.000Z</time>
      </trkpt>
      <trkpt lat="48.00677" lon="6.84835">
        <ele>928.4</ele>
        <time>2013-01-19T17:46:17.000Z</time>
      </trkpt>
      <trkpt lat="48.00677" lon="6.84835">
        <ele>928.8</ele>
        <time>2013-01-19T17:46:18.000Z</time>
      </trkpt>
      <trkpt lat="48.00678" lon="6.84829">
        <ele>930.1</ele>
        <time>2013-01-19T17:46:22.000Z</time>
      </trkpt>
      <trkpt lat="48.00678" lon="6.84828">
        <ele>930</ele>
        <time>2013-01-19T17:46:23.000Z</time>
      </trkpt>
      <trkpt lat="48.0068" lon="6.84825">
        <ele>931</ele>
        <time>2013-01-19T17:46:28.000Z</time>
      </trkpt>
      <trkpt lat="48.00681" lon="6.84823">
        <ele>930.6</ele>
        <time>2013-01-19T17:46:29.000Z</time>
      </trkpt>
      <trkpt lat="48.00684" lon="6.84819">
        <ele>930.7</ele>
        <time>2013-01-19T17:46:31.000Z</time>
      </trkpt>
      <trkpt lat="48.00684" lon="6.84815">
        <ele>930.9</ele>
        <time>2013-01-19T17:46:32.000Z</time>
      </trkpt>
      <trkpt lat="48.00687" lon="6.8481">
        <ele>933.8</ele>
        <time>2013-01-19T17:46:36.000Z</time>
      </trkpt>
      <trkpt lat="48.00688" lon="6.8481">
        <ele>934</ele>
        <time>2013-01-19T17:46:37.000Z</time>
      </trkpt>
      <trkpt lat="48.00689" lon="6.84808">
        <ele>934.6</ele>
        <time>2013-01-19T17:46:50.000Z</time>
      </trkpt>
      <trkpt lat="48.00691" lon="6.84804">
        <ele>933.7</ele>
        <time>2013-01-19T17:46:51.000Z</time>
      </trkpt>
      <trkpt lat="48.00694" lon="6.84799">
        <ele>933.5</ele>
        <time>2013-01-19T17:46:56.000Z</time>
      </trkpt>
      <trkpt lat="48.00694" lon="6.84799">
        <ele>933.5</ele>
        <time>2013-01-19T17:46:57.000Z</time>
      </trkpt>
      <trkpt lat="48.00695" lon="6.84797">
        <ele>933.8</ele>
        <time>2013-01-19T17:46:58.000Z</time>
      </trkpt>
      <trkpt lat="48.00697" lon="6.84793">
        <ele>933.7</ele>
        <time>2013-01-19T17:46:59.000Z</time>
      </trkpt>
      <trkpt lat="48.007" lon="6.84792">
        <ele>935.5</ele>
        <time>2013-01-19T17:47:00.000Z</time>
      </trkpt>
      <trkpt lat="48.00701" lon="6.84792">
        <ele>934.9</ele>
        <time>2013-01-19T17:47:01.000Z</time>
      </trkpt>
      <trkpt lat="48.00705" lon="6.8479">
        <ele>934.9</ele>
        <time>2013-01-19T17:47:05.000Z</time>
      </trkpt>
      <trkpt lat="48.00705" lon="6.8479">
        <ele>934.9</ele>
        <time>2013-01-19T17:47:06.000Z</time>
      </trkpt>
      <trkpt lat="48.00706" lon="6.84785">
        <ele>935.6</ele>
        <time>2013-01-19T17:47:10.000Z</time>
      </trkpt>
      <trkpt lat="48.00707" lon="6.84783">
        <ele>935.6</ele>
        <time>2013-01-19T17:47:11.000Z</time>
      </trkpt>
      <trkpt lat="48.00709" lon="6.84781">
        <ele>936.4</ele>
        <time>2013-01-19T17:47:15.000Z</time>
      </trkpt>
      <trkpt lat="48.00711" lon="6.84779">
        <ele>937</ele>
        <time>2013-01-19T17:47:16.000Z</time>
      </trkpt>
      <trkpt lat="48.00714" lon="6.84776">
        <ele>939</ele>
        <time>2013-01-19T17:47:19.000Z</time>
      </trkpt>
      <trkpt lat="48.00715" lon="6.84776">
        <ele>939.5</ele>
        <time>2013-01-19T17:47:20.000Z</time>
      </trkpt>
      <trkpt lat="48.00715" lon="6.84771">
        <ele>938.6</ele>
        <time>2013-01-19T17:47:54.000Z</time>
      </trkpt>
      <trkpt lat="48.00716" lon="6.84766">
        <ele>939.1</ele>
        <time>2013-01-19T17:47:55.000Z</time>
      </trkpt>
      <trkpt lat="48.00717" lon="6.84761">
        <ele>939.7</ele>
        <time>2013-01-19T17:48:05.000Z</time>
      </trkpt>
      <trkpt lat="48.00717" lon="6.8476">
        <ele>939.5</ele>
        <time>2013-01-19T17:48:06.000Z</time>
      </trkpt>
      <trkpt lat="48.00716" lon="6.84757">
        <ele>940</ele>
        <time>2013-01-19T17:49:17.000Z</time>
      </trkpt>
      <trkpt lat="48.00715" lon="6.84752">
        <ele>940.1</ele>
        <time>2013-01-19T17:49:18.000Z</time>
      </trkpt>
      <trkpt lat="48.00714" lon="6.84747">
        <ele>939.7</ele>
        <time>2013-01-19T17:49:20.000Z</time>
      </trkpt>
      <trkpt lat="48.00713" lon="6.84743">
        <ele>940.2</ele>
        <time>2013-01-19T17:49:22.000Z</time>
      </trkpt>
      <trkpt lat="48.00711" lon="6.84739">
        <ele>940.2</ele>
        <time>2013-01-19T17:49:24.000Z</time>
      </trkpt>
      <trkpt lat="48.0071" lon="6.84733">
        <ele>939.8</ele>
        <time>2013-01-19T17:49:25.000Z</time>
      </trkpt>
      <trkpt lat="48.00706" lon="6.84731">
        <ele>939.5</ele>
        <time>2013-01-19T17:49:27.000Z</time>
      </trkpt>
      <trkpt lat="48.00705" lon="6.84726">
        <ele>940.1</ele>
        <time>2013-01-19T17:49:28.000Z</time>
      </trkpt>
      <trkpt lat="48.00703" lon="6.84723">
        <ele>941</ele>
        <time>2013-01-19T17:49:29.000Z</time>
      </trkpt>
      <trkpt lat="48.00701" lon="6.84721">
        <ele>940.2</ele>
        <time>2013-01-19T17:49:30.000Z</time>
      </trkpt>
      <trkpt lat="48.00699" lon="6.84716">
        <ele>940.9</ele>
        <time>2013-01-19T17:49:32.000Z</time>
      </trkpt>
      <trkpt lat="48.00698" lon="6.84713">
        <ele>941.3</ele>
        <time>2013-01-19T17:49:33.000Z</time>
      </trkpt>
      <trkpt lat="48.00696" lon="6.84708">
        <ele>941.3</ele>
        <time>2013-01-19T17:49:35.000Z</time>
      </trkpt>
      <trkpt lat="48.00695" lon="6.84704">
        <ele>941.5</ele>
        <time>2013-01-19T17:49:36.000Z</time>
      </trkpt>
      <trkpt lat="48.00694" lon="6.84701">
        <ele>941.2</ele>
        <time>2013-01-19T17:49:37.000Z</time>
      </trkpt>
      <trkpt lat="48.00693" lon="6.84696">
        <ele>940.5</ele>
        <time>2013-01-19T17:49:38.000Z</time>
      </trkpt>
      <trkpt lat="48.00692" lon="6.84691">
        <ele>940.1</ele>
        <time>2013-01-19T17:49:39.000Z</time>
      </trkpt>
      <trkpt lat="48.00691" lon="6.84689">
        <ele>940.6</ele>
        <time>2013-01-19T17:49:40.000Z</time>
      </trkpt>
      <trkpt lat="48.00695" lon="6.84687">
        <ele>952.4</ele>
        <time>2013-01-19T17:50:08.000Z</time>
      </trkpt>
      <trkpt lat="48.00695" lon="6.84685">
        <ele>952.7</ele>
        <time>2013-01-19T17:50:09.000Z</time>
      </trkpt>
      <trkpt lat="48.00695" lon="6.84682">
        <ele>954.1</ele>
        <time>2013-01-19T17:51:33.000Z</time>
      </trkpt>
      <trkpt lat="48.00701" lon="6.84684">
        <ele>951.5</ele>
        <time>2013-01-19T17:51:34.000Z</time>
      </trkpt>
      <trkpt lat="48.00705" lon="6.84686">
        <ele>951.8</ele>
        <time>2013-01-19T17:51:36.000Z</time>
      </trkpt>
      <trkpt lat="48.00707" lon="6.84687">
        <ele>951.1</ele>
        <time>2013-01-19T17:51:37.000Z</time>
      </trkpt>
      <trkpt lat="48.00711" lon="6.8469">
        <ele>952.1</ele>
        <time>2013-01-19T17:51:39.000Z</time>
      </trkpt>
      <trkpt lat="48.00712" lon="6.84691">
        <ele>952.7</ele>
        <time>2013-01-19T17:51:40.000Z</time>
      </trkpt>
      <trkpt lat="48.00715" lon="6.84695">
        <ele>954.3</ele>
        <time>2013-01-19T17:51:44.000Z</time>
      </trkpt>
      <trkpt lat="48.00717" lon="6.84697">
        <ele>954.2</ele>
        <time>2013-01-19T17:51:45.000Z</time>
      </trkpt>
      <trkpt lat="48.0072" lon="6.84701">
        <ele>953.3</ele>
        <time>2013-01-19T17:51:48.000Z</time>
      </trkpt>
      <trkpt lat="48.00721" lon="6.84705">
        <ele>953.7</ele>
        <time>2013-01-19T17:51:49.000Z</time>
      </trkpt>
      <trkpt lat="48.00723" lon="6.84709">
        <ele>952.3</ele>
        <time>2013-01-19T17:51:52.000Z</time>
      </trkpt>
      <trkpt lat="48.00723" lon="6.84712">
        <ele>951.9</ele>
        <time>2013-01-19T17:51:53.000Z</time>
      </trkpt>
      <trkpt lat="48.00728" lon="6.84713">
        <ele>952.9</ele>
        <time>2013-01-19T17:52:00.000Z</time>
      </trkpt>
      <trkpt lat="48.00728" lon="6.84713">
        <ele>952.7</ele>
        <time>2013-01-19T17:52:01.000Z</time>
      </trkpt>
      <trkpt lat="48.00732" lon="6.84712">
        <ele>952.1</ele>
        <time>2013-01-19T17:52:08.000Z</time>
      </trkpt>
      <trkpt lat="48.00735" lon="6.84716">
        <ele>951.6</ele>
        <time>2013-01-19T17:52:09.000Z</time>
      </trkpt>
      <trkpt lat="48.00738" lon="6.84718">
        <ele>953.2</ele>
        <time>2013-01-19T17:52:13.000Z</time>
      </trkpt>
      <trkpt lat="48.00739" lon="6.84718">
        <ele>953.8</ele>
        <time>2013-01-19T17:52:14.000Z</time>
      </trkpt>
      <trkpt lat="48.00744" lon="6.84719">
        <ele>954.5</ele>
        <time>2013-01-19T17:52:18.000Z</time>
      </trkpt>
      <trkpt lat="48.00745" lon="6.8472">
        <ele>955.2</ele>
        <time>2013-01-19T17:52:19.000Z</time>
      </trkpt>
      <trkpt lat="48.00749" lon="6.84717">
        <ele>957.2</ele>
        <time>2013-01-19T17:52:26.000Z</time>
      </trkpt>
      <trkpt lat="48.00749" lon="6.84717">
        <ele>956.9</ele>
        <time>2013-01-19T17:52:27.000Z</time>
      </trkpt>
      <trkpt lat="48.00753" lon="6.84716">
        <ele>957.7</ele>
        <time>2013-01-19T17:52:34.000Z</time>
      </trkpt>
      <trkpt lat="48.00754" lon="6.84717">
        <ele>957.9</ele>
        <time>2013-01-19T17:52:35.000Z</time>
      </trkpt>
      <trkpt lat="48.00758" lon="6.8472">
        <ele>955.7</ele>
        <time>2013-01-19T17:52:45.000Z</time>
      </trkpt>
      <trkpt lat="48.0076" lon="6.8472">
        <ele>954.1</ele>
        <time>2013-01-19T17:52:46.000Z</time>
      </trkpt>
      <trkpt lat="48.00763" lon="6.8472">
        <ele>954.3</ele>
        <time>2013-01-19T17:53:16.000Z</time>
      </trkpt>
      <trkpt lat="48.00771" lon="6.84718">
        <ele>955</ele>
        <time>2013-01-19T17:53:17.000Z</time>
      </trkpt>
      <trkpt lat="48.00775" lon="6.84718">
        <ele>955.3</ele>
        <time>2013-01-19T17:53:18.000Z</time>
      </trkpt>
      <trkpt lat="48.00778" lon="6.84718">
        <ele>955.3</ele>
        <time>2013-01-19T17:53:20.000Z</time>
      </trkpt>
      <trkpt lat="48.0078" lon="6.84719">
        <ele>955.6</ele>
        <time>2013-01-19T17:53:21.000Z</time>
      </trkpt>
      <trkpt lat="48.00784" lon="6.84717">
        <ele>955.5</ele>
        <time>2013-01-19T17:53:26.000Z</time>
      </trkpt>
      <trkpt lat="48.00785" lon="6.84717">
        <ele>955.5</ele>
        <time>2013-01-19T17:53:27.000Z</time>
      </trkpt>
      <trkpt lat="48.00788" lon="6.84717">
        <ele>956.5</ele>
        <time>2013-01-19T17:53:35.000Z</time>
      </trkpt>
      <trkpt lat="48.00791" lon="6.84718">
        <ele>956.7</ele>
        <time>2013-01-19T17:53:36.000Z</time>
      </trkpt>
      <trkpt lat="48.00795" lon="6.84716">
        <ele>957.4</ele>
        <time>2013-01-19T17:53:39.000Z</time>
      </trkpt>
      <trkpt lat="48.00797" lon="6.84717">
        <ele>957.9</ele>
        <time>2013-01-19T17:53:40.000Z</time>
      </trkpt>
      <trkpt lat="48.00801" lon="6.84714">
        <ele>959.2</ele>
        <time>2013-01-19T17:53:43.000Z</time>
      </trkpt>
      <trkpt lat="48.00803" lon="6.84712">
        <ele>959.9</ele>
        <time>2013-01-19T17:53:44.000Z</time>
      </trkpt>
      <trkpt lat="48.00806" lon="6.8471">
        <ele>959.9</ele>
        <time>2013-01-19T17:53:47.000Z</time>
      </trkpt>
      <trkpt lat="48.00809" lon="6.8471">
        <ele>960</ele>
        <time>2013-01-19T17:53:48.000Z</time>
      </trkpt>
      <trkpt lat="48.00812" lon="6.84709">
        <ele>959.9</ele>
        <time>2013-01-19T17:53:50.000Z</time>
      </trkpt>
      <trkpt lat="48.00813" lon="6.84709">
        <ele>960.5</ele>
        <time>2013-01-19T17:53:51.000Z</time>
      </trkpt>
      <trkpt lat="48.00817" lon="6.84707">
        <ele>960.7</ele>
        <time>2013-01-19T17:53:57.000Z</time>
      </trkpt>
      <trkpt lat="48.00819" lon="6.84706">
        <ele>960.9</ele>
        <time>2013-01-19T17:53:58.000Z</time>
      </trkpt>
      <trkpt lat="48.0082" lon="6.847">
        <ele>962</ele>
        <time>2013-01-19T17:54:02.000Z</time>
      </trkpt>
      <trkpt lat="48.0082" lon="6.84699">
        <ele>962.2</ele>
        <time>2013-01-19T17:54:03.000Z</time>
      </trkpt>
      <trkpt lat="48.00824" lon="6.84696">
        <ele>965.8</ele>
        <time>2013-01-19T17:54:08.000Z</time>
      </trkpt>
      <trkpt lat="48.00825" lon="6.84696">
        <ele>966.4</ele>
        <time>2013-01-19T17:54:09.000Z</time>
      </trkpt>
      <trkpt lat="48.00829" lon="6.84693">
        <ele>965.2</ele>
        <time>2013-01-19T17:54:12.000Z</time>
      </trkpt>
      <trkpt lat="48.00829" lon="6.84691">
        <ele>965.3</ele>
        <time>2013-01-19T17:54:13.000Z</time>
      </trkpt>
      <trkpt lat="48.00833" lon="6.84692">
        <ele>965.7</ele>
        <time>2013-01-19T17:54:24.000Z</time>
      </trkpt>
      <trkpt lat="48.00834" lon="6.84693">
        <ele>965.7</ele>
        <time>2013-01-19T17:54:25.000Z</time>
      </trkpt>
      <trkpt lat="48.00838" lon="6.84694">
        <ele>965.5</ele>
        <time>2013-01-19T17:54:32.000Z</time>
      </trkpt>
      <trkpt lat="48.00839" lon="6.84694">
        <ele>965.3</ele>
        <time>2013-01-19T17:54:33.000Z</time>
      </trkpt>
      <trkpt lat="48.00842" lon="6.84695">
        <ele>965.6</ele>
        <time>2013-01-19T17:54:35.000Z</time>
      </trkpt>
      <trkpt lat="48.00843" lon="6.84696">
        <ele>966.1</ele>
        <time>2013-01-19T17:54:36.000Z</time>
      </trkpt>
      <trkpt lat="48.00847" lon="6.84697">
        <ele>965.3</ele>
        <time>2013-01-19T17:54:55.000Z</time>
      </trkpt>
      <trkpt lat="48.00849" lon="6.847">
        <ele>965.2</ele>
        <time>2013-01-19T17:54:56.000Z</time>
      </trkpt>
      <trkpt lat="48.00851" lon="6.84701">
        <ele>964.9</ele>
        <time>2013-01-19T17:54:57.000Z</time>
      </trkpt>
      <trkpt lat="48.00853" lon="6.84704">
        <ele>965</ele>
        <time>2013-01-19T17:54:58.000Z</time>
      </trkpt>
      <trkpt lat="48.00856" lon="6.84709">
        <ele>968.1</ele>
        <time>2013-01-19T17:55:00.000Z</time>
      </trkpt>
      <trkpt lat="48.00857" lon="6.84711">
        <ele>968.3</ele>
        <time>2013-01-19T17:55:01.000Z</time>
      </trkpt>
      <trkpt lat="48.00859" lon="6.84715">
        <ele>968</ele>
        <time>2013-01-19T17:55:04.000Z</time>
      </trkpt>
      <trkpt lat="48.0086" lon="6.84716">
        <ele>967.9</ele>
        <time>2013-01-19T17:55:05.000Z</time>
      </trkpt>
      <trkpt lat="48.00863" lon="6.8472">
        <ele>968.4</ele>
        <time>2013-01-19T17:55:10.000Z</time>
      </trkpt>
      <trkpt lat="48.00864" lon="6.84721">
        <ele>968.1</ele>
        <time>2013-01-19T17:55:11.000Z</time>
      </trkpt>
      <trkpt lat="48.00867" lon="6.84725">
        <ele>968.3</ele>
        <time>2013-01-19T17:55:15.000Z</time>
      </trkpt>
      <trkpt lat="48.00867" lon="6.84727">
        <ele>969</ele>
        <time>2013-01-19T17:55:16.000Z</time>
      </trkpt>
      <trkpt lat="48.00871" lon="6.84731">
        <ele>969.3</ele>
        <time>2013-01-19T17:55:21.000Z</time>
      </trkpt>
      <trkpt lat="48.00871" lon="6.84732">
        <ele>969.6</ele>
        <time>2013-01-19T17:55:22.000Z</time>
      </trkpt>
      <trkpt lat="48.00874" lon="6.84736">
        <ele>969.7</ele>
        <time>2013-01-19T17:55:27.000Z</time>
      </trkpt>
      <trkpt lat="48.00875" lon="6.84736">
        <ele>969.9</ele>
        <time>2013-01-19T17:55:28.000Z</time>
      </trkpt>
      <trkpt lat="48.00878" lon="6.84737">
        <ele>969.5</ele>
        <time>2013-01-19T17:55:32.000Z</time>
      </trkpt>
      <trkpt lat="48.00879" lon="6.84738">
        <ele>970.5</ele>
        <time>2013-01-19T17:55:33.000Z</time>
      </trkpt>
      <trkpt lat="48.00883" lon="6.84739">
        <ele>970.2</ele>
        <time>2013-01-19T17:55:36.000Z</time>
      </trkpt>
      <trkpt lat="48.00884" lon="6.8474">
        <ele>970.6</ele>
        <time>2013-01-19T17:55:37.000Z</time>
      </trkpt>
      <trkpt lat="48.00886" lon="6.84745">
        <ele>968.8</ele>
        <time>2013-01-19T17:55:42.000Z</time>
      </trkpt>
      <trkpt lat="48.00888" lon="6.84745">
        <ele>968.1</ele>
        <time>2013-01-19T17:55:43.000Z</time>
      </trkpt>
      <trkpt lat="48.0089" lon="6.8475">
        <ele>966.3</ele>
        <time>2013-01-19T17:55:51.000Z</time>
      </trkpt>
      <trkpt lat="48.0089" lon="6.84751">
        <ele>966.5</ele>
        <time>2013-01-19T17:55:52.000Z</time>
      </trkpt>
      <trkpt lat="48.00892" lon="6.84755">
        <ele>966.6</ele>
        <time>2013-01-19T17:55:55.000Z</time>
      </trkpt>
      <trkpt lat="48.00892" lon="6.84757">
        <ele>967.6</ele>
        <time>2013-01-19T17:55:56.000Z</time>
      </trkpt>
      <trkpt lat="48.00895" lon="6.84763">
        <ele>966.9</ele>
        <time>2013-01-19T17:56:01.000Z</time>
      </trkpt>
      <trkpt lat="48.00895" lon="6.84764">
        <ele>968.1</ele>
        <time>2013-01-19T17:56:02.000Z</time>
      </trkpt>
      <trkpt lat="48.00896" lon="6.8477">
        <ele>965.8</ele>
        <time>2013-01-19T17:56:09.000Z</time>
      </trkpt>
      <trkpt lat="48.00897" lon="6.8477">
        <ele>965.9</ele>
        <time>2013-01-19T17:56:10.000Z</time>
      </trkpt>
      <trkpt lat="48.00899" lon="6.84775">
        <ele>969.7</ele>
        <time>2013-01-19T17:56:15.000Z</time>
      </trkpt>
      <trkpt lat="48.009" lon="6.84776">
        <ele>969.6</ele>
        <time>2013-01-19T17:56:16.000Z</time>
      </trkpt>
      <trkpt lat="48.00902" lon="6.84782">
        <ele>970.5</ele>
        <time>2013-01-19T17:56:20.000Z</time>
      </trkpt>
      <trkpt lat="48.00902" lon="6.84784">
        <ele>970.6</ele>
        <time>2013-01-19T17:56:21.000Z</time>
      </trkpt>
      <trkpt lat="48.00902" lon="6.84789">
        <ele>969.6</ele>
        <time>2013-01-19T17:56:29.000Z</time>
      </trkpt>
      <trkpt lat="48.00902" lon="6.8479">
        <ele>969.6</ele>
        <time>2013-01-19T17:56:30.000Z</time>
      </trkpt>
      <trkpt lat="48.00905" lon="6.84795">
        <ele>970.3</ele>
        <time>2013-01-19T17:56:34.000Z</time>
      </trkpt>
      <trkpt lat="48.00906" lon="6.84796">
        <ele>970.7</ele>
        <time>2013-01-19T17:56:35.000Z</time>
      </trkpt>
      <trkpt lat="48.00908" lon="6.84802">
        <ele>973.1</ele>
        <time>2013-01-19T17:56:40.000Z</time>
      </trkpt>
      <trkpt lat="48.00908" lon="6.84803">
        <ele>973</ele>
        <time>2013-01-19T17:56:41.000Z</time>
      </trkpt>
      <trkpt lat="48.0091" lon="6.84808">
        <ele>975.2</ele>
        <time>2013-01-19T17:56:45.000Z</time>
      </trkpt>
      <trkpt lat="48.00911" lon="6.84809">
        <ele>976</ele>
        <time>2013-01-19T17:56:46.000Z</time>
      </trkpt>
      <trkpt lat="48.00914" lon="6.84812">
        <ele>976.1</ele>
        <time>2013-01-19T17:56:51.000Z</time>
      </trkpt>
      <trkpt lat="48.00915" lon="6.84813">
        <ele>975.8</ele>
        <time>2013-01-19T17:56:52.000Z</time>
      </trkpt>
      <trkpt lat="48.00918" lon="6.84816">
        <ele>977.3</ele>
        <time>2013-01-19T17:56:58.000Z</time>
      </trkpt>
      <trkpt lat="48.00919" lon="6.84817">
        <ele>977.4</ele>
        <time>2013-01-19T17:56:59.000Z</time>
      </trkpt>
      <trkpt lat="48.00923" lon="6.84819">
        <ele>978.3</ele>
        <time>2013-01-19T17:57:05.000Z</time>
      </trkpt>
      <trkpt lat="48.00923" lon="6.84821">
        <ele>978.4</ele>
        <time>2013-01-19T17:57:06.000Z</time>
      </trkpt>
      <trkpt lat="48.00927" lon="6.84821">
        <ele>979.5</ele>
        <time>2013-01-19T17:57:20.000Z</time>
      </trkpt>
      <trkpt lat="48.00928" lon="6.84821">
        <ele>979.3</ele>
        <time>2013-01-19T17:57:21.000Z</time>
      </trkpt>
      <trkpt lat="48.00928" lon="6.84821">
        <ele>979.7</ele>
        <time>2013-01-19T17:57:47.000Z</time>
      </trkpt>
      <trkpt lat="48.00934" lon="6.84821">
        <ele>978</ele>
        <time>2013-01-19T17:57:48.000Z</time>
      </trkpt>
      <trkpt lat="48.00938" lon="6.84822">
        <ele>982.6</ele>
        <time>2013-01-19T18:00:36.000Z</time>
      </trkpt>
      <trkpt lat="48.00939" lon="6.8482">
        <ele>983.9</ele>
        <time>2013-01-19T18:00:37.000Z</time>
      </trkpt>
      <trkpt lat="48.00943" lon="6.84819">
        <ele>986</ele>
        <time>2013-01-19T18:00:45.000Z</time>
      </trkpt>
      <trkpt lat="48.00943" lon="6.84819">
        <ele>986.1</ele>
        <time>2013-01-19T18:00:46.000Z</time>
      </trkpt>
      <trkpt lat="48.00945" lon="6.8482">
        <ele>987.1</ele>
        <time>2013-01-19T18:00:49.000Z</time>
      </trkpt>
      <trkpt lat="48.00948" lon="6.84821">
        <ele>988.1</ele>
        <time>2013-01-19T18:00:50.000Z</time>
      </trkpt>
      <trkpt lat="48.00951" lon="6.84823">
        <ele>987.9</ele>
        <time>2013-01-19T18:00:57.000Z</time>
      </trkpt>
      <trkpt lat="48.00953" lon="6.84825">
        <ele>988.5</ele>
        <time>2013-01-19T18:00:58.000Z</time>
      </trkpt>
      <trkpt lat="48.00956" lon="6.84828">
        <ele>989</ele>
        <time>2013-01-19T18:01:02.000Z</time>
      </trkpt>
      <trkpt lat="48.00957" lon="6.84829">
        <ele>988.4</ele>
        <time>2013-01-19T18:01:03.000Z</time>
      </trkpt>
      <trkpt lat="48.0096" lon="6.84831">
        <ele>988.1</ele>
        <time>2013-01-19T18:01:09.000Z</time>
      </trkpt>
      <trkpt lat="48.00962" lon="6.8483">
        <ele>988.9</ele>
        <time>2013-01-19T18:01:10.000Z</time>
      </trkpt>
      <trkpt lat="48.00965" lon="6.84834">
        <ele>987.4</ele>
        <time>2013-01-19T18:01:18.000Z</time>
      </trkpt>
      <trkpt lat="48.00965" lon="6.84835">
        <ele>987.6</ele>
        <time>2013-01-19T18:01:19.000Z</time>
      </trkpt>
      <trkpt lat="48.00969" lon="6.84836">
        <ele>987.7</ele>
        <time>2013-01-19T18:01:21.000Z</time>
      </trkpt>
      <trkpt lat="48.00971" lon="6.84837">
        <ele>986.9</ele>
        <time>2013-01-19T18:01:23.000Z</time>
      </trkpt>
      <trkpt lat="48.00975" lon="6.8484">
        <ele>986.5</ele>
        <time>2013-01-19T18:01:26.000Z</time>
      </trkpt>
      <trkpt lat="48.00976" lon="6.84842">
        <ele>986.2</ele>
        <time>2013-01-19T18:01:27.000Z</time>
      </trkpt>
      <trkpt lat="48.0098" lon="6.84844">
        <ele>988.4</ele>
        <time>2013-01-19T18:01:31.000Z</time>
      </trkpt>
      <trkpt lat="48.00981" lon="6.84845">
        <ele>988.1</ele>
        <time>2013-01-19T18:01:32.000Z</time>
      </trkpt>
      <trkpt lat="48.00985" lon="6.84846">
        <ele>988.4</ele>
        <time>2013-01-19T18:01:37.000Z</time>
      </trkpt>
      <trkpt lat="48.00986" lon="6.84845">
        <ele>988.7</ele>
        <time>2013-01-19T18:01:38.000Z</time>
      </trkpt>
      <trkpt lat="48.00987" lon="6.84848">
        <ele>989</ele>
        <time>2013-01-19T18:01:40.000Z</time>
      </trkpt>
      <trkpt lat="48.00989" lon="6.8485">
        <ele>988.8</ele>
        <time>2013-01-19T18:01:41.000Z</time>
      </trkpt>
      <trkpt lat="48.00992" lon="6.84854">
        <ele>989.4</ele>
        <time>2013-01-19T18:01:46.000Z</time>
      </trkpt>
      <trkpt lat="48.00992" lon="6.84855">
        <ele>989.9</ele>
        <time>2013-01-19T18:01:47.000Z</time>
      </trkpt>
      <trkpt lat="48.00994" lon="6.8486">
        <ele>989.3</ele>
        <time>2013-01-19T18:01:50.000Z</time>
      </trkpt>
      <trkpt lat="48.00995" lon="6.84862">
        <ele>989.8</ele>
        <time>2013-01-19T18:01:51.000Z</time>
      </trkpt>
      <trkpt lat="48.00997" lon="6.84865">
        <ele>992.6</ele>
        <time>2013-01-19T18:01:53.000Z</time>
      </trkpt>
      <trkpt lat="48.00998" lon="6.84868">
        <ele>993.7</ele>
        <time>2013-01-19T18:01:54.000Z</time>
      </trkpt>
      <trkpt lat="48.00994" lon="6.8487">
        <ele>991.4</ele>
        <time>2013-01-19T18:01:56.000Z</time>
      </trkpt>
      <trkpt lat="48.00993" lon="6.84872">
        <ele>991.5</ele>
        <time>2013-01-19T18:01:57.000Z</time>
      </trkpt>
      <trkpt lat="48.00997" lon="6.84874">
        <ele>993.1</ele>
        <time>2013-01-19T18:01:59.000Z</time>
      </trkpt>
      <trkpt lat="48.00999" lon="6.84875">
        <ele>993.9</ele>
        <time>2013-01-19T18:02:00.000Z</time>
      </trkpt>
      <trkpt lat="48.01002" lon="6.84878">
        <ele>996.7</ele>
        <time>2013-01-19T18:02:05.000Z</time>
      </trkpt>
      <trkpt lat="48.01003" lon="6.84879">
        <ele>996.6</ele>
        <time>2013-01-19T18:02:06.000Z</time>
      </trkpt>
      <trkpt lat="48.01004" lon="6.84885">
        <ele>996.4</ele>
        <time>2013-01-19T18:02:12.000Z</time>
      </trkpt>
      <trkpt lat="48.01004" lon="6.84887">
        <ele>996.5</ele>
        <time>2013-01-19T18:02:13.000Z</time>
      </trkpt>
      <trkpt lat="48.01007" lon="6.8489">
        <ele>997.4</ele>
        <time>2013-01-19T18:02:17.000Z</time>
      </trkpt>
      <trkpt lat="48.01009" lon="6.84893">
        <ele>1002.5</ele>
        <time>2013-01-19T18:02:18.000Z</time>
      </trkpt>
      <trkpt lat="48.01007" lon="6.84898">
        <ele>1005.6</ele>
        <time>2013-01-19T18:02:22.000Z</time>
      </trkpt>
      <trkpt lat="48.01006" lon="6.84899">
        <ele>1005.6</ele>
        <time>2013-01-19T18:02:23.000Z</time>
      </trkpt>
      <trkpt lat="48.0101" lon="6.84903">
        <ele>1005.5</ele>
        <time>2013-01-19T18:02:27.000Z</time>
      </trkpt>
      <trkpt lat="48.0101" lon="6.84905">
        <ele>1005.1</ele>
        <time>2013-01-19T18:02:28.000Z</time>
      </trkpt>
      <trkpt lat="48.01011" lon="6.8491">
        <ele>1002.5</ele>
        <time>2013-01-19T18:02:36.000Z</time>
      </trkpt>
      <trkpt lat="48.01012" lon="6.84912">
        <ele>1002.4</ele>
        <time>2013-01-19T18:02:37.000Z</time>
      </trkpt>
      <trkpt lat="48.01016" lon="6.84915">
        <ele>1002.9</ele>
        <time>2013-01-19T18:02:43.000Z</time>
      </trkpt>
      <trkpt lat="48.01016" lon="6.84916">
        <ele>1003.5</ele>
        <time>2013-01-19T18:02:44.000Z</time>
      </trkpt>
      <trkpt lat="48.01016" lon="6.84922">
        <ele>1002.8</ele>
        <time>2013-01-19T18:02:48.000Z</time>
      </trkpt>
      <trkpt lat="48.01016" lon="6.84923">
        <ele>1003.1</ele>
        <time>2013-01-19T18:02:49.000Z</time>
      </trkpt>
      <trkpt lat="48.01016" lon="6.84928">
        <ele>1004.3</ele>
        <time>2013-01-19T18:03:00.000Z</time>
      </trkpt>
      <trkpt lat="48.01017" lon="6.84931">
        <ele>1004.7</ele>
        <time>2013-01-19T18:03:01.000Z</time>
      </trkpt>
      <trkpt lat="48.0102" lon="6.84935">
        <ele>1003.5</ele>
        <time>2013-01-19T18:03:06.000Z</time>
      </trkpt>
      <trkpt lat="48.01021" lon="6.84935">
        <ele>1003.9</ele>
        <time>2013-01-19T18:03:07.000Z</time>
      </trkpt>
      <trkpt lat="48.01024" lon="6.84932">
        <ele>1006.6</ele>
        <time>2013-01-19T18:06:58.000Z</time>
      </trkpt>
      <trkpt lat="48.01025" lon="6.84932">
        <ele>1006.4</ele>
        <time>2013-01-19T18:06:59.000Z</time>
      </trkpt>
      <trkpt lat="48.01029" lon="6.84932">
        <ele>1009.6</ele>
        <time>2013-01-19T18:08:08.000Z</time>
      </trkpt>
      <trkpt lat="48.01029" lon="6.84933">
        <ele>1009.5</ele>
        <time>2013-01-19T18:08:09.000Z</time>
      </trkpt>
      <trkpt lat="48.01033" lon="6.8493">
        <ele>1006.6</ele>
        <time>2013-01-19T18:08:23.000Z</time>
      </trkpt>
      <trkpt lat="48.01034" lon="6.84929">
        <ele>1007.2</ele>
        <time>2013-01-19T18:08:24.000Z</time>
      </trkpt>
      <trkpt lat="48.01038" lon="6.84925">
        <ele>1007</ele>
        <time>2013-01-19T18:08:28.000Z</time>
      </trkpt>
      <trkpt lat="48.01039" lon="6.84925">
        <ele>1007.7</ele>
        <time>2013-01-19T18:08:29.000Z</time>
      </trkpt>
      <trkpt lat="48.01042" lon="6.84921">
        <ele>1006.2</ele>
        <time>2013-01-19T18:08:32.000Z</time>
      </trkpt>
      <trkpt lat="48.01043" lon="6.8492">
        <ele>1006.1</ele>
        <time>2013-01-19T18:08:33.000Z</time>
      </trkpt>
      <trkpt lat="48.01046" lon="6.84918">
        <ele>1005.2</ele>
        <time>2013-01-19T18:08:39.000Z</time>
      </trkpt>
      <trkpt lat="48.01048" lon="6.84918">
        <ele>1005.8</ele>
        <time>2013-01-19T18:08:40.000Z</time>
      </trkpt>
      <trkpt lat="48.0105" lon="6.84914">
        <ele>1006.2</ele>
        <time>2013-01-19T18:08:44.000Z</time>
      </trkpt>
      <trkpt lat="48.01052" lon="6.84914">
        <ele>1006.3</ele>
        <time>2013-01-19T18:08:45.000Z</time>
      </trkpt>
      <trkpt lat="48.01054" lon="6.84913">
        <ele>1006.4</ele>
        <time>2013-01-19T18:08:46.000Z</time>
      </trkpt>
      <trkpt lat="48.01056" lon="6.84912">
        <ele>1006.6</ele>
        <time>2013-01-19T18:08:47.000Z</time>
      </trkpt>
      <trkpt lat="48.01059" lon="6.84908">
        <ele>1006.8</ele>
        <time>2013-01-19T18:08:52.000Z</time>
      </trkpt>
      <trkpt lat="48.01061" lon="6.84908">
        <ele>1006.9</ele>
        <time>2013-01-19T18:08:53.000Z</time>
      </trkpt>
      <trkpt lat="48.01065" lon="6.84909">
        <ele>1007.1</ele>
        <time>2013-01-19T18:08:56.000Z</time>
      </trkpt>
      <trkpt lat="48.01066" lon="6.84905">
        <ele>1009</ele>
        <time>2013-01-19T18:08:57.000Z</time>
      </trkpt>
      <trkpt lat="48.01068" lon="6.84902">
        <ele>1009</ele>
        <time>2013-01-19T18:09:01.000Z</time>
      </trkpt>
      <trkpt lat="48.0107" lon="6.84901">
        <ele>1009</ele>
        <time>2013-01-19T18:09:02.000Z</time>
      </trkpt>
      <trkpt lat="48.01073" lon="6.84898">
        <ele>1008.9</ele>
        <time>2013-01-19T18:09:05.000Z</time>
      </trkpt>
      <trkpt lat="48.01072" lon="6.84895">
        <ele>1008.7</ele>
        <time>2013-01-19T18:09:06.000Z</time>
      </trkpt>
      <trkpt lat="48.01074" lon="6.84895">
        <ele>1008.9</ele>
        <time>2013-01-19T18:09:11.000Z</time>
      </trkpt>
      <trkpt lat="48.01075" lon="6.84885">
        <ele>1014</ele>
        <time>2013-01-19T18:09:12.000Z</time>
      </trkpt>
      <trkpt lat="48.01076" lon="6.84881">
        <ele>1015.9</ele>
        <time>2013-01-19T18:09:15.000Z</time>
      </trkpt>
      <trkpt lat="48.01076" lon="6.84875">
        <ele>1018.6</ele>
        <time>2013-01-19T18:09:16.000Z</time>
      </trkpt>
      <trkpt lat="48.01077" lon="6.84869">
        <ele>1021.4</ele>
        <time>2013-01-19T18:09:21.000Z</time>
      </trkpt>
      <trkpt lat="48.01078" lon="6.84868">
        <ele>1021.1</ele>
        <time>2013-01-19T18:09:22.000Z</time>
      </trkpt>
      <trkpt lat="48.0108" lon="6.84863">
        <ele>1022</ele>
        <time>2013-01-19T18:09:29.000Z</time>
      </trkpt>
      <trkpt lat="48.0108" lon="6.84862">
        <ele>1021.9</ele>
        <time>2013-01-19T18:09:30.000Z</time>
      </trkpt>
      <trkpt lat="48.01084" lon="6.8486">
        <ele>1020.2</ele>
        <time>2013-01-19T18:09:35.000Z</time>
      </trkpt>
      <trkpt lat="48.01084" lon="6.8486">
        <ele>1020.4</ele>
        <time>2013-01-19T18:09:36.000Z</time>
      </trkpt>
      <trkpt lat="48.01087" lon="6.84856">
        <ele>1019.1</ele>
        <time>2013-01-19T18:09:41.000Z</time>
      </trkpt>
      <trkpt lat="48.01088" lon="6.84854">
        <ele>1019.2</ele>
        <time>2013-01-19T18:09:42.000Z</time>
      </trkpt>
      <trkpt lat="48.0109" lon="6.84849">
        <ele>1017.8</ele>
        <time>2013-01-19T18:09:51.000Z</time>
      </trkpt>
      <trkpt lat="48.0109" lon="6.84848">
        <ele>1017.7</ele>
        <time>2013-01-19T18:09:52.000Z</time>
      </trkpt>
      <trkpt lat="48.01093" lon="6.84843">
        <ele>1017.9</ele>
        <time>2013-01-19T18:09:59.000Z</time>
      </trkpt>
      <trkpt lat="48.01094" lon="6.84843">
        <ele>1018</ele>
        <time>2013-01-19T18:10:00.000Z</time>
      </trkpt>
      <trkpt lat="48.01095" lon="6.84839">
        <ele>1018.1</ele>
        <time>2013-01-19T18:10:03.000Z</time>
      </trkpt>
      <trkpt lat="48.01096" lon="6.84835">
        <ele>1018</ele>
        <time>2013-01-19T18:10:04.000Z</time>
      </trkpt>
      <trkpt lat="48.01098" lon="6.8483">
        <ele>1018</ele>
        <time>2013-01-19T18:10:08.000Z</time>
      </trkpt>
      <trkpt lat="48.01098" lon="6.84825">
        <ele>1020.1</ele>
        <time>2013-01-19T18:10:09.000Z</time>
      </trkpt>
      <trkpt lat="48.01102" lon="6.84823">
        <ele>1019.5</ele>
        <time>2013-01-19T18:10:14.000Z</time>
      </trkpt>
      <trkpt lat="48.01103" lon="6.84819">
        <ele>1021.5</ele>
        <time>2013-01-19T18:10:15.000Z</time>
      </trkpt>
      <trkpt lat="48.01104" lon="6.84814">
        <ele>1022.9</ele>
        <time>2013-01-19T18:10:19.000Z</time>
      </trkpt>
      <trkpt lat="48.01105" lon="6.84813">
        <ele>1023.6</ele>
        <time>2013-01-19T18:10:20.000Z</time>
      </trkpt>
      <trkpt lat="48.01108" lon="6.84808">
        <ele>1027.2</ele>
        <time>2013-01-19T18:10:35.000Z</time>
      </trkpt>
      <trkpt lat="48.01108" lon="6.84809">
        <ele>1026.9</ele>
        <time>2013-01-19T18:10:36.000Z</time>
      </trkpt>
      <trkpt lat="48.01112" lon="6.84808">
        <ele>1026.8</ele>
        <time>2013-01-19T18:10:40.000Z</time>
      </trkpt>
      <trkpt lat="48.01114" lon="6.84808">
        <ele>1026.9</ele>
        <time>2013-01-19T18:10:41.000Z</time>
      </trkpt>
      <trkpt lat="48.01117" lon="6.84805">
        <ele>1029.8</ele>
        <time>2013-01-19T18:10:46.000Z</time>
      </trkpt>
      <trkpt lat="48.01119" lon="6.84805">
        <ele>1029.9</ele>
        <time>2013-01-19T18:10:47.000Z</time>
      </trkpt>
      <trkpt lat="48.01124" lon="6.84806">
        <ele>1031.3</ele>
        <time>2013-01-19T18:10:50.000Z</time>
      </trkpt>
      <trkpt lat="48.01125" lon="6.84805">
        <ele>1031.3</ele>
        <time>2013-01-19T18:10:51.000Z</time>
      </trkpt>
      <trkpt lat="48.01129" lon="6.84803">
        <ele>1031.7</ele>
        <time>2013-01-19T18:10:55.000Z</time>
      </trkpt>
      <trkpt lat="48.0113" lon="6.84803">
        <ele>1031.8</ele>
        <time>2013-01-19T18:10:56.000Z</time>
      </trkpt>
      <trkpt lat="48.01132" lon="6.84805">
        <ele>1028.4</ele>
        <time>2013-01-19T18:11:02.000Z</time>
      </trkpt>
      <trkpt lat="48.01135" lon="6.84804">
        <ele>1028.9</ele>
        <time>2013-01-19T18:11:03.000Z</time>
      </trkpt>
      <trkpt lat="48.01139" lon="6.84802">
        <ele>1030.3</ele>
        <time>2013-01-19T18:11:06.000Z</time>
      </trkpt>
      <trkpt lat="48.01141" lon="6.84802">
        <ele>1030.8</ele>
        <time>2013-01-19T18:11:07.000Z</time>
      </trkpt>
      <trkpt lat="48.01144" lon="6.84804">
        <ele>1031.7</ele>
        <time>2013-01-19T18:11:10.000Z</time>
      </trkpt>
      <trkpt lat="48.01146" lon="6.84804">
        <ele>1031.7</ele>
        <time>2013-01-19T18:11:11.000Z</time>
      </trkpt>
      <trkpt lat="48.01148" lon="6.84803">
        <ele>1031.6</ele>
        <time>2013-01-19T18:11:12.000Z</time>
      </trkpt>
      <trkpt lat="48.0115" lon="6.84803">
        <ele>1031.9</ele>
        <time>2013-01-19T18:11:14.000Z</time>
      </trkpt>
      <trkpt lat="48.01152" lon="6.84808">
        <ele>1035.5</ele>
        <time>2013-01-19T18:13:46.000Z</time>
      </trkpt>
      <trkpt lat="48.01152" lon="6.84809">
        <ele>1035.7</ele>
        <time>2013-01-19T18:13:47.000Z</time>
      </trkpt>
      <trkpt lat="48.01154" lon="6.84811">
        <ele>1036.5</ele>
        <time>2013-01-19T18:13:59.000Z</time>
      </trkpt>
      <trkpt lat="48.01156" lon="6.84812">
        <ele>1037.1</ele>
        <time>2013-01-19T18:14:00.000Z</time>
      </trkpt>
      <trkpt lat="48.01158" lon="6.84814">
        <ele>1037.6</ele>
        <time>2013-01-19T18:14:01.000Z</time>
      </trkpt>
      <trkpt lat="48.0116" lon="6.84817">
        <ele>1036.8</ele>
        <time>2013-01-19T18:14:02.000Z</time>
      </trkpt>
      <trkpt lat="48.01162" lon="6.84822">
        <ele>1037.3</ele>
        <time>2013-01-19T18:14:04.000Z</time>
      </trkpt>
      <trkpt lat="48.01162" lon="6.84824">
        <ele>1038</ele>
        <time>2013-01-19T18:14:05.000Z</time>
      </trkpt>
      <trkpt lat="48.01166" lon="6.84825">
        <ele>1039.4</ele>
        <time>2013-01-19T18:14:11.000Z</time>
      </trkpt>
      <trkpt lat="48.01166" lon="6.84825">
        <ele>1039.7</ele>
        <time>2013-01-19T18:14:12.000Z</time>
      </trkpt>
      <trkpt lat="48.0117" lon="6.84827">
        <ele>1038.6</ele>
        <time>2013-01-19T18:14:19.000Z</time>
      </trkpt>
      <trkpt lat="48.01171" lon="6.84827">
        <ele>1038.9</ele>
        <time>2013-01-19T18:14:20.000Z</time>
      </trkpt>
      <trkpt lat="48.01174" lon="6.84827">
        <ele>1038.9</ele>
        <time>2013-01-19T18:14:26.000Z</time>
      </trkpt>
      <trkpt lat="48.01176" lon="6.84828">
        <ele>1039</ele>
        <time>2013-01-19T18:14:27.000Z</time>
      </trkpt>
      <trkpt lat="48.01179" lon="6.84829">
        <ele>1039.5</ele>
        <time>2013-01-19T18:14:30.000Z</time>
      </trkpt>
      <trkpt lat="48.01184" lon="6.84832">
        <ele>1039.3</ele>
        <time>2013-01-19T18:14:31.000Z</time>
      </trkpt>
      <trkpt lat="48.01187" lon="6.84834">
        <ele>1039.6</ele>
        <time>2013-01-19T18:14:32.000Z</time>
      </trkpt>
      <trkpt lat="48.01188" lon="6.84837">
        <ele>1037</ele>
        <time>2013-01-19T18:14:33.000Z</time>
      </trkpt>
      <trkpt lat="48.01191" lon="6.8484">
        <ele>1037.2</ele>
        <time>2013-01-19T18:14:35.000Z</time>
      </trkpt>
      <trkpt lat="48.01192" lon="6.84842">
        <ele>1036.8</ele>
        <time>2013-01-19T18:14:36.000Z</time>
      </trkpt>
      <trkpt lat="48.01195" lon="6.84847">
        <ele>1034.9</ele>
        <time>2013-01-19T18:14:38.000Z</time>
      </trkpt>
      <trkpt lat="48.01197" lon="6.84849">
        <ele>1035</ele>
        <time>2013-01-19T18:14:39.000Z</time>
      </trkpt>
      <trkpt lat="48.01198" lon="6.84853">
        <ele>1034.2</ele>
        <time>2013-01-19T18:14:43.000Z</time>
      </trkpt>
      <trkpt lat="48.012" lon="6.84856">
        <ele>1035.5</ele>
        <time>2013-01-19T18:14:44.000Z</time>
      </trkpt>
      <trkpt lat="48.01203" lon="6.84861">
        <ele>1036.8</ele>
        <time>2013-01-19T18:14:47.000Z</time>
      </trkpt>
      <trkpt lat="48.01202" lon="6.84862">
        <ele>1034.8</ele>
        <time>2013-01-19T18:14:48.000Z</time>
      </trkpt>
      <trkpt lat="48.01203" lon="6.84868">
        <ele>1033.6</ele>
        <time>2013-01-19T18:14:52.000Z</time>
      </trkpt>
      <trkpt lat="48.01204" lon="6.84868">
        <ele>1033.7</ele>
        <time>2013-01-19T18:14:53.000Z</time>
      </trkpt>
      <trkpt lat="48.01207" lon="6.84872">
        <ele>1031.6</ele>
        <time>2013-01-19T18:14:58.000Z</time>
      </trkpt>
      <trkpt lat="48.01207" lon="6.84874">
        <ele>1031.1</ele>
        <time>2013-01-19T18:14:59.000Z</time>
      </trkpt>
      <trkpt lat="48.01208" lon="6.84879">
        <ele>1030.1</ele>
        <time>2013-01-19T18:15:05.000Z</time>
      </trkpt>
      <trkpt lat="48.01208" lon="6.8488">
        <ele>1030.1</ele>
        <time>2013-01-19T18:15:06.000Z</time>
      </trkpt>
      <trkpt lat="48.01207" lon="6.84886">
        <ele>1028.2</ele>
        <time>2013-01-19T18:15:11.000Z</time>
      </trkpt>
      <trkpt lat="48.01207" lon="6.84887">
        <ele>1027.9</ele>
        <time>2013-01-19T18:15:12.000Z</time>
      </trkpt>
      <trkpt lat="48.0121" lon="6.84892">
        <ele>1028.4</ele>
        <time>2013-01-19T18:15:22.000Z</time>
      </trkpt>
      <trkpt lat="48.0121" lon="6.84893">
        <ele>1028.6</ele>
        <time>2013-01-19T18:15:23.000Z</time>
      </trkpt>
      <trkpt lat="48.01211" lon="6.84897">
        <ele>1027.4</ele>
        <time>2013-01-19T18:15:29.000Z</time>
      </trkpt>
      <trkpt lat="48.01212" lon="6.84901">
        <ele>1026.1</ele>
        <time>2013-01-19T18:15:30.000Z</time>
      </trkpt>
      <trkpt lat="48.01213" lon="6.84906">
        <ele>1026.1</ele>
        <time>2013-01-19T18:15:31.000Z</time>
      </trkpt>
      <trkpt lat="48.01213" lon="6.84912">
        <ele>1026.4</ele>
        <time>2013-01-19T18:15:32.000Z</time>
      </trkpt>
      <trkpt lat="48.01215" lon="6.84918">
        <ele>1027.9</ele>
        <time>2013-01-19T18:15:34.000Z</time>
      </trkpt>
      <trkpt lat="48.01216" lon="6.84919">
        <ele>1028.6</ele>
        <time>2013-01-19T18:15:35.000Z</time>
      </trkpt>
      <trkpt lat="48.01218" lon="6.84925">
        <ele>1030.1</ele>
        <time>2013-01-19T18:15:37.000Z</time>
      </trkpt>
      <trkpt lat="48.0122" lon="6.84925">
        <ele>1030.2</ele>
        <time>2013-01-19T18:15:38.000Z</time>
      </trkpt>
      <trkpt lat="48.01222" lon="6.8493">
        <ele>1030.8</ele>
        <time>2013-01-19T18:15:40.000Z</time>
      </trkpt>
      <trkpt lat="48.01223" lon="6.84933">
        <ele>1031.6</ele>
        <time>2013-01-19T18:15:41.000Z</time>
      </trkpt>
      <trkpt lat="48.01225" lon="6.84939">
        <ele>1032.2</ele>
        <time>2013-01-19T18:15:43.000Z</time>
      </trkpt>
      <trkpt lat="48.01226" lon="6.84941">
        <ele>1032.3</ele>
        <time>2013-01-19T18:15:44.000Z</time>
      </trkpt>
      <trkpt lat="48.01226" lon="6.84947">
        <ele>1034.4</ele>
        <time>2013-01-19T18:15:47.000Z</time>
      </trkpt>
      <trkpt lat="48.01225" lon="6.84948">
        <ele>1034.7</ele>
        <time>2013-01-19T18:15:48.000Z</time>
      </trkpt>
      <trkpt lat="48.01229" lon="6.84951">
        <ele>1035.5</ele>
        <time>2013-01-19T18:15:52.000Z</time>
      </trkpt>
      <trkpt lat="48.01229" lon="6.84951">
        <ele>1035.2</ele>
        <time>2013-01-19T18:15:53.000Z</time>
      </trkpt>
      <trkpt lat="48.01231" lon="6.84954">
        <ele>1038.2</ele>
        <time>2013-01-19T18:16:33.000Z</time>
      </trkpt>
      <trkpt lat="48.0123" lon="6.8496">
        <ele>1037.9</ele>
        <time>2013-01-19T18:16:34.000Z</time>
      </trkpt>
      <trkpt lat="48.01229" lon="6.84965">
        <ele>1037.3</ele>
        <time>2013-01-19T18:16:35.000Z</time>
      </trkpt>
      <trkpt lat="48.01229" lon="6.84969">
        <ele>1037.7</ele>
        <time>2013-01-19T18:16:36.000Z</time>
      </trkpt>
      <trkpt lat="48.01231" lon="6.84972">
        <ele>1037.8</ele>
        <time>2013-01-19T18:16:37.000Z</time>
      </trkpt>
      <trkpt lat="48.0123" lon="6.84976">
        <ele>1038.2</ele>
        <time>2013-01-19T18:16:38.000Z</time>
      </trkpt>
      <trkpt lat="48.0123" lon="6.84979">
        <ele>1038.3</ele>
        <time>2013-01-19T18:16:39.000Z</time>
      </trkpt>
      <trkpt lat="48.01231" lon="6.84984">
        <ele>1038.7</ele>
        <time>2013-01-19T18:16:40.000Z</time>
      </trkpt>
      <trkpt lat="48.01232" lon="6.84988">
        <ele>1039.2</ele>
        <time>2013-01-19T18:16:41.000Z</time>
      </trkpt>
      <trkpt lat="48.01232" lon="6.84993">
        <ele>1039.7</ele>
        <time>2013-01-19T18:16:42.000Z</time>
      </trkpt>
      <trkpt lat="48.01231" lon="6.84999">
        <ele>1040.1</ele>
        <time>2013-01-19T18:16:44.000Z</time>
      </trkpt>
      <trkpt lat="48.01231" lon="6.85002">
        <ele>1040.4</ele>
        <time>2013-01-19T18:16:45.000Z</time>
      </trkpt>
      <trkpt lat="48.01231" lon="6.85007">
        <ele>1041.3</ele>
        <time>2013-01-19T18:16:48.000Z</time>
      </trkpt>
      <trkpt lat="48.01231" lon="6.85009">
        <ele>1041.8</ele>
        <time>2013-01-19T18:16:49.000Z</time>
      </trkpt>
      <trkpt lat="48.01233" lon="6.85014">
        <ele>1039.3</ele>
        <time>2013-01-19T18:16:54.000Z</time>
      </trkpt>
      <trkpt lat="48.01234" lon="6.85015">
        <ele>1038.2</ele>
        <time>2013-01-19T18:16:55.000Z</time>
      </trkpt>
      <trkpt lat="48.01238" lon="6.85012">
        <ele>1037.5</ele>
        <time>2013-01-19T18:17:02.000Z</time>
      </trkpt>
      <trkpt lat="48.01238" lon="6.85012">
        <ele>1037.1</ele>
        <time>2013-01-19T18:17:03.000Z</time>
      </trkpt>
      <trkpt lat="48.0124" lon="6.85006">
        <ele>1036.9</ele>
        <time>2013-01-19T18:17:08.000Z</time>
      </trkpt>
      <trkpt lat="48.01241" lon="6.85005">
        <ele>1036.5</ele>
        <time>2013-01-19T18:17:09.000Z</time>
      </trkpt>
      <trkpt lat="48.01243" lon="6.85001">
        <ele>1036.1</ele>
        <time>2013-01-19T18:17:13.000Z</time>
      </trkpt>
      <trkpt lat="48.01245" lon="6.85001">
        <ele>1035.8</ele>
        <time>2013-01-19T18:17:14.000Z</time>
      </trkpt>
      <trkpt lat="48.01246" lon="6.84995">
        <ele>1035.5</ele>
        <time>2013-01-19T18:17:18.000Z</time>
      </trkpt>
      <trkpt lat="48.01247" lon="6.84995">
        <ele>1035.5</ele>
        <time>2013-01-19T18:17:19.000Z</time>
      </trkpt>
      <trkpt lat="48.0125" lon="6.84993">
        <ele>1035.6</ele>
        <time>2013-01-19T18:17:24.000Z</time>
      </trkpt>
      <trkpt lat="48.01252" lon="6.84993">
        <ele>1034.2</ele>
        <time>2013-01-19T18:17:25.000Z</time>
      </trkpt>
      <trkpt lat="48.01256" lon="6.84991">
        <ele>1034.2</ele>
        <time>2013-01-19T18:17:28.000Z</time>
      </trkpt>
      <trkpt lat="48.01256" lon="6.84991">
        <ele>1034</ele>
        <time>2013-01-19T18:17:29.000Z</time>
      </trkpt>
      <trkpt lat="48.01259" lon="6.84993">
        <ele>1032.5</ele>
        <time>2013-01-19T18:17:31.000Z</time>
      </trkpt>
      <trkpt lat="48.0126" lon="6.84994">
        <ele>1032.2</ele>
        <time>2013-01-19T18:17:32.000Z</time>
      </trkpt>
      <trkpt lat="48.01265" lon="6.84994">
        <ele>1035</ele>
        <time>2013-01-19T18:17:37.000Z</time>
      </trkpt>
      <trkpt lat="48.01266" lon="6.84995">
        <ele>1035.3</ele>
        <time>2013-01-19T18:17:38.000Z</time>
      </trkpt>
      <trkpt lat="48.01269" lon="6.84998">
        <ele>1036.5</ele>
        <time>2013-01-19T18:17:43.000Z</time>
      </trkpt>
      <trkpt lat="48.01271" lon="6.84999">
        <ele>1036.4</ele>
        <time>2013-01-19T18:17:44.000Z</time>
      </trkpt>
      <trkpt lat="48.01275" lon="6.84999">
        <ele>1037.1</ele>
        <time>2013-01-19T18:17:48.000Z</time>
      </trkpt>
      <trkpt lat="48.01278" lon="6.85">
        <ele>1037.5</ele>
        <time>2013-01-19T18:17:49.000Z</time>
      </trkpt>
      <trkpt lat="48.0128" lon="6.85003">
        <ele>1038.6</ele>
        <time>2013-01-19T18:17:52.000Z</time>
      </trkpt>
      <trkpt lat="48.01282" lon="6.85005">
        <ele>1039.5</ele>
        <time>2013-01-19T18:17:53.000Z</time>
      </trkpt>
      <trkpt lat="48.01283" lon="6.8501">
        <ele>1038.2</ele>
        <time>2013-01-19T18:17:55.000Z</time>
      </trkpt>
      <trkpt lat="48.01284" lon="6.85011">
        <ele>1037.8</ele>
        <time>2013-01-19T18:17:56.000Z</time>
      </trkpt>
      <trkpt lat="48.01288" lon="6.85013">
        <ele>1039.2</ele>
        <time>2013-01-19T18:17:58.000Z</time>
      </trkpt>
      <trkpt lat="48.01289" lon="6.85014">
        <ele>1039.6</ele>
        <time>2013-01-19T18:17:59.000Z</time>
      </trkpt>
      <trkpt lat="48.01292" lon="6.85016">
        <ele>1040.9</ele>
        <time>2013-01-19T18:18:05.000Z</time>
      </trkpt>
      <trkpt lat="48.01294" lon="6.85017">
        <ele>1041.2</ele>
        <time>2013-01-19T18:18:06.000Z</time>
      </trkpt>
      <trkpt lat="48.01294" lon="6.85022">
        <ele>1041.6</ele>
        <time>2013-01-19T18:18:14.000Z</time>
      </trkpt>
      <trkpt lat="48.01295" lon="6.85024">
        <ele>1041.6</ele>
        <time>2013-01-19T18:18:15.000Z</time>
      </trkpt>
      <trkpt lat="48.01299" lon="6.85026">
        <ele>1042</ele>
        <time>2013-01-19T18:18:25.000Z</time>
      </trkpt>
      <trkpt lat="48.01301" lon="6.85024">
        <ele>1042.1</ele>
        <time>2013-01-19T18:18:26.000Z</time>
      </trkpt>
      <trkpt lat="48.01304" lon="6.85022">
        <ele>1041.4</ele>
        <time>2013-01-19T18:18:32.000Z</time>
      </trkpt>
      <trkpt lat="48.01305" lon="6.85021">
        <ele>1040.4</ele>
        <time>2013-01-19T18:18:33.000Z</time>
      </trkpt>
      <trkpt lat="48.01307" lon="6.8502">
        <ele>1040.1</ele>
        <time>2013-01-19T18:18:37.000Z</time>
      </trkpt>
      <trkpt lat="48.0131" lon="6.85018">
        <ele>1041.4</ele>
        <time>2013-01-19T18:18:39.000Z</time>
      </trkpt>
      <trkpt lat="48.01313" lon="6.85016">
        <ele>1043.3</ele>
        <time>2013-01-19T18:18:41.000Z</time>
      </trkpt>
      <trkpt lat="48.01315" lon="6.85015">
        <ele>1043.4</ele>
        <time>2013-01-19T18:18:42.000Z</time>
      </trkpt>
      <trkpt lat="48.01319" lon="6.85012">
        <ele>1044.3</ele>
        <time>2013-01-19T18:18:45.000Z</time>
      </trkpt>
      <trkpt lat="48.0132" lon="6.8501">
        <ele>1044.5</ele>
        <time>2013-01-19T18:18:46.000Z</time>
      </trkpt>
      <trkpt lat="48.01324" lon="6.85008">
        <ele>1043.2</ele>
        <time>2013-01-19T18:18:54.000Z</time>
      </trkpt>
      <trkpt lat="48.01324" lon="6.85007">
        <ele>1042.9</ele>
        <time>2013-01-19T18:18:55.000Z</time>
      </trkpt>
      <trkpt lat="48.01327" lon="6.85004">
        <ele>1043.5</ele>
        <time>2013-01-19T18:19:06.000Z</time>
      </trkpt>
      <trkpt lat="48.01332" lon="6.85">
        <ele>1041.1</ele>
        <time>2013-01-19T18:19:07.000Z</time>
      </trkpt>
      <trkpt lat="48.01335" lon="6.84998">
        <ele>1041.4</ele>
        <time>2013-01-19T18:19:08.000Z</time>
      </trkpt>
      <trkpt lat="48.01336" lon="6.84998">
        <ele>1041.3</ele>
        <time>2013-01-19T18:19:09.000Z</time>
      </trkpt>
      <trkpt lat="48.01339" lon="6.84994">
        <ele>1041.5</ele>
        <time>2013-01-19T18:19:15.000Z</time>
      </trkpt>
      <trkpt lat="48.0134" lon="6.84993">
        <ele>1042</ele>
        <time>2013-01-19T18:19:16.000Z</time>
      </trkpt>
      <trkpt lat="48.01343" lon="6.8499">
        <ele>1042.3</ele>
        <time>2013-01-19T18:19:30.000Z</time>
      </trkpt>
      <trkpt lat="48.01346" lon="6.84987">
        <ele>1042.8</ele>
        <time>2013-01-19T18:19:31.000Z</time>
      </trkpt>
      <trkpt lat="48.0135" lon="6.84985">
        <ele>1043.4</ele>
        <time>2013-01-19T18:19:32.000Z</time>
      </trkpt>
      <trkpt lat="48.01353" lon="6.84985">
        <ele>1043.9</ele>
        <time>2013-01-19T18:19:33.000Z</time>
      </trkpt>
      <trkpt lat="48.01354" lon="6.84986">
        <ele>1043.7</ele>
        <time>2013-01-19T18:19:34.000Z</time>
      </trkpt>
      <trkpt lat="48.01357" lon="6.84988">
        <ele>1043.2</ele>
        <time>2013-01-19T18:19:35.000Z</time>
      </trkpt>
      <trkpt lat="48.01361" lon="6.84987">
        <ele>1043.9</ele>
        <time>2013-01-19T18:19:38.000Z</time>
      </trkpt>
      <trkpt lat="48.01365" lon="6.84987">
        <ele>1043.6</ele>
        <time>2013-01-19T18:19:39.000Z</time>
      </trkpt>
      <trkpt lat="48.01367" lon="6.84986">
        <ele>1044</ele>
        <time>2013-01-19T18:19:41.000Z</time>
      </trkpt>
      <trkpt lat="48.0137" lon="6.84987">
        <ele>1044.3</ele>
        <time>2013-01-19T18:19:42.000Z</time>
      </trkpt>
      <trkpt lat="48.01374" lon="6.84988">
        <ele>1044.8</ele>
        <time>2013-01-19T18:19:44.000Z</time>
      </trkpt>
      <trkpt lat="48.01375" lon="6.84988">
        <ele>1044.6</ele>
        <time>2013-01-19T18:19:45.000Z</time>
      </trkpt>
      <trkpt lat="48.01379" lon="6.84986">
        <ele>1045.5</ele>
        <time>2013-01-19T18:19:49.000Z</time>
      </trkpt>
      <trkpt lat="48.01381" lon="6.84985">
        <ele>1045.8</ele>
        <time>2013-01-19T18:19:50.000Z</time>
      </trkpt>
      <trkpt lat="48.01384" lon="6.84989">
        <ele>1045.3</ele>
        <time>2013-01-19T18:19:52.000Z</time>
      </trkpt>
      <trkpt lat="48.01387" lon="6.84988">
        <ele>1046</ele>
        <time>2013-01-19T18:19:53.000Z</time>
      </trkpt>
      <trkpt lat="48.01391" lon="6.84989">
        <ele>1046.6</ele>
        <time>2013-01-19T18:20:11.000Z</time>
      </trkpt>
      <trkpt lat="48.01395" lon="6.84992">
        <ele>1047</ele>
        <time>2013-01-19T18:20:12.000Z</time>
      </trkpt>
      <trkpt lat="48.01399" lon="6.84994">
        <ele>1046</ele>
        <time>2013-01-19T18:20:14.000Z</time>
      </trkpt>
      <trkpt lat="48.01401" lon="6.84995">
        <ele>1045.5</ele>
        <time>2013-01-19T18:20:15.000Z</time>
      </trkpt>
      <trkpt lat="48.01406" lon="6.84996">
        <ele>1047.2</ele>
        <time>2013-01-19T18:20:17.000Z</time>
      </trkpt>
      <trkpt lat="48.01407" lon="6.84997">
        <ele>1046.3</ele>
        <time>2013-01-19T18:20:18.000Z</time>
      </trkpt>
      <trkpt lat="48.01409" lon="6.85001">
        <ele>1045.6</ele>
        <time>2013-01-19T18:20:22.000Z</time>
      </trkpt>
      <trkpt lat="48.0141" lon="6.85004">
        <ele>1045.8</ele>
        <time>2013-01-19T18:20:23.000Z</time>
      </trkpt>
      <trkpt lat="48.01413" lon="6.85007">
        <ele>1047.4</ele>
        <time>2013-01-19T18:20:26.000Z</time>
      </trkpt>
      <trkpt lat="48.01413" lon="6.85009">
        <ele>1048.3</ele>
        <time>2013-01-19T18:20:27.000Z</time>
      </trkpt>
      <trkpt lat="48.01416" lon="6.8501">
        <ele>1048</ele>
        <time>2013-01-19T18:20:30.000Z</time>
      </trkpt>
      <trkpt lat="48.01418" lon="6.8501">
        <ele>1049</ele>
        <time>2013-01-19T18:20:31.000Z</time>
      </trkpt>
      <trkpt lat="48.0142" lon="6.85013">
        <ele>1049.9</ele>
        <time>2013-01-19T18:20:33.000Z</time>
      </trkpt>
      <trkpt lat="48.01421" lon="6.85016">
        <ele>1049.4</ele>
        <time>2013-01-19T18:20:34.000Z</time>
      </trkpt>
      <trkpt lat="48.01421" lon="6.8502">
        <ele>1049.5</ele>
        <time>2013-01-19T18:20:36.000Z</time>
      </trkpt>
      <trkpt lat="48.01423" lon="6.85023">
        <ele>1049</ele>
        <time>2013-01-19T18:20:37.000Z</time>
      </trkpt>
      <trkpt lat="48.01425" lon="6.85028">
        <ele>1049</ele>
        <time>2013-01-19T18:20:40.000Z</time>
      </trkpt>
      <trkpt lat="48.01425" lon="6.85029">
        <ele>1049.1</ele>
        <time>2013-01-19T18:20:41.000Z</time>
      </trkpt>
      <trkpt lat="48.01427" lon="6.85035">
        <ele>1047.3</ele>
        <time>2013-01-19T18:20:44.000Z</time>
      </trkpt>
      <trkpt lat="48.01427" lon="6.85036">
        <ele>1047.7</ele>
        <time>2013-01-19T18:20:45.000Z</time>
      </trkpt>
      <trkpt lat="48.01428" lon="6.85041">
        <ele>1045.2</ele>
        <time>2013-01-19T18:20:48.000Z</time>
      </trkpt>
      <trkpt lat="48.0143" lon="6.85043">
        <ele>1045.9</ele>
        <time>2013-01-19T18:20:49.000Z</time>
      </trkpt>
      <trkpt lat="48.01434" lon="6.85043">
        <ele>1042.2</ele>
        <time>2013-01-19T18:20:55.000Z</time>
      </trkpt>
      <trkpt lat="48.01436" lon="6.85044">
        <ele>1042.2</ele>
        <time>2013-01-19T18:20:56.000Z</time>
      </trkpt>
      <trkpt lat="48.01438" lon="6.85048">
        <ele>1041.5</ele>
        <time>2013-01-19T18:21:01.000Z</time>
      </trkpt>
      <trkpt lat="48.0144" lon="6.85048">
        <ele>1041</ele>
        <time>2013-01-19T18:21:02.000Z</time>
      </trkpt>
      <trkpt lat="48.01442" lon="6.85046">
        <ele>1040.4</ele>
        <time>2013-01-19T18:21:14.000Z</time>
      </trkpt>
      <trkpt lat="48.01444" lon="6.85045">
        <ele>1039.5</ele>
        <time>2013-01-19T18:21:15.000Z</time>
      </trkpt>
      <trkpt lat="48.01446" lon="6.85047">
        <ele>1040</ele>
        <time>2013-01-19T18:22:15.000Z</time>
      </trkpt>
      <trkpt lat="48.01449" lon="6.85047">
        <ele>1040</ele>
        <time>2013-01-19T18:22:16.000Z</time>
      </trkpt>
      <trkpt lat="48.01452" lon="6.85048">
        <ele>1042</ele>
        <time>2013-01-19T18:22:17.000Z</time>
      </trkpt>
      <trkpt lat="48.01454" lon="6.8505">
        <ele>1042.9</ele>
        <time>2013-01-19T18:22:18.000Z</time>
      </trkpt>
      <trkpt lat="48.01456" lon="6.85053">
        <ele>1042.1</ele>
        <time>2013-01-19T18:22:20.000Z</time>
      </trkpt>
      <trkpt lat="48.01459" lon="6.85054">
        <ele>1042.9</ele>
        <time>2013-01-19T18:22:21.000Z</time>
      </trkpt>
      <trkpt lat="48.01461" lon="6.85056">
        <ele>1043.2</ele>
        <time>2013-01-19T18:22:23.000Z</time>
      </trkpt>
      <trkpt lat="48.01463" lon="6.85057">
        <ele>1044.4</ele>
        <time>2013-01-19T18:22:24.000Z</time>
      </trkpt>
      <trkpt lat="48.01465" lon="6.85063">
        <ele>1047.9</ele>
        <time>2013-01-19T18:22:27.000Z</time>
      </trkpt>
      <trkpt lat="48.01466" lon="6.85064">
        <ele>1048.8</ele>
        <time>2013-01-19T18:22:28.000Z</time>
      </trkpt>
      <trkpt lat="48.01465" lon="6.8507">
        <ele>1048.6</ele>
        <time>2013-01-19T18:22:34.000Z</time>
      </trkpt>
      <trkpt lat="48.01465" lon="6.85072">
        <ele>1048.3</ele>
        <time>2013-01-19T18:22:35.000Z</time>
      </trkpt>
      <trkpt lat="48.01463" lon="6.85078">
        <ele>1047.3</ele>
        <time>2013-01-19T18:27:14.000Z</time>
      </trkpt>
      <trkpt lat="48.01463" lon="6.85078">
        <ele>1047.3</ele>
        <time>2013-01-19T18:27:15.000Z</time>
      </trkpt>
      <trkpt lat="48.0146" lon="6.85077">
        <ele>1047.4</ele>
        <time>2013-01-19T18:27:27.000Z</time>
      </trkpt>
      <trkpt lat="48.01457" lon="6.85077">
        <ele>1047.7</ele>
        <time>2013-01-19T18:27:28.000Z</time>
      </trkpt>
      <trkpt lat="48.01454" lon="6.85076">
        <ele>1047.9</ele>
        <time>2013-01-19T18:27:29.000Z</time>
      </trkpt>
      <trkpt lat="48.01453" lon="6.85076">
        <ele>1047.7</ele>
        <time>2013-01-19T18:27:30.000Z</time>
      </trkpt>
      <trkpt lat="48.01451" lon="6.85076">
        <ele>1047.4</ele>
        <time>2013-01-19T18:27:31.000Z</time>
      </trkpt>
      <trkpt lat="48.01448" lon="6.85074">
        <ele>1049.2</ele>
        <time>2013-01-19T18:27:32.000Z</time>
      </trkpt>
      <trkpt lat="48.01445" lon="6.85072">
        <ele>1049.1</ele>
        <time>2013-01-19T18:27:34.000Z</time>
      </trkpt>
      <trkpt lat="48.01442" lon="6.8507">
        <ele>1048.8</ele>
        <time>2013-01-19T18:27:35.000Z</time>
      </trkpt>
      <trkpt lat="48.01439" lon="6.85067">
        <ele>1048.5</ele>
        <time>2013-01-19T18:27:49.000Z</time>
      </trkpt>
      <trkpt lat="48.01438" lon="6.85067">
        <ele>1049.5</ele>
        <time>2013-01-19T18:27:50.000Z</time>
      </trkpt>
      <trkpt lat="48.01436" lon="6.85066">
        <ele>1050.8</ele>
        <time>2013-01-19T18:28:04.000Z</time>
      </trkpt>
      <trkpt lat="48.01434" lon="6.85066">
        <ele>1051.3</ele>
        <time>2013-01-19T18:28:05.000Z</time>
      </trkpt>
      <trkpt lat="48.0143" lon="6.85065">
        <ele>1051.2</ele>
        <time>2013-01-19T18:28:11.000Z</time>
      </trkpt>
      <trkpt lat="48.01429" lon="6.85064">
        <ele>1051.4</ele>
        <time>2013-01-19T18:28:12.000Z</time>
      </trkpt>
      <trkpt lat="48.01424" lon="6.85063">
        <ele>1052.3</ele>
        <time>2013-01-19T18:28:18.000Z</time>
      </trkpt>
      <trkpt lat="48.01422" lon="6.85063">
        <ele>1052.7</ele>
        <time>2013-01-19T18:28:19.000Z</time>
      </trkpt>
      <trkpt lat="48.01419" lon="6.85062">
        <ele>1055.7</ele>
        <time>2013-01-19T18:28:21.000Z</time>
      </trkpt>
      <trkpt lat="48.01416" lon="6.85063">
        <ele>1056.2</ele>
        <time>2013-01-19T18:28:22.000Z</time>
      </trkpt>
      <trkpt lat="48.01412" lon="6.85061">
        <ele>1055.7</ele>
        <time>2013-01-19T18:28:27.000Z</time>
      </trkpt>
      <trkpt lat="48.01412" lon="6.85061">
        <ele>1055.8</ele>
        <time>2013-01-19T18:28:28.000Z</time>
      </trkpt>
      <trkpt lat="48.01409" lon="6.85061">
        <ele>1054.9</ele>
        <time>2013-01-19T18:28:46.000Z</time>
      </trkpt>
      <trkpt lat="48.01406" lon="6.8506">
        <ele>1054.7</ele>
        <time>2013-01-19T18:28:47.000Z</time>
      </trkpt>
      <trkpt lat="48.01402" lon="6.85059">
        <ele>1053.9</ele>
        <time>2013-01-19T18:28:50.000Z</time>
      </trkpt>
      <trkpt lat="48.01402" lon="6.85059">
        <ele>1053.5</ele>
        <time>2013-01-19T18:28:51.000Z</time>
      </trkpt>
      <trkpt lat="48.01397" lon="6.8506">
        <ele>1050.8</ele>
        <time>2013-01-19T18:29:08.000Z</time>
      </trkpt>
      <trkpt lat="48.01395" lon="6.8506">
        <ele>1050.6</ele>
        <time>2013-01-19T18:29:09.000Z</time>
      </trkpt>
      <trkpt lat="48.01391" lon="6.85061">
        <ele>1050</ele>
        <time>2013-01-19T18:29:11.000Z</time>
      </trkpt>
      <trkpt lat="48.01389" lon="6.85061">
        <ele>1049.5</ele>
        <time>2013-01-19T18:29:12.000Z</time>
      </trkpt>
      <trkpt lat="48.01386" lon="6.85062">
        <ele>1048.9</ele>
        <time>2013-01-19T18:29:13.000Z</time>
      </trkpt>
      <trkpt lat="48.01383" lon="6.85063">
        <ele>1049.3</ele>
        <time>2013-01-19T18:29:14.000Z</time>
      </trkpt>
      <trkpt lat="48.0138" lon="6.85064">
        <ele>1050.2</ele>
        <time>2013-01-19T18:29:16.000Z</time>
      </trkpt>
      <trkpt lat="48.01379" lon="6.85063">
        <ele>1050</ele>
        <time>2013-01-19T18:29:17.000Z</time>
      </trkpt>
      <trkpt lat="48.01374" lon="6.85064">
        <ele>1049.6</ele>
        <time>2013-01-19T18:29:20.000Z</time>
      </trkpt>
      <trkpt lat="48.01373" lon="6.85064">
        <ele>1050.2</ele>
        <time>2013-01-19T18:29:21.000Z</time>
      </trkpt>
      <trkpt lat="48.01371" lon="6.85066">
        <ele>1050.7</ele>
        <time>2013-01-19T18:29:22.000Z</time>
      </trkpt>
      <trkpt lat="48.0137" lon="6.8507">
        <ele>1050</ele>
        <time>2013-01-19T18:29:23.000Z</time>
      </trkpt>
      <trkpt lat="48.01366" lon="6.85071">
        <ele>1051.4</ele>
        <time>2013-01-19T18:29:25.000Z</time>
      </trkpt>
      <trkpt lat="48.01365" lon="6.85073">
        <ele>1052.6</ele>
        <time>2013-01-19T18:29:26.000Z</time>
      </trkpt>
      <trkpt lat="48.01362" lon="6.85077">
        <ele>1052.8</ele>
        <time>2013-01-19T18:29:29.000Z</time>
      </trkpt>
      <trkpt lat="48.01362" lon="6.85078">
        <ele>1053.1</ele>
        <time>2013-01-19T18:29:30.000Z</time>
      </trkpt>
      <trkpt lat="48.01358" lon="6.85081">
        <ele>1052.3</ele>
        <time>2013-01-19T18:29:36.000Z</time>
      </trkpt>
      <trkpt lat="48.01357" lon="6.85081">
        <ele>1052.7</ele>
        <time>2013-01-19T18:29:37.000Z</time>
      </trkpt>
      <trkpt lat="48.01355" lon="6.85083">
        <ele>1051.2</ele>
        <time>2013-01-19T18:29:41.000Z</time>
      </trkpt>
      <trkpt lat="48.01354" lon="6.85085">
        <ele>1050</ele>
        <time>2013-01-19T18:29:42.000Z</time>
      </trkpt>
      <trkpt lat="48.0135" lon="6.85089">
        <ele>1051.5</ele>
        <time>2013-01-19T18:29:49.000Z</time>
      </trkpt>
      <trkpt lat="48.01349" lon="6.85089">
        <ele>1052.3</ele>
        <time>2013-01-19T18:29:50.000Z</time>
      </trkpt>
      <trkpt lat="48.01346" lon="6.85092">
        <ele>1053.5</ele>
        <time>2013-01-19T18:30:07.000Z</time>
      </trkpt>
      <trkpt lat="48.01343" lon="6.85094">
        <ele>1053.7</ele>
        <time>2013-01-19T18:30:08.000Z</time>
      </trkpt>
      <trkpt lat="48.0134" lon="6.85097">
        <ele>1053.9</ele>
        <time>2013-01-19T18:30:09.000Z</time>
      </trkpt>
      <trkpt lat="48.01337" lon="6.85099">
        <ele>1054.4</ele>
        <time>2013-01-19T18:30:10.000Z</time>
      </trkpt>
      <trkpt lat="48.01335" lon="6.85099">
        <ele>1055.6</ele>
        <time>2013-01-19T18:30:11.000Z</time>
      </trkpt>
      <trkpt lat="48.01332" lon="6.851">
        <ele>1056.2</ele>
        <time>2013-01-19T18:30:12.000Z</time>
      </trkpt>
      <trkpt lat="48.01329" lon="6.85102">
        <ele>1057.5</ele>
        <time>2013-01-19T18:30:14.000Z</time>
      </trkpt>
      <trkpt lat="48.01328" lon="6.85103">
        <ele>1057.7</ele>
        <time>2013-01-19T18:30:15.000Z</time>
      </trkpt>
      <trkpt lat="48.01326" lon="6.85106">
        <ele>1058.5</ele>
        <time>2013-01-19T18:30:16.000Z</time>
      </trkpt>
      <trkpt lat="48.01324" lon="6.85108">
        <ele>1059.6</ele>
        <time>2013-01-19T18:30:17.000Z</time>
      </trkpt>
      <trkpt lat="48.01321" lon="6.85112">
        <ele>1062</ele>
        <time>2013-01-19T18:30:21.000Z</time>
      </trkpt>
      <trkpt lat="48.0132" lon="6.85114">
        <ele>1061.9</ele>
        <time>2013-01-19T18:30:22.000Z</time>
      </trkpt>
      <trkpt lat="48.01316" lon="6.85115">
        <ele>1063.2</ele>
        <time>2013-01-19T18:30:25.000Z</time>
      </trkpt>
      <trkpt lat="48.01312" lon="6.85116">
        <ele>1062.9</ele>
        <time>2013-01-19T18:30:26.000Z</time>
      </trkpt>
      <trkpt lat="48.01308" lon="6.85119">
        <ele>1064.8</ele>
        <time>2013-01-19T18:30:31.000Z</time>
      </trkpt>
      <trkpt lat="48.01308" lon="6.8512">
        <ele>1064.9</ele>
        <time>2013-01-19T18:30:32.000Z</time>
      </trkpt>
      <trkpt lat="48.01306" lon="6.85123">
        <ele>1065.7</ele>
        <time>2013-01-19T18:30:47.000Z</time>
      </trkpt>
      <trkpt lat="48.013" lon="6.85123">
        <ele>1064.3</ele>
        <time>2013-01-19T18:30:48.000Z</time>
      </trkpt>
      <trkpt lat="48.01296" lon="6.85127">
        <ele>1064.8</ele>
        <time>2013-01-19T18:30:49.000Z</time>
      </trkpt>
      <trkpt lat="48.01292" lon="6.85131">
        <ele>1064.8</ele>
        <time>2013-01-19T18:30:50.000Z</time>
      </trkpt>
      <trkpt lat="48.01291" lon="6.85137">
        <ele>1063.3</ele>
        <time>2013-01-19T18:30:52.000Z</time>
      </trkpt>
      <trkpt lat="48.01289" lon="6.85139">
        <ele>1062.6</ele>
        <time>2013-01-19T18:30:53.000Z</time>
      </trkpt>
      <trkpt lat="48.01286" lon="6.85139">
        <ele>1063.7</ele>
        <time>2013-01-19T18:30:54.000Z</time>
      </trkpt>
      <trkpt lat="48.01284" lon="6.85142">
        <ele>1063.4</ele>
        <time>2013-01-19T18:30:55.000Z</time>
      </trkpt>
      <trkpt lat="48.0128" lon="6.85145">
        <ele>1064.9</ele>
        <time>2013-01-19T18:31:01.000Z</time>
      </trkpt>
      <trkpt lat="48.0128" lon="6.85145">
        <ele>1064.8</ele>
        <time>2013-01-19T18:31:02.000Z</time>
      </trkpt>
      <trkpt lat="48.01277" lon="6.85147">
        <ele>1065.6</ele>
        <time>2013-01-19T18:31:06.000Z</time>
      </trkpt>
      <trkpt lat="48.01277" lon="6.85151">
        <ele>1066.1</ele>
        <time>2013-01-19T18:31:07.000Z</time>
      </trkpt>
      <trkpt lat="48.01273" lon="6.85153">
        <ele>1067.1</ele>
        <time>2013-01-19T18:31:10.000Z</time>
      </trkpt>
      <trkpt lat="48.01271" lon="6.85153">
        <ele>1067.8</ele>
        <time>2013-01-19T18:31:11.000Z</time>
      </trkpt>
      <trkpt lat="48.01268" lon="6.85156">
        <ele>1066.4</ele>
        <time>2013-01-19T18:31:13.000Z</time>
      </trkpt>
      <trkpt lat="48.01266" lon="6.85157">
        <ele>1066.7</ele>
        <time>2013-01-19T18:31:14.000Z</time>
      </trkpt>
      <trkpt lat="48.01264" lon="6.85159">
        <ele>1068.5</ele>
        <time>2013-01-19T18:31:17.000Z</time>
      </trkpt>
      <trkpt lat="48.01262" lon="6.8516">
        <ele>1069.2</ele>
        <time>2013-01-19T18:31:18.000Z</time>
      </trkpt>
      <trkpt lat="48.0126" lon="6.85164">
        <ele>1067.6</ele>
        <time>2013-01-19T18:31:24.000Z</time>
      </trkpt>
      <trkpt lat="48.01259" lon="6.85166">
        <ele>1068.3</ele>
        <time>2013-01-19T18:31:25.000Z</time>
      </trkpt>
      <trkpt lat="48.01256" lon="6.85168">
        <ele>1068.3</ele>
        <time>2013-01-19T18:31:30.000Z</time>
      </trkpt>
      <trkpt lat="48.01255" lon="6.85169">
        <ele>1068.6</ele>
        <time>2013-01-19T18:31:31.000Z</time>
      </trkpt>
      <trkpt lat="48.01253" lon="6.85172">
        <ele>1068.3</ele>
        <time>2013-01-19T18:31:34.000Z</time>
      </trkpt>
      <trkpt lat="48.01252" lon="6.85173">
        <ele>1066.5</ele>
        <time>2013-01-19T18:31:35.000Z</time>
      </trkpt>
      <trkpt lat="48.01249" lon="6.85176">
        <ele>1068.3</ele>
        <time>2013-01-19T18:31:38.000Z</time>
      </trkpt>
      <trkpt lat="48.01248" lon="6.85176">
        <ele>1068.1</ele>
        <time>2013-01-19T18:31:39.000Z</time>
      </trkpt>
      <trkpt lat="48.01244" lon="6.85178">
        <ele>1065.9</ele>
        <time>2013-01-19T18:31:51.000Z</time>
      </trkpt>
      <trkpt lat="48.01242" lon="6.85177">
        <ele>1063.2</ele>
        <time>2013-01-19T18:31:52.000Z</time>
      </trkpt>
      <trkpt lat="48.01239" lon="6.85177">
        <ele>1060.4</ele>
        <time>2013-01-19T18:31:56.000Z</time>
      </trkpt>
      <trkpt lat="48.01237" lon="6.85177">
        <ele>1060.3</ele>
        <time>2013-01-19T18:31:57.000Z</time>
      </trkpt>
      <trkpt lat="48.01233" lon="6.85178">
        <ele>1058.5</ele>
        <time>2013-01-19T18:32:01.000Z</time>
      </trkpt>
      <trkpt lat="48.01232" lon="6.85177">
        <ele>1058.8</ele>
        <time>2013-01-19T18:32:02.000Z</time>
      </trkpt>
      <trkpt lat="48.01229" lon="6.85177">
        <ele>1059.3</ele>
        <time>2013-01-19T18:32:04.000Z</time>
      </trkpt>
      <trkpt lat="48.01227" lon="6.85176">
        <ele>1058.7</ele>
        <time>2013-01-19T18:32:05.000Z</time>
      </trkpt>
      <trkpt lat="48.01224" lon="6.85175">
        <ele>1057.9</ele>
        <time>2013-01-19T18:32:07.000Z</time>
      </trkpt>
      <trkpt lat="48.01222" lon="6.85174">
        <ele>1057.7</ele>
        <time>2013-01-19T18:32:08.000Z</time>
      </trkpt>
      <trkpt lat="48.01218" lon="6.85174">
        <ele>1061.3</ele>
        <time>2013-01-19T18:32:11.000Z</time>
      </trkpt>
      <trkpt lat="48.01217" lon="6.85173">
        <ele>1062.5</ele>
        <time>2013-01-19T18:32:12.000Z</time>
      </trkpt>
      <trkpt lat="48.01213" lon="6.85171">
        <ele>1064.5</ele>
        <time>2013-01-19T18:32:15.000Z</time>
      </trkpt>
      <trkpt lat="48.01212" lon="6.8517">
        <ele>1064.9</ele>
        <time>2013-01-19T18:32:16.000Z</time>
      </trkpt>
      <trkpt lat="48.01209" lon="6.8517">
        <ele>1064.8</ele>
        <time>2013-01-19T18:32:19.000Z</time>
      </trkpt>
      <trkpt lat="48.01208" lon="6.85169">
        <ele>1064.8</ele>
        <time>2013-01-19T18:32:20.000Z</time>
      </trkpt>
      <trkpt lat="48.01205" lon="6.85164">
        <ele>1064.9</ele>
        <time>2013-01-19T18:32:24.000Z</time>
      </trkpt>
      <trkpt lat="48.01203" lon="6.85165">
        <ele>1065.3</ele>
        <time>2013-01-19T18:32:25.000Z</time>
      </trkpt>
      <trkpt lat="48.01201" lon="6.85161">
        <ele>1066</ele>
        <time>2013-01-19T18:32:27.000Z</time>
      </trkpt>
      <trkpt lat="48.01199" lon="6.8516">
        <ele>1065.7</ele>
        <time>2013-01-19T18:32:28.000Z</time>
      </trkpt>
      <trkpt lat="48.01198" lon="6.85159">
        <ele>1066.6</ele>
        <time>2013-01-19T18:32:30.000Z</time>
      </trkpt>
      <trkpt lat="48.01196" lon="6.85155">
        <ele>1066.8</ele>
        <time>2013-01-19T18:32:31.000Z</time>
      </trkpt>
      <trkpt lat="48.01191" lon="6.85155">
        <ele>1065.5</ele>
        <time>2013-01-19T18:32:33.000Z</time>
      </trkpt>
      <trkpt lat="48.0119" lon="6.85153">
        <ele>1065.6</ele>
        <time>2013-01-19T18:32:34.000Z</time>
      </trkpt>
      <trkpt lat="48.01187" lon="6.85154">
        <ele>1066.7</ele>
        <time>2013-01-19T18:32:37.000Z</time>
      </trkpt>
      <trkpt lat="48.01185" lon="6.85153">
        <ele>1067.4</ele>
        <time>2013-01-19T18:32:38.000Z</time>
      </trkpt>
      <trkpt lat="48.01181" lon="6.85154">
        <ele>1068.7</ele>
        <time>2013-01-19T18:32:41.000Z</time>
      </trkpt>
      <trkpt lat="48.0118" lon="6.85152">
        <ele>1068.3</ele>
        <time>2013-01-19T18:32:42.000Z</time>
      </trkpt>
      <trkpt lat="48.01177" lon="6.85149">
        <ele>1067.3</ele>
        <time>2013-01-19T18:32:48.000Z</time>
      </trkpt>
      <trkpt lat="48.01175" lon="6.85148">
        <ele>1066.6</ele>
        <time>2013-01-19T18:32:49.000Z</time>
      </trkpt>
      <trkpt lat="48.01171" lon="6.8515">
        <ele>1069</ele>
        <time>2013-01-19T18:32:59.000Z</time>
      </trkpt>
      <trkpt lat="48.0117" lon="6.85151">
        <ele>1068.7</ele>
        <time>2013-01-19T18:33:00.000Z</time>
      </trkpt>
      <trkpt lat="48.01167" lon="6.85154">
        <ele>1067.6</ele>
        <time>2013-01-19T18:33:08.000Z</time>
      </trkpt>
      <trkpt lat="48.01166" lon="6.85154">
        <ele>1067.6</ele>
        <time>2013-01-19T18:33:09.000Z</time>
      </trkpt>
      <trkpt lat="48.01162" lon="6.85156">
        <ele>1067.8</ele>
        <time>2013-01-19T18:33:16.000Z</time>
      </trkpt>
      <trkpt lat="48.01161" lon="6.85159">
        <ele>1067.4</ele>
        <time>2013-01-19T18:33:17.000Z</time>
      </trkpt>
      <trkpt lat="48.01157" lon="6.8516">
        <ele>1066.6</ele>
        <time>2013-01-19T18:33:22.000Z</time>
      </trkpt>
      <trkpt lat="48.01156" lon="6.8516">
        <ele>1066.6</ele>
        <time>2013-01-19T18:33:23.000Z</time>
      </trkpt>
      <trkpt lat="48.01153" lon="6.85163">
        <ele>1068.1</ele>
        <time>2013-01-19T18:33:29.000Z</time>
      </trkpt>
      <trkpt lat="48.01152" lon="6.85163">
        <ele>1068.2</ele>
        <time>2013-01-19T18:33:30.000Z</time>
      </trkpt>
      <trkpt lat="48.01148" lon="6.85164">
        <ele>1068.4</ele>
        <time>2013-01-19T18:33:49.000Z</time>
      </trkpt>
      <trkpt lat="48.01147" lon="6.85165">
        <ele>1068.7</ele>
        <time>2013-01-19T18:33:50.000Z</time>
      </trkpt>
      <trkpt lat="48.01144" lon="6.85169">
        <ele>1069.2</ele>
        <time>2013-01-19T18:33:55.000Z</time>
      </trkpt>
      <trkpt lat="48.01144" lon="6.8517">
        <ele>1069.2</ele>
        <time>2013-01-19T18:33:56.000Z</time>
      </trkpt>
      <trkpt lat="48.01139" lon="6.85169">
        <ele>1070.4</ele>
        <time>2013-01-19T18:34:07.000Z</time>
      </trkpt>
      <trkpt lat="48.01139" lon="6.85169">
        <ele>1070.5</ele>
        <time>2013-01-19T18:34:08.000Z</time>
      </trkpt>
      <trkpt lat="48.01135" lon="6.85172">
        <ele>1070</ele>
        <time>2013-01-19T18:34:11.000Z</time>
      </trkpt>
      <trkpt lat="48.01134" lon="6.85173">
        <ele>1069.9</ele>
        <time>2013-01-19T18:34:12.000Z</time>
      </trkpt>
      <trkpt lat="48.01133" lon="6.85179">
        <ele>1067.7</ele>
        <time>2013-01-19T18:34:18.000Z</time>
      </trkpt>
      <trkpt lat="48.01132" lon="6.8518">
        <ele>1067.4</ele>
        <time>2013-01-19T18:34:19.000Z</time>
      </trkpt>
      <trkpt lat="48.01131" lon="6.85186">
        <ele>1067.1</ele>
        <time>2013-01-19T18:34:21.000Z</time>
      </trkpt>
      <trkpt lat="48.01131" lon="6.85188">
        <ele>1066.1</ele>
        <time>2013-01-19T18:34:22.000Z</time>
      </trkpt>
      <trkpt lat="48.0113" lon="6.85194">
        <ele>1065.9</ele>
        <time>2013-01-19T18:34:25.000Z</time>
      </trkpt>
      <trkpt lat="48.0113" lon="6.85195">
        <ele>1065.7</ele>
        <time>2013-01-19T18:34:26.000Z</time>
      </trkpt>
      <trkpt lat="48.01128" lon="6.85201">
        <ele>1067</ele>
        <time>2013-01-19T18:34:35.000Z</time>
      </trkpt>
      <trkpt lat="48.01127" lon="6.85203">
        <ele>1067.6</ele>
        <time>2013-01-19T18:34:36.000Z</time>
      </trkpt>
      <trkpt lat="48.01126" lon="6.85209">
        <ele>1068.5</ele>
        <time>2013-01-19T18:34:39.000Z</time>
      </trkpt>
      <trkpt lat="48.01125" lon="6.85213">
        <ele>1068.3</ele>
        <time>2013-01-19T18:34:40.000Z</time>
      </trkpt>
      <trkpt lat="48.01123" lon="6.85219">
        <ele>1066.8</ele>
        <time>2013-01-19T18:34:44.000Z</time>
      </trkpt>
      <trkpt lat="48.01124" lon="6.85221">
        <ele>1065.2</ele>
        <time>2013-01-19T18:34:45.000Z</time>
      </trkpt>
      <trkpt lat="48.01123" lon="6.85228">
        <ele>1065.3</ele>
        <time>2013-01-19T18:34:48.000Z</time>
      </trkpt>
      <trkpt lat="48.01124" lon="6.85229">
        <ele>1065.1</ele>
        <time>2013-01-19T18:34:49.000Z</time>
      </trkpt>
      <trkpt lat="48.01121" lon="6.85233">
        <ele>1064.2</ele>
        <time>2013-01-19T18:34:58.000Z</time>
      </trkpt>
      <trkpt lat="48.0112" lon="6.85236">
        <ele>1063.6</ele>
        <time>2013-01-19T18:34:59.000Z</time>
      </trkpt>
      <trkpt lat="48.01118" lon="6.8524">
        <ele>1064.1</ele>
        <time>2013-01-19T18:35:02.000Z</time>
      </trkpt>
      <trkpt lat="48.01118" lon="6.85243">
        <ele>1064.2</ele>
        <time>2013-01-19T18:35:03.000Z</time>
      </trkpt>
      <trkpt lat="48.01115" lon="6.8525">
        <ele>1064.3</ele>
        <time>2013-01-19T18:35:04.000Z</time>
      </trkpt>
      <trkpt lat="48.01112" lon="6.85255">
        <ele>1067.1</ele>
        <time>2013-01-19T18:35:14.000Z</time>
      </trkpt>
      <trkpt lat="48.0111" lon="6.85256">
        <ele>1067</ele>
        <time>2013-01-19T18:35:15.000Z</time>
      </trkpt>
      <trkpt lat="48.01109" lon="6.85253">
        <ele>1067.3</ele>
        <time>2013-01-19T18:35:18.000Z</time>
      </trkpt>
      <trkpt lat="48.01109" lon="6.85249">
        <ele>1068</ele>
        <time>2013-01-19T18:35:19.000Z</time>
      </trkpt>
      <trkpt lat="48.0111" lon="6.85243">
        <ele>1068.4</ele>
        <time>2013-01-19T18:35:34.000Z</time>
      </trkpt>
      <trkpt lat="48.0111" lon="6.85242">
        <ele>1068</ele>
        <time>2013-01-19T18:35:35.000Z</time>
      </trkpt>
      <trkpt lat="48.01107" lon="6.85245">
        <ele>1066.3</ele>
        <time>2013-01-19T18:35:45.000Z</time>
      </trkpt>
      <trkpt lat="48.01106" lon="6.85246">
        <ele>1066.3</ele>
        <time>2013-01-19T18:35:46.000Z</time>
      </trkpt>
      <trkpt lat="48.01104" lon="6.8524">
        <ele>1065.7</ele>
        <time>2013-01-19T18:43:47.000Z</time>
      </trkpt>
      <trkpt lat="48.01105" lon="6.85239">
        <ele>1065.3</ele>
        <time>2013-01-19T18:43:48.000Z</time>
      </trkpt>
      <trkpt lat="48.01104" lon="6.85246">
        <ele>1060.6</ele>
        <time>2013-01-19T18:47:07.000Z</time>
      </trkpt>
      <trkpt lat="48.01104" lon="6.85247">
        <ele>1061.2</ele>
        <time>2013-01-19T18:47:08.000Z</time>
      </trkpt>
      <trkpt lat="48.01106" lon="6.8524">
        <ele>1063.5</ele>
        <time>2013-01-19T18:52:40.000Z</time>
      </trkpt>
      <trkpt lat="48.01106" lon="6.8524">
        <ele>1063.5</ele>
        <time>2013-01-19T18:52:41.000Z</time>
      </trkpt>
      <trkpt lat="48.01108" lon="6.85237">
        <ele>1058.9</ele>
        <time>2013-01-19T18:52:55.000Z</time>
      </trkpt>
      <trkpt lat="48.01109" lon="6.85236">
        <ele>1057.6</ele>
        <time>2013-01-19T18:52:56.000Z</time>
      </trkpt>
      <trkpt lat="48.01111" lon="6.85233">
        <ele>1056.5</ele>
        <time>2013-01-19T18:53:01.000Z</time>
      </trkpt>
      <trkpt lat="48.0111" lon="6.85229">
        <ele>1055.4</ele>
        <time>2013-01-19T18:53:02.000Z</time>
      </trkpt>
      <trkpt lat="48.01112" lon="6.85224">
        <ele>1055.8</ele>
        <time>2013-01-19T18:53:06.000Z</time>
      </trkpt>
      <trkpt lat="48.01113" lon="6.85222">
        <ele>1055.2</ele>
        <time>2013-01-19T18:53:07.000Z</time>
      </trkpt>
      <trkpt lat="48.0111" lon="6.85217">
        <ele>1053.4</ele>
        <time>2013-01-19T18:53:23.000Z</time>
      </trkpt>
      <trkpt lat="48.0111" lon="6.85217">
        <ele>1053.5</ele>
        <time>2013-01-19T18:53:24.000Z</time>
      </trkpt>
      <trkpt lat="48.01106" lon="6.8522">
        <ele>1053.2</ele>
        <time>2013-01-19T18:53:29.000Z</time>
      </trkpt>
      <trkpt lat="48.01105" lon="6.8522">
        <ele>1053.4</ele>
        <time>2013-01-19T18:53:30.000Z</time>
      </trkpt>
      <trkpt lat="48.01102" lon="6.85222">
        <ele>1053.8</ele>
        <time>2013-01-19T18:54:03.000Z</time>
      </trkpt>
      <trkpt lat="48.011" lon="6.85225">
        <ele>1054.2</ele>
        <time>2013-01-19T18:54:04.000Z</time>
      </trkpt>
      <trkpt lat="48.01098" lon="6.85229">
        <ele>1054</ele>
        <time>2013-01-19T18:54:08.000Z</time>
      </trkpt>
      <trkpt lat="48.01097" lon="6.8523">
        <ele>1054.2</ele>
        <time>2013-01-19T18:54:09.000Z</time>
      </trkpt>
      <trkpt lat="48.01093" lon="6.85231">
        <ele>1051.3</ele>
        <time>2013-01-19T18:54:43.000Z</time>
      </trkpt>
      <trkpt lat="48.0109" lon="6.85231">
        <ele>1051.9</ele>
        <time>2013-01-19T18:54:44.000Z</time>
      </trkpt>
      <trkpt lat="48.01086" lon="6.85231">
        <ele>1049.8</ele>
        <time>2013-01-19T18:55:04.000Z</time>
      </trkpt>
      <trkpt lat="48.01081" lon="6.85227">
        <ele>1048.3</ele>
        <time>2013-01-19T18:55:05.000Z</time>
      </trkpt>
      <trkpt lat="48.01077" lon="6.85228">
        <ele>1048.4</ele>
        <time>2013-01-19T18:55:06.000Z</time>
      </trkpt>
      <trkpt lat="48.01076" lon="6.85227">
        <ele>1045.1</ele>
        <time>2013-01-19T18:55:07.000Z</time>
      </trkpt>
      <trkpt lat="48.01072" lon="6.85227">
        <ele>1044.9</ele>
        <time>2013-01-19T18:55:09.000Z</time>
      </trkpt>
      <trkpt lat="48.01069" lon="6.85226">
        <ele>1044.3</ele>
        <time>2013-01-19T18:55:10.000Z</time>
      </trkpt>
      <trkpt lat="48.01064" lon="6.85224">
        <ele>1039.8</ele>
        <time>2013-01-19T18:55:20.000Z</time>
      </trkpt>
      <trkpt lat="48.01063" lon="6.85224">
        <ele>1039.4</ele>
        <time>2013-01-19T18:55:21.000Z</time>
      </trkpt>
      <trkpt lat="48.01059" lon="6.85224">
        <ele>1039.8</ele>
        <time>2013-01-19T18:55:27.000Z</time>
      </trkpt>
      <trkpt lat="48.01057" lon="6.85224">
        <ele>1039.2</ele>
        <time>2013-01-19T18:55:28.000Z</time>
      </trkpt>
      <trkpt lat="48.01054" lon="6.85228">
        <ele>1038.7</ele>
        <time>2013-01-19T18:55:47.000Z</time>
      </trkpt>
      <trkpt lat="48.01053" lon="6.85229">
        <ele>1038.9</ele>
        <time>2013-01-19T18:55:48.000Z</time>
      </trkpt>
      <trkpt lat="48.01051" lon="6.8523">
        <ele>1039.4</ele>
        <time>2013-01-19T18:56:03.000Z</time>
      </trkpt>
      <trkpt lat="48.01049" lon="6.8523">
        <ele>1037.9</ele>
        <time>2013-01-19T18:56:04.000Z</time>
      </trkpt>
      <trkpt lat="48.01046" lon="6.85229">
        <ele>1036</ele>
        <time>2013-01-19T18:56:06.000Z</time>
      </trkpt>
      <trkpt lat="48.01044" lon="6.85229">
        <ele>1035.7</ele>
        <time>2013-01-19T18:56:07.000Z</time>
      </trkpt>
      <trkpt lat="48.0104" lon="6.85229">
        <ele>1034.9</ele>
        <time>2013-01-19T18:56:10.000Z</time>
      </trkpt>
      <trkpt lat="48.01039" lon="6.85229">
        <ele>1035.1</ele>
        <time>2013-01-19T18:56:11.000Z</time>
      </trkpt>
      <trkpt lat="48.01035" lon="6.85231">
        <ele>1030.8</ele>
        <time>2013-01-19T18:56:15.000Z</time>
      </trkpt>
      <trkpt lat="48.01034" lon="6.85232">
        <ele>1030.1</ele>
        <time>2013-01-19T18:56:16.000Z</time>
      </trkpt>
      <trkpt lat="48.01031" lon="6.85234">
        <ele>1029.5</ele>
        <time>2013-01-19T18:56:19.000Z</time>
      </trkpt>
      <trkpt lat="48.01029" lon="6.85234">
        <ele>1029.6</ele>
        <time>2013-01-19T18:56:20.000Z</time>
      </trkpt>
      <trkpt lat="48.01025" lon="6.85234">
        <ele>1029.4</ele>
        <time>2013-01-19T18:56:25.000Z</time>
      </trkpt>
      <trkpt lat="48.01024" lon="6.85232">
        <ele>1029.6</ele>
        <time>2013-01-19T18:56:26.000Z</time>
      </trkpt>
      <trkpt lat="48.01022" lon="6.85231">
        <ele>1030.9</ele>
        <time>2013-01-19T18:56:28.000Z</time>
      </trkpt>
      <trkpt lat="48.0102" lon="6.85232">
        <ele>1030.9</ele>
        <time>2013-01-19T18:56:29.000Z</time>
      </trkpt>
      <trkpt lat="48.01016" lon="6.85235">
        <ele>1032.8</ele>
        <time>2013-01-19T18:56:33.000Z</time>
      </trkpt>
      <trkpt lat="48.01015" lon="6.85234">
        <ele>1033.1</ele>
        <time>2013-01-19T18:56:34.000Z</time>
      </trkpt>
      <trkpt lat="48.01011" lon="6.85235">
        <ele>1032.7</ele>
        <time>2013-01-19T18:56:53.000Z</time>
      </trkpt>
      <trkpt lat="48.01011" lon="6.85235">
        <ele>1032.4</ele>
        <time>2013-01-19T18:56:54.000Z</time>
      </trkpt>
      <trkpt lat="48.01007" lon="6.85233">
        <ele>1028.7</ele>
        <time>2013-01-19T18:57:00.000Z</time>
      </trkpt>
      <trkpt lat="48.01006" lon="6.85233">
        <ele>1028.5</ele>
        <time>2013-01-19T18:57:01.000Z</time>
      </trkpt>
      <trkpt lat="48.01003" lon="6.85232">
        <ele>1027.2</ele>
        <time>2013-01-19T18:57:05.000Z</time>
      </trkpt>
      <trkpt lat="48.01001" lon="6.85231">
        <ele>1027.2</ele>
        <time>2013-01-19T18:57:06.000Z</time>
      </trkpt>
      <trkpt lat="48.01" lon="6.85226">
        <ele>1025.8</ele>
        <time>2013-01-19T18:57:12.000Z</time>
      </trkpt>
      <trkpt lat="48.01" lon="6.85224">
        <ele>1025.1</ele>
        <time>2013-01-19T18:57:13.000Z</time>
      </trkpt>
      <trkpt lat="48.01" lon="6.85218">
        <ele>1028.2</ele>
        <time>2013-01-19T18:57:17.000Z</time>
      </trkpt>
      <trkpt lat="48.00999" lon="6.85218">
        <ele>1028.6</ele>
        <time>2013-01-19T18:57:18.000Z</time>
      </trkpt>
      <trkpt lat="48.00997" lon="6.85212">
        <ele>1029.5</ele>
        <time>2013-01-19T18:57:33.000Z</time>
      </trkpt>
      <trkpt lat="48.00997" lon="6.85211">
        <ele>1029.5</ele>
        <time>2013-01-19T18:57:34.000Z</time>
      </trkpt>
      <trkpt lat="48.00995" lon="6.85209">
        <ele>1030.4</ele>
        <time>2013-01-19T18:58:02.000Z</time>
      </trkpt>
      <trkpt lat="48.00989" lon="6.85209">
        <ele>1030.2</ele>
        <time>2013-01-19T18:58:03.000Z</time>
      </trkpt>
      <trkpt lat="48.00987" lon="6.85209">
        <ele>1029.7</ele>
        <time>2013-01-19T18:58:05.000Z</time>
      </trkpt>
      <trkpt lat="48.00985" lon="6.85209">
        <ele>1029.4</ele>
        <time>2013-01-19T18:58:06.000Z</time>
      </trkpt>
      <trkpt lat="48.00981" lon="6.8521">
        <ele>1030.2</ele>
        <time>2013-01-19T18:58:08.000Z</time>
      </trkpt>
      <trkpt lat="48.00978" lon="6.85211">
        <ele>1030.5</ele>
        <time>2013-01-19T18:58:09.000Z</time>
      </trkpt>
      <trkpt lat="48.00975" lon="6.85211">
        <ele>1030.8</ele>
        <time>2013-01-19T18:58:26.000Z</time>
      </trkpt>
      <trkpt lat="48.00973" lon="6.85211">
        <ele>1029.6</ele>
        <time>2013-01-19T18:58:27.000Z</time>
      </trkpt>
      <trkpt lat="48.0097" lon="6.85209">
        <ele>1026.8</ele>
        <time>2013-01-19T18:58:37.000Z</time>
      </trkpt>
      <trkpt lat="48.00966" lon="6.85206">
        <ele>1027.6</ele>
        <time>2013-01-19T18:58:38.000Z</time>
      </trkpt>
      <trkpt lat="48.00963" lon="6.85205">
        <ele>1028</ele>
        <time>2013-01-19T18:58:39.000Z</time>
      </trkpt>
      <trkpt lat="48.00962" lon="6.85204">
        <ele>1028.5</ele>
        <time>2013-01-19T18:58:40.000Z</time>
      </trkpt>
      <trkpt lat="48.00957" lon="6.85205">
        <ele>1031.7</ele>
        <time>2013-01-19T18:59:24.000Z</time>
      </trkpt>
      <trkpt lat="48.00957" lon="6.85205">
        <ele>1031.7</ele>
        <time>2013-01-19T18:59:25.000Z</time>
      </trkpt>
      <trkpt lat="48.00954" lon="6.85201">
        <ele>1026.6</ele>
        <time>2013-01-19T18:59:36.000Z</time>
      </trkpt>
      <trkpt lat="48.00953" lon="6.852">
        <ele>1026.8</ele>
        <time>2013-01-19T18:59:37.000Z</time>
      </trkpt>
      <trkpt lat="48.00952" lon="6.85196">
        <ele>1020.9</ele>
        <time>2013-01-19T18:59:47.000Z</time>
      </trkpt>
      <trkpt lat="48.00952" lon="6.85193">
        <ele>1021</ele>
        <time>2013-01-19T18:59:48.000Z</time>
      </trkpt>
      <trkpt lat="48.00949" lon="6.85188">
        <ele>1020</ele>
        <time>2013-01-19T18:59:52.000Z</time>
      </trkpt>
      <trkpt lat="48.00949" lon="6.85188">
        <ele>1019</ele>
        <time>2013-01-19T18:59:53.000Z</time>
      </trkpt>
      <trkpt lat="48.0095" lon="6.85182">
        <ele>1016.2</ele>
        <time>2013-01-19T19:00:01.000Z</time>
      </trkpt>
      <trkpt lat="48.0095" lon="6.85181">
        <ele>1015.9</ele>
        <time>2013-01-19T19:00:02.000Z</time>
      </trkpt>
      <trkpt lat="48.00949" lon="6.85174">
        <ele>1012.5</ele>
        <time>2013-01-19T19:00:13.000Z</time>
      </trkpt>
      <trkpt lat="48.00948" lon="6.85174">
        <ele>1012.3</ele>
        <time>2013-01-19T19:00:14.000Z</time>
      </trkpt>
      <trkpt lat="48.00949" lon="6.85168">
        <ele>1012.7</ele>
        <time>2013-01-19T19:00:31.000Z</time>
      </trkpt>
      <trkpt lat="48.0095" lon="6.85167">
        <ele>1011.8</ele>
        <time>2013-01-19T19:00:32.000Z</time>
      </trkpt>
      <trkpt lat="48.00951" lon="6.85161">
        <ele>1012.2</ele>
        <time>2013-01-19T19:00:47.000Z</time>
      </trkpt>
      <trkpt lat="48.00951" lon="6.8516">
        <ele>1012.2</ele>
        <time>2013-01-19T19:00:48.000Z</time>
      </trkpt>
      <trkpt lat="48.00951" lon="6.85154">
        <ele>1012.4</ele>
        <time>2013-01-19T19:01:00.000Z</time>
      </trkpt>
      <trkpt lat="48.00951" lon="6.85153">
        <ele>1010.8</ele>
        <time>2013-01-19T19:01:01.000Z</time>
      </trkpt>
      <trkpt lat="48.00948" lon="6.85148">
        <ele>1009.4</ele>
        <time>2013-01-19T19:01:12.000Z</time>
      </trkpt>
      <trkpt lat="48.00948" lon="6.85147">
        <ele>1009.1</ele>
        <time>2013-01-19T19:01:13.000Z</time>
      </trkpt>
      <trkpt lat="48.00944" lon="6.85144">
        <ele>1009.1</ele>
        <time>2013-01-19T19:01:25.000Z</time>
      </trkpt>
      <trkpt lat="48.00943" lon="6.85143">
        <ele>1009.9</ele>
        <time>2013-01-19T19:01:26.000Z</time>
      </trkpt>
      <trkpt lat="48.0094" lon="6.8514">
        <ele>1005.8</ele>
        <time>2013-01-19T19:01:32.000Z</time>
      </trkpt>
      <trkpt lat="48.00939" lon="6.85139">
        <ele>1005</ele>
        <time>2013-01-19T19:01:33.000Z</time>
      </trkpt>
      <trkpt lat="48.00936" lon="6.85134">
        <ele>1005.3</ele>
        <time>2013-01-19T19:01:47.000Z</time>
      </trkpt>
      <trkpt lat="48.00936" lon="6.85134">
        <ele>1005.2</ele>
        <time>2013-01-19T19:01:48.000Z</time>
      </trkpt>
      <trkpt lat="48.00933" lon="6.85131">
        <ele>1006.2</ele>
        <time>2013-01-19T19:01:53.000Z</time>
      </trkpt>
      <trkpt lat="48.00932" lon="6.85128">
        <ele>1007.5</ele>
        <time>2013-01-19T19:01:54.000Z</time>
      </trkpt>
      <trkpt lat="48.00928" lon="6.85127">
        <ele>1007.5</ele>
        <time>2013-01-19T19:02:30.000Z</time>
      </trkpt>
      <trkpt lat="48.00926" lon="6.85128">
        <ele>1008.1</ele>
        <time>2013-01-19T19:02:31.000Z</time>
      </trkpt>
      <trkpt lat="48.00922" lon="6.85127">
        <ele>1008.9</ele>
        <time>2013-01-19T19:02:34.000Z</time>
      </trkpt>
      <trkpt lat="48.00921" lon="6.85127">
        <ele>1009</ele>
        <time>2013-01-19T19:02:35.000Z</time>
      </trkpt>
      <trkpt lat="48.00918" lon="6.85128">
        <ele>1009.2</ele>
        <time>2013-01-19T19:02:41.000Z</time>
      </trkpt>
      <trkpt lat="48.00916" lon="6.8513">
        <ele>1009</ele>
        <time>2013-01-19T19:02:42.000Z</time>
      </trkpt>
      <trkpt lat="48.00914" lon="6.85131">
        <ele>1008.6</ele>
        <time>2013-01-19T19:02:43.000Z</time>
      </trkpt>
      <trkpt lat="48.00912" lon="6.85132">
        <ele>1008.6</ele>
        <time>2013-01-19T19:02:44.000Z</time>
      </trkpt>
      <trkpt lat="48.00909" lon="6.85128">
        <ele>1007.8</ele>
        <time>2013-01-19T19:07:41.000Z</time>
      </trkpt>
      <trkpt lat="48.00908" lon="6.85127">
        <ele>1008.4</ele>
        <time>2013-01-19T19:07:42.000Z</time>
      </trkpt>
      <trkpt lat="48.00905" lon="6.85124">
        <ele>1010.7</ele>
        <time>2013-01-19T19:08:23.000Z</time>
      </trkpt>
      <trkpt lat="48.00903" lon="6.85123">
        <ele>1010.8</ele>
        <time>2013-01-19T19:08:24.000Z</time>
      </trkpt>
      <trkpt lat="48.00899" lon="6.85122">
        <ele>1012.8</ele>
        <time>2013-01-19T19:08:59.000Z</time>
      </trkpt>
      <trkpt lat="48.00898" lon="6.8512">
        <ele>1014</ele>
        <time>2013-01-19T19:09:00.000Z</time>
      </trkpt>
      <trkpt lat="48.00895" lon="6.85125">
        <ele>1014.3</ele>
        <time>2013-01-19T19:09:28.000Z</time>
      </trkpt>
      <trkpt lat="48.00894" lon="6.85125">
        <ele>1014.3</ele>
        <time>2013-01-19T19:09:29.000Z</time>
      </trkpt>
      <trkpt lat="48.00892" lon="6.85125">
        <ele>1015.6</ele>
        <time>2013-01-19T19:10:21.000Z</time>
      </trkpt>
      <trkpt lat="48.00889" lon="6.85125">
        <ele>1016.1</ele>
        <time>2013-01-19T19:10:22.000Z</time>
      </trkpt>
      <trkpt lat="48.00887" lon="6.85127">
        <ele>1016.5</ele>
        <time>2013-01-19T19:11:01.000Z</time>
      </trkpt>
      <trkpt lat="48.00884" lon="6.85129">
        <ele>1016.3</ele>
        <time>2013-01-19T19:11:02.000Z</time>
      </trkpt>
      <trkpt lat="48.00879" lon="6.85129">
        <ele>1014.8</ele>
        <time>2013-01-19T19:11:03.000Z</time>
      </trkpt>
      <trkpt lat="48.00877" lon="6.8513">
        <ele>1014.2</ele>
        <time>2013-01-19T19:11:53.000Z</time>
      </trkpt>
      <trkpt lat="48.00875" lon="6.85131">
        <ele>1015</ele>
        <time>2013-01-19T19:11:54.000Z</time>
      </trkpt>
      <trkpt lat="48.00873" lon="6.85129">
        <ele>1016.1</ele>
        <time>2013-01-19T19:11:55.000Z</time>
      </trkpt>
      <trkpt lat="48.0087" lon="6.85127">
        <ele>1016.7</ele>
        <time>2013-01-19T19:11:56.000Z</time>
      </trkpt>
      <trkpt lat="48.00866" lon="6.85125">
        <ele>1014</ele>
        <time>2013-01-19T19:12:07.000Z</time>
      </trkpt>
      <trkpt lat="48.00864" lon="6.85125">
        <ele>1012.8</ele>
        <time>2013-01-19T19:12:08.000Z</time>
      </trkpt>
      <trkpt lat="48.0086" lon="6.85126">
        <ele>1011.1</ele>
        <time>2013-01-19T19:12:12.000Z</time>
      </trkpt>
      <trkpt lat="48.00858" lon="6.85127">
        <ele>1010.3</ele>
        <time>2013-01-19T19:12:13.000Z</time>
      </trkpt>
      <trkpt lat="48.00856" lon="6.85127">
        <ele>1009.2</ele>
        <time>2013-01-19T19:13:17.000Z</time>
      </trkpt>
      <trkpt lat="48.00853" lon="6.85124">
        <ele>1009.9</ele>
        <time>2013-01-19T19:13:18.000Z</time>
      </trkpt>
      <trkpt lat="48.00848" lon="6.85125">
        <ele>1010.5</ele>
        <time>2013-01-19T19:13:27.000Z</time>
      </trkpt>
      <trkpt lat="48.00848" lon="6.85125">
        <ele>1010.7</ele>
        <time>2013-01-19T19:13:28.000Z</time>
      </trkpt>
      <trkpt lat="48.00845" lon="6.85126">
        <ele>1011.1</ele>
        <time>2013-01-19T19:13:35.000Z</time>
      </trkpt>
      <trkpt lat="48.00843" lon="6.85126">
        <ele>1011.1</ele>
        <time>2013-01-19T19:13:36.000Z</time>
      </trkpt>
      <trkpt lat="48.00842" lon="6.85125">
        <ele>1011.5</ele>
        <time>2013-01-19T19:13:37.000Z</time>
      </trkpt>
      <trkpt lat="48.00838" lon="6.85126">
        <ele>1011.6</ele>
        <time>2013-01-19T19:13:38.000Z</time>
      </trkpt>
      <trkpt lat="48.00834" lon="6.85128">
        <ele>1012.2</ele>
        <time>2013-01-19T19:13:40.000Z</time>
      </trkpt>
      <trkpt lat="48.00832" lon="6.85131">
        <ele>1011.4</ele>
        <time>2013-01-19T19:13:41.000Z</time>
      </trkpt>
      <trkpt lat="48.0083" lon="6.85134">
        <ele>1012.4</ele>
        <time>2013-01-19T19:13:44.000Z</time>
      </trkpt>
      <trkpt lat="48.00827" lon="6.85133">
        <ele>1012.4</ele>
        <time>2013-01-19T19:13:45.000Z</time>
      </trkpt>
      <trkpt lat="48.00823" lon="6.85135">
        <ele>1011.4</ele>
        <time>2013-01-19T19:14:27.000Z</time>
      </trkpt>
      <trkpt lat="48.00821" lon="6.85135">
        <ele>1010.3</ele>
        <time>2013-01-19T19:14:28.000Z</time>
      </trkpt>
      <trkpt lat="48.00818" lon="6.85135">
        <ele>1008.4</ele>
        <time>2013-01-19T19:16:26.000Z</time>
      </trkpt>
      <trkpt lat="48.00814" lon="6.85136">
        <ele>1007.6</ele>
        <time>2013-01-19T19:16:27.000Z</time>
      </trkpt>
      <trkpt lat="48.00812" lon="6.85136">
        <ele>1007.5</ele>
        <time>2013-01-19T19:16:28.000Z</time>
      </trkpt>
      <trkpt lat="48.00809" lon="6.85135">
        <ele>1008.1</ele>
        <time>2013-01-19T19:16:29.000Z</time>
      </trkpt>
      <trkpt lat="48.00807" lon="6.85139">
        <ele>1006.9</ele>
        <time>2013-01-19T19:16:32.000Z</time>
      </trkpt>
      <trkpt lat="48.00807" lon="6.85141">
        <ele>1005.9</ele>
        <time>2013-01-19T19:16:33.000Z</time>
      </trkpt>
      <trkpt lat="48.00803" lon="6.85143">
        <ele>1004.8</ele>
        <time>2013-01-19T19:16:35.000Z</time>
      </trkpt>
      <trkpt lat="48.008" lon="6.85143">
        <ele>1005.3</ele>
        <time>2013-01-19T19:16:36.000Z</time>
      </trkpt>
      <trkpt lat="48.00796" lon="6.85145">
        <ele>1003.1</ele>
        <time>2013-01-19T19:16:45.000Z</time>
      </trkpt>
      <trkpt lat="48.00796" lon="6.85145">
        <ele>1003.5</ele>
        <time>2013-01-19T19:16:46.000Z</time>
      </trkpt>
      <trkpt lat="48.00793" lon="6.85146">
        <ele>1003.3</ele>
        <time>2013-01-19T19:17:18.000Z</time>
      </trkpt>
      <trkpt lat="48.00791" lon="6.85146">
        <ele>1003.7</ele>
        <time>2013-01-19T19:17:19.000Z</time>
      </trkpt>
      <trkpt lat="48.00788" lon="6.8515">
        <ele>1002.4</ele>
        <time>2013-01-19T19:17:24.000Z</time>
      </trkpt>
      <trkpt lat="48.00787" lon="6.85151">
        <ele>1002.4</ele>
        <time>2013-01-19T19:17:25.000Z</time>
      </trkpt>
      <trkpt lat="48.00784" lon="6.85151">
        <ele>1002.6</ele>
        <time>2013-01-19T19:17:51.000Z</time>
      </trkpt>
      <trkpt lat="48.00781" lon="6.85152">
        <ele>1003.1</ele>
        <time>2013-01-19T19:17:52.000Z</time>
      </trkpt>
      <trkpt lat="48.00777" lon="6.85152">
        <ele>1002.4</ele>
        <time>2013-01-19T19:17:54.000Z</time>
      </trkpt>
      <trkpt lat="48.00774" lon="6.85152">
        <ele>1002.8</ele>
        <time>2013-01-19T19:17:55.000Z</time>
      </trkpt>
      <trkpt lat="48.00771" lon="6.85154">
        <ele>1003.5</ele>
        <time>2013-01-19T19:17:58.000Z</time>
      </trkpt>
      <trkpt lat="48.00768" lon="6.85155">
        <ele>1004.4</ele>
        <time>2013-01-19T19:17:59.000Z</time>
      </trkpt>
      <trkpt lat="48.00766" lon="6.85159">
        <ele>1003</ele>
        <time>2013-01-19T19:18:33.000Z</time>
      </trkpt>
      <trkpt lat="48.00765" lon="6.8516">
        <ele>1003.2</ele>
        <time>2013-01-19T19:18:34.000Z</time>
      </trkpt>
      <trkpt lat="48.00762" lon="6.85164">
        <ele>1002.1</ele>
        <time>2013-01-19T19:18:37.000Z</time>
      </trkpt>
      <trkpt lat="48.00761" lon="6.85166">
        <ele>1002</ele>
        <time>2013-01-19T19:18:38.000Z</time>
      </trkpt>
      <trkpt lat="48.00758" lon="6.8517">
        <ele>1004.5</ele>
        <time>2013-01-19T19:18:40.000Z</time>
      </trkpt>
      <trkpt lat="48.00757" lon="6.85171">
        <ele>1004.2</ele>
        <time>2013-01-19T19:18:41.000Z</time>
      </trkpt>
      <trkpt lat="48.00754" lon="6.85174">
        <ele>1003.7</ele>
        <time>2013-01-19T19:18:43.000Z</time>
      </trkpt>
      <trkpt lat="48.00753" lon="6.85176">
        <ele>1003.7</ele>
        <time>2013-01-19T19:18:44.000Z</time>
      </trkpt>
      <trkpt lat="48.00751" lon="6.8518">
        <ele>1004.1</ele>
        <time>2013-01-19T19:18:47.000Z</time>
      </trkpt>
      <trkpt lat="48.0075" lon="6.85182">
        <ele>1005.7</ele>
        <time>2013-01-19T19:18:48.000Z</time>
      </trkpt>
      <trkpt lat="48.00749" lon="6.85188">
        <ele>1007</ele>
        <time>2013-01-19T19:18:53.000Z</time>
      </trkpt>
      <trkpt lat="48.00749" lon="6.85189">
        <ele>1007.1</ele>
        <time>2013-01-19T19:18:54.000Z</time>
      </trkpt>
      <trkpt lat="48.00746" lon="6.8519">
        <ele>1004.4</ele>
        <time>2013-01-19T19:19:19.000Z</time>
      </trkpt>
      <trkpt lat="48.00744" lon="6.85194">
        <ele>1004</ele>
        <time>2013-01-19T19:19:20.000Z</time>
      </trkpt>
      <trkpt lat="48.0074" lon="6.85196">
        <ele>998.1</ele>
        <time>2013-01-19T19:19:29.000Z</time>
      </trkpt>
      <trkpt lat="48.00738" lon="6.85197">
        <ele>997.6</ele>
        <time>2013-01-19T19:19:30.000Z</time>
      </trkpt>
      <trkpt lat="48.00734" lon="6.85198">
        <ele>996.4</ele>
        <time>2013-01-19T19:19:34.000Z</time>
      </trkpt>
      <trkpt lat="48.00733" lon="6.85198">
        <ele>996.5</ele>
        <time>2013-01-19T19:19:35.000Z</time>
      </trkpt>
      <trkpt lat="48.00729" lon="6.852">
        <ele>997.2</ele>
        <time>2013-01-19T19:19:38.000Z</time>
      </trkpt>
      <trkpt lat="48.00728" lon="6.85199">
        <ele>997.7</ele>
        <time>2013-01-19T19:19:39.000Z</time>
      </trkpt>
      <trkpt lat="48.00725" lon="6.85199">
        <ele>996.7</ele>
        <time>2013-01-19T19:19:45.000Z</time>
      </trkpt>
      <trkpt lat="48.00723" lon="6.85199">
        <ele>997.1</ele>
        <time>2013-01-19T19:19:46.000Z</time>
      </trkpt>
      <trkpt lat="48.00719" lon="6.85197">
        <ele>996.3</ele>
        <time>2013-01-19T19:19:53.000Z</time>
      </trkpt>
      <trkpt lat="48.00717" lon="6.85197">
        <ele>996.3</ele>
        <time>2013-01-19T19:19:54.000Z</time>
      </trkpt>
      <trkpt lat="48.00715" lon="6.85193">
        <ele>993.5</ele>
        <time>2013-01-19T19:19:59.000Z</time>
      </trkpt>
      <trkpt lat="48.00714" lon="6.85192">
        <ele>993.2</ele>
        <time>2013-01-19T19:20:00.000Z</time>
      </trkpt>
      <trkpt lat="48.0071" lon="6.8519">
        <ele>991.8</ele>
        <time>2013-01-19T19:20:13.000Z</time>
      </trkpt>
      <trkpt lat="48.00708" lon="6.8519">
        <ele>991.5</ele>
        <time>2013-01-19T19:20:14.000Z</time>
      </trkpt>
      <trkpt lat="48.00704" lon="6.8519">
        <ele>988.1</ele>
        <time>2013-01-19T19:20:20.000Z</time>
      </trkpt>
      <trkpt lat="48.00703" lon="6.8519">
        <ele>988.6</ele>
        <time>2013-01-19T19:20:21.000Z</time>
      </trkpt>
      <trkpt lat="48.00701" lon="6.85195">
        <ele>988.9</ele>
        <time>2013-01-19T19:20:25.000Z</time>
      </trkpt>
      <trkpt lat="48.007" lon="6.85196">
        <ele>989.3</ele>
        <time>2013-01-19T19:20:26.000Z</time>
      </trkpt>
      <trkpt lat="48.00698" lon="6.852">
        <ele>989</ele>
        <time>2013-01-19T19:20:29.000Z</time>
      </trkpt>
      <trkpt lat="48.00698" lon="6.85201">
        <ele>988.9</ele>
        <time>2013-01-19T19:20:30.000Z</time>
      </trkpt>
      <trkpt lat="48.00694" lon="6.85205">
        <ele>988.4</ele>
        <time>2013-01-19T19:20:35.000Z</time>
      </trkpt>
      <trkpt lat="48.00694" lon="6.85208">
        <ele>988.2</ele>
        <time>2013-01-19T19:20:36.000Z</time>
      </trkpt>
      <trkpt lat="48.00692" lon="6.85211">
        <ele>988.1</ele>
        <time>2013-01-19T19:20:38.000Z</time>
      </trkpt>
      <trkpt lat="48.0069" lon="6.85211">
        <ele>988.4</ele>
        <time>2013-01-19T19:20:39.000Z</time>
      </trkpt>
      <trkpt lat="48.00687" lon="6.85214">
        <ele>988.6</ele>
        <time>2013-01-19T19:20:43.000Z</time>
      </trkpt>
      <trkpt lat="48.00686" lon="6.85216">
        <ele>988.9</ele>
        <time>2013-01-19T19:20:44.000Z</time>
      </trkpt>
      <trkpt lat="48.00684" lon="6.8522">
        <ele>988.8</ele>
        <time>2013-01-19T19:20:46.000Z</time>
      </trkpt>
      <trkpt lat="48.00682" lon="6.85222">
        <ele>989.3</ele>
        <time>2013-01-19T19:20:47.000Z</time>
      </trkpt>
      <trkpt lat="48.0068" lon="6.85227">
        <ele>989.5</ele>
        <time>2013-01-19T19:20:49.000Z</time>
      </trkpt>
      <trkpt lat="48.00679" lon="6.85229">
        <ele>989.5</ele>
        <time>2013-01-19T19:20:50.000Z</time>
      </trkpt>
      <trkpt lat="48.00675" lon="6.85231">
        <ele>989.9</ele>
        <time>2013-01-19T19:21:01.000Z</time>
      </trkpt>
      <trkpt lat="48.0067" lon="6.85235">
        <ele>992.6</ele>
        <time>2013-01-19T19:21:02.000Z</time>
      </trkpt>
      <trkpt lat="48.00667" lon="6.8524">
        <ele>990.3</ele>
        <time>2013-01-19T19:21:11.000Z</time>
      </trkpt>
      <trkpt lat="48.00666" lon="6.8524">
        <ele>989.9</ele>
        <time>2013-01-19T19:21:12.000Z</time>
      </trkpt>
      <trkpt lat="48.00664" lon="6.85245">
        <ele>988.6</ele>
        <time>2013-01-19T19:21:22.000Z</time>
      </trkpt>
      <trkpt lat="48.00663" lon="6.85246">
        <ele>988.7</ele>
        <time>2013-01-19T19:21:23.000Z</time>
      </trkpt>
      <trkpt lat="48.0066" lon="6.85251">
        <ele>987.8</ele>
        <time>2013-01-19T19:21:28.000Z</time>
      </trkpt>
      <trkpt lat="48.00659" lon="6.85252">
        <ele>987.9</ele>
        <time>2013-01-19T19:21:29.000Z</time>
      </trkpt>
      <trkpt lat="48.00657" lon="6.85257">
        <ele>988.9</ele>
        <time>2013-01-19T19:21:33.000Z</time>
      </trkpt>
      <trkpt lat="48.00657" lon="6.85258">
        <ele>989.2</ele>
        <time>2013-01-19T19:21:34.000Z</time>
      </trkpt>
      <trkpt lat="48.00656" lon="6.85264">
        <ele>987.1</ele>
        <time>2013-01-19T19:21:40.000Z</time>
      </trkpt>
      <trkpt lat="48.00655" lon="6.85265">
        <ele>986.8</ele>
        <time>2013-01-19T19:21:41.000Z</time>
      </trkpt>
      <trkpt lat="48.00654" lon="6.85271">
        <ele>986.1</ele>
        <time>2013-01-19T19:21:46.000Z</time>
      </trkpt>
      <trkpt lat="48.00654" lon="6.85273">
        <ele>986.1</ele>
        <time>2013-01-19T19:21:47.000Z</time>
      </trkpt>
      <trkpt lat="48.00651" lon="6.85276">
        <ele>986.8</ele>
        <time>2013-01-19T19:21:50.000Z</time>
      </trkpt>
      <trkpt lat="48.0065" lon="6.85277">
        <ele>987.2</ele>
        <time>2013-01-19T19:21:51.000Z</time>
      </trkpt>
      <trkpt lat="48.00647" lon="6.85278">
        <ele>987.3</ele>
        <time>2013-01-19T19:21:56.000Z</time>
      </trkpt>
      <trkpt lat="48.00646" lon="6.85282">
        <ele>987.2</ele>
        <time>2013-01-19T19:21:57.000Z</time>
      </trkpt>
      <trkpt lat="48.00642" lon="6.85285">
        <ele>986.2</ele>
        <time>2013-01-19T19:22:05.000Z</time>
      </trkpt>
      <trkpt lat="48.00642" lon="6.85286">
        <ele>986</ele>
        <time>2013-01-19T19:22:06.000Z</time>
      </trkpt>
      <trkpt lat="48.00639" lon="6.85291">
        <ele>985.4</ele>
        <time>2013-01-19T19:22:12.000Z</time>
      </trkpt>
      <trkpt lat="48.00638" lon="6.85292">
        <ele>986.4</ele>
        <time>2013-01-19T19:22:13.000Z</time>
      </trkpt>
      <trkpt lat="48.00635" lon="6.85297">
        <ele>985</ele>
        <time>2013-01-19T19:22:24.000Z</time>
      </trkpt>
      <trkpt lat="48.00635" lon="6.85297">
        <ele>984.6</ele>
        <time>2013-01-19T19:22:25.000Z</time>
      </trkpt>
      <trkpt lat="48.00633" lon="6.85303">
        <ele>984.1</ele>
        <time>2013-01-19T19:22:32.000Z</time>
      </trkpt>
      <trkpt lat="48.00632" lon="6.85304">
        <ele>984.1</ele>
        <time>2013-01-19T19:22:33.000Z</time>
      </trkpt>
      <trkpt lat="48.0063" lon="6.85309">
        <ele>983.8</ele>
        <time>2013-01-19T19:22:37.000Z</time>
      </trkpt>
      <trkpt lat="48.00629" lon="6.8531">
        <ele>983.7</ele>
        <time>2013-01-19T19:22:38.000Z</time>
      </trkpt>
      <trkpt lat="48.00627" lon="6.85316">
        <ele>978.9</ele>
        <time>2013-01-19T19:22:57.000Z</time>
      </trkpt>
      <trkpt lat="48.00628" lon="6.85319">
        <ele>978.3</ele>
        <time>2013-01-19T19:22:58.000Z</time>
      </trkpt>
      <trkpt lat="48.00625" lon="6.85322">
        <ele>977.3</ele>
        <time>2013-01-19T19:23:03.000Z</time>
      </trkpt>
      <trkpt lat="48.00623" lon="6.85324">
        <ele>977.2</ele>
        <time>2013-01-19T19:23:04.000Z</time>
      </trkpt>
      <trkpt lat="48.00621" lon="6.85328">
        <ele>976.5</ele>
        <time>2013-01-19T19:23:09.000Z</time>
      </trkpt>
      <trkpt lat="48.00622" lon="6.8533">
        <ele>977</ele>
        <time>2013-01-19T19:23:10.000Z</time>
      </trkpt>
      <trkpt lat="48.00619" lon="6.85334">
        <ele>976.3</ele>
        <time>2013-01-19T19:23:37.000Z</time>
      </trkpt>
      <trkpt lat="48.00618" lon="6.85337">
        <ele>976.3</ele>
        <time>2013-01-19T19:23:38.000Z</time>
      </trkpt>
      <trkpt lat="48.00615" lon="6.8534">
        <ele>975.9</ele>
        <time>2013-01-19T19:23:41.000Z</time>
      </trkpt>
      <trkpt lat="48.00613" lon="6.85341">
        <ele>975.9</ele>
        <time>2013-01-19T19:23:42.000Z</time>
      </trkpt>
      <trkpt lat="48.0061" lon="6.85345">
        <ele>975.4</ele>
        <time>2013-01-19T19:23:45.000Z</time>
      </trkpt>
      <trkpt lat="48.0061" lon="6.85347">
        <ele>975.6</ele>
        <time>2013-01-19T19:23:46.000Z</time>
      </trkpt>
      <trkpt lat="48.00607" lon="6.85352">
        <ele>974.1</ele>
        <time>2013-01-19T19:23:51.000Z</time>
      </trkpt>
      <trkpt lat="48.00607" lon="6.85353">
        <ele>973.9</ele>
        <time>2013-01-19T19:23:52.000Z</time>
      </trkpt>
      <trkpt lat="48.00604" lon="6.85357">
        <ele>973.6</ele>
        <time>2013-01-19T19:23:56.000Z</time>
      </trkpt>
      <trkpt lat="48.00603" lon="6.85359">
        <ele>973.6</ele>
        <time>2013-01-19T19:23:57.000Z</time>
      </trkpt>
      <trkpt lat="48.00599" lon="6.85358">
        <ele>974.3</ele>
        <time>2013-01-19T19:24:01.000Z</time>
      </trkpt>
      <trkpt lat="48.00598" lon="6.85359">
        <ele>973.7</ele>
        <time>2013-01-19T19:24:02.000Z</time>
      </trkpt>
      <trkpt lat="48.00595" lon="6.85363">
        <ele>973.5</ele>
        <time>2013-01-19T19:24:06.000Z</time>
      </trkpt>
      <trkpt lat="48.00594" lon="6.85365">
        <ele>973.2</ele>
        <time>2013-01-19T19:24:07.000Z</time>
      </trkpt>
      <trkpt lat="48.00592" lon="6.85359">
        <ele>962.3</ele>
        <time>2013-01-19T19:24:30.000Z</time>
      </trkpt>
      <trkpt lat="48.00592" lon="6.85358">
        <ele>961.4</ele>
        <time>2013-01-19T19:24:31.000Z</time>
      </trkpt>
      <trkpt lat="48.00589" lon="6.85354">
        <ele>959</ele>
        <time>2013-01-19T19:24:41.000Z</time>
      </trkpt>
      <trkpt lat="48.00589" lon="6.85353">
        <ele>958.7</ele>
        <time>2013-01-19T19:24:42.000Z</time>
      </trkpt>
      <trkpt lat="48.00586" lon="6.85349">
        <ele>957.3</ele>
        <time>2013-01-19T19:24:46.000Z</time>
      </trkpt>
      <trkpt lat="48.00586" lon="6.85348">
        <ele>957</ele>
        <time>2013-01-19T19:24:47.000Z</time>
      </trkpt>
      <trkpt lat="48.00583" lon="6.85343">
        <ele>955.4</ele>
        <time>2013-01-19T19:24:52.000Z</time>
      </trkpt>
      <trkpt lat="48.00582" lon="6.85343">
        <ele>955.8</ele>
        <time>2013-01-19T19:24:53.000Z</time>
      </trkpt>
      <trkpt lat="48.00578" lon="6.85342">
        <ele>955.6</ele>
        <time>2013-01-19T19:24:59.000Z</time>
      </trkpt>
      <trkpt lat="48.00577" lon="6.85342">
        <ele>956.4</ele>
        <time>2013-01-19T19:25:00.000Z</time>
      </trkpt>
      <trkpt lat="48.00573" lon="6.85344">
        <ele>955.7</ele>
        <time>2013-01-19T19:25:07.000Z</time>
      </trkpt>
      <trkpt lat="48.00572" lon="6.85345">
        <ele>955.6</ele>
        <time>2013-01-19T19:25:08.000Z</time>
      </trkpt>
      <trkpt lat="48.00569" lon="6.85349">
        <ele>953.9</ele>
        <time>2013-01-19T19:25:14.000Z</time>
      </trkpt>
      <trkpt lat="48.00568" lon="6.8535">
        <ele>954.2</ele>
        <time>2013-01-19T19:25:15.000Z</time>
      </trkpt>
      <trkpt lat="48.00565" lon="6.85352">
        <ele>953</ele>
        <time>2013-01-19T19:25:21.000Z</time>
      </trkpt>
      <trkpt lat="48.00564" lon="6.85354">
        <ele>953.3</ele>
        <time>2013-01-19T19:25:22.000Z</time>
      </trkpt>
      <trkpt lat="48.0056" lon="6.85358">
        <ele>953.7</ele>
        <time>2013-01-19T19:25:30.000Z</time>
      </trkpt>
      <trkpt lat="48.0056" lon="6.8536">
        <ele>954</ele>
        <time>2013-01-19T19:25:31.000Z</time>
      </trkpt>
      <trkpt lat="48.00556" lon="6.85361">
        <ele>954.2</ele>
        <time>2013-01-19T19:25:36.000Z</time>
      </trkpt>
      <trkpt lat="48.00554" lon="6.8536">
        <ele>953.9</ele>
        <time>2013-01-19T19:25:37.000Z</time>
      </trkpt>
      <trkpt lat="48.0055" lon="6.85358">
        <ele>952.4</ele>
        <time>2013-01-19T19:25:44.000Z</time>
      </trkpt>
      <trkpt lat="48.0055" lon="6.85357">
        <ele>952</ele>
        <time>2013-01-19T19:25:45.000Z</time>
      </trkpt>
      <trkpt lat="48.00547" lon="6.85353">
        <ele>952.6</ele>
        <time>2013-01-19T19:25:50.000Z</time>
      </trkpt>
      <trkpt lat="48.00546" lon="6.85352">
        <ele>953</ele>
        <time>2013-01-19T19:25:51.000Z</time>
      </trkpt>
      <trkpt lat="48.00543" lon="6.85349">
        <ele>952.6</ele>
        <time>2013-01-19T19:25:55.000Z</time>
      </trkpt>
      <trkpt lat="48.00542" lon="6.85348">
        <ele>952.4</ele>
        <time>2013-01-19T19:25:56.000Z</time>
      </trkpt>
      <trkpt lat="48.00539" lon="6.85345">
        <ele>951.9</ele>
        <time>2013-01-19T19:26:01.000Z</time>
      </trkpt>
      <trkpt lat="48.00538" lon="6.85345">
        <ele>951.7</ele>
        <time>2013-01-19T19:26:02.000Z</time>
      </trkpt>
      <trkpt lat="48.00534" lon="6.85341">
        <ele>948.7</ele>
        <time>2013-01-19T19:26:21.000Z</time>
      </trkpt>
      <trkpt lat="48.00533" lon="6.85339">
        <ele>949.4</ele>
        <time>2013-01-19T19:26:22.000Z</time>
      </trkpt>
      <trkpt lat="48.0053" lon="6.85336">
        <ele>950.8</ele>
        <time>2013-01-19T19:26:25.000Z</time>
      </trkpt>
      <trkpt lat="48.00529" lon="6.85335">
        <ele>951</ele>
        <time>2013-01-19T19:26:26.000Z</time>
      </trkpt>
      <trkpt lat="48.00525" lon="6.85332">
        <ele>948.8</ele>
        <time>2013-01-19T19:26:36.000Z</time>
      </trkpt>
      <trkpt lat="48.00525" lon="6.85331">
        <ele>948.2</ele>
        <time>2013-01-19T19:26:37.000Z</time>
      </trkpt>
      <trkpt lat="48.00521" lon="6.85328">
        <ele>950.4</ele>
        <time>2013-01-19T19:26:40.000Z</time>
      </trkpt>
      <trkpt lat="48.0052" lon="6.85328">
        <ele>950.7</ele>
        <time>2013-01-19T19:26:41.000Z</time>
      </trkpt>
      <trkpt lat="48.00518" lon="6.85326">
        <ele>944.1</ele>
        <time>2013-01-19T19:26:51.000Z</time>
      </trkpt>
      <trkpt lat="48.00516" lon="6.85323">
        <ele>944.6</ele>
        <time>2013-01-19T19:26:52.000Z</time>
      </trkpt>
      <trkpt lat="48.00512" lon="6.85323">
        <ele>944.3</ele>
        <time>2013-01-19T19:26:56.000Z</time>
      </trkpt>
      <trkpt lat="48.00511" lon="6.85323">
        <ele>944.3</ele>
        <time>2013-01-19T19:26:57.000Z</time>
      </trkpt>
      <trkpt lat="48.00507" lon="6.85324">
        <ele>944.6</ele>
        <time>2013-01-19T19:27:01.000Z</time>
      </trkpt>
      <trkpt lat="48.00506" lon="6.85325">
        <ele>944.8</ele>
        <time>2013-01-19T19:27:02.000Z</time>
      </trkpt>
      <trkpt lat="48.00502" lon="6.85327">
        <ele>945</ele>
        <time>2013-01-19T19:27:08.000Z</time>
      </trkpt>
      <trkpt lat="48.00502" lon="6.85328">
        <ele>945.2</ele>
        <time>2013-01-19T19:27:09.000Z</time>
      </trkpt>
      <trkpt lat="48.00497" lon="6.85329">
        <ele>944.4</ele>
        <time>2013-01-19T19:27:14.000Z</time>
      </trkpt>
      <trkpt lat="48.00496" lon="6.85331">
        <ele>945.2</ele>
        <time>2013-01-19T19:27:15.000Z</time>
      </trkpt>
      <trkpt lat="48.00491" lon="6.85331">
        <ele>944.5</ele>
        <time>2013-01-19T19:27:20.000Z</time>
      </trkpt>
      <trkpt lat="48.00491" lon="6.8533">
        <ele>944.5</ele>
        <time>2013-01-19T19:27:21.000Z</time>
      </trkpt>
      <trkpt lat="48.00488" lon="6.85327">
        <ele>943.9</ele>
        <time>2013-01-19T19:27:24.000Z</time>
      </trkpt>
      <trkpt lat="48.00487" lon="6.85325">
        <ele>943.8</ele>
        <time>2013-01-19T19:27:25.000Z</time>
      </trkpt>
      <trkpt lat="48.00483" lon="6.85326">
        <ele>944.4</ele>
        <time>2013-01-19T19:27:32.000Z</time>
      </trkpt>
      <trkpt lat="48.00482" lon="6.85326">
        <ele>944.4</ele>
        <time>2013-01-19T19:27:33.000Z</time>
      </trkpt>
      <trkpt lat="48.00478" lon="6.85327">
        <ele>944.2</ele>
        <time>2013-01-19T19:27:38.000Z</time>
      </trkpt>
      <trkpt lat="48.00477" lon="6.85327">
        <ele>943.8</ele>
        <time>2013-01-19T19:27:39.000Z</time>
      </trkpt>
      <trkpt lat="48.00473" lon="6.85323">
        <ele>940.8</ele>
        <time>2013-01-19T19:27:45.000Z</time>
      </trkpt>
      <trkpt lat="48.00473" lon="6.85323">
        <ele>940.7</ele>
        <time>2013-01-19T19:27:46.000Z</time>
      </trkpt>
      <trkpt lat="48.00469" lon="6.85323">
        <ele>940.8</ele>
        <time>2013-01-19T19:27:52.000Z</time>
      </trkpt>
      <trkpt lat="48.00468" lon="6.85322">
        <ele>941.6</ele>
        <time>2013-01-19T19:27:53.000Z</time>
      </trkpt>
      <trkpt lat="48.00464" lon="6.85322">
        <ele>941.1</ele>
        <time>2013-01-19T19:27:59.000Z</time>
      </trkpt>
      <trkpt lat="48.00463" lon="6.85322">
        <ele>941</ele>
        <time>2013-01-19T19:28:00.000Z</time>
      </trkpt>
      <trkpt lat="48.00459" lon="6.85323">
        <ele>940.5</ele>
        <time>2013-01-19T19:28:07.000Z</time>
      </trkpt>
      <trkpt lat="48.00458" lon="6.85322">
        <ele>940.7</ele>
        <time>2013-01-19T19:28:08.000Z</time>
      </trkpt>
      <trkpt lat="48.00455" lon="6.85328">
        <ele>939.2</ele>
        <time>2013-01-19T19:28:11.000Z</time>
      </trkpt>
      <trkpt lat="48.00455" lon="6.85328">
        <ele>939.3</ele>
        <time>2013-01-19T19:28:12.000Z</time>
      </trkpt>
      <trkpt lat="48.00451" lon="6.85332">
        <ele>935.7</ele>
        <time>2013-01-19T19:28:19.000Z</time>
      </trkpt>
      <trkpt lat="48.00449" lon="6.85332">
        <ele>936.3</ele>
        <time>2013-01-19T19:28:20.000Z</time>
      </trkpt>
      <trkpt lat="48.00445" lon="6.85334">
        <ele>937.4</ele>
        <time>2013-01-19T19:28:23.000Z</time>
      </trkpt>
      <trkpt lat="48.00444" lon="6.85334">
        <ele>937.5</ele>
        <time>2013-01-19T19:28:24.000Z</time>
      </trkpt>
      <trkpt lat="48.00441" lon="6.85334">
        <ele>937</ele>
        <time>2013-01-19T19:28:30.000Z</time>
      </trkpt>
      <trkpt lat="48.00439" lon="6.85334">
        <ele>937</ele>
        <time>2013-01-19T19:28:31.000Z</time>
      </trkpt>
      <trkpt lat="48.00437" lon="6.85338">
        <ele>936.3</ele>
        <time>2013-01-19T19:29:44.000Z</time>
      </trkpt>
      <trkpt lat="48.00434" lon="6.85338">
        <ele>938.4</ele>
        <time>2013-01-19T19:29:45.000Z</time>
      </trkpt>
      <trkpt lat="48.00431" lon="6.85339">
        <ele>939.2</ele>
        <time>2013-01-19T19:29:47.000Z</time>
      </trkpt>
      <trkpt lat="48.00429" lon="6.8534">
        <ele>939.5</ele>
        <time>2013-01-19T19:29:48.000Z</time>
      </trkpt>
      <trkpt lat="48.00425" lon="6.85343">
        <ele>938.2</ele>
        <time>2013-01-19T19:29:50.000Z</time>
      </trkpt>
      <trkpt lat="48.00424" lon="6.85343">
        <ele>938</ele>
        <time>2013-01-19T19:29:51.000Z</time>
      </trkpt>
      <trkpt lat="48.0042" lon="6.85346">
        <ele>935.2</ele>
        <time>2013-01-19T19:29:54.000Z</time>
      </trkpt>
      <trkpt lat="48.00419" lon="6.85347">
        <ele>935</ele>
        <time>2013-01-19T19:29:55.000Z</time>
      </trkpt>
      <trkpt lat="48.00417" lon="6.8535">
        <ele>934.1</ele>
        <time>2013-01-19T19:29:57.000Z</time>
      </trkpt>
      <trkpt lat="48.00416" lon="6.85352">
        <ele>933.4</ele>
        <time>2013-01-19T19:29:58.000Z</time>
      </trkpt>
      <trkpt lat="48.00412" lon="6.85356">
        <ele>932.1</ele>
        <time>2013-01-19T19:30:02.000Z</time>
      </trkpt>
      <trkpt lat="48.00412" lon="6.85357">
        <ele>932.3</ele>
        <time>2013-01-19T19:30:03.000Z</time>
      </trkpt>
      <trkpt lat="48.00411" lon="6.85363">
        <ele>929.2</ele>
        <time>2013-01-19T19:30:11.000Z</time>
      </trkpt>
      <trkpt lat="48.0041" lon="6.85365">
        <ele>929</ele>
        <time>2013-01-19T19:30:12.000Z</time>
      </trkpt>
      <trkpt lat="48.00407" lon="6.85368">
        <ele>928.9</ele>
        <time>2013-01-19T19:30:16.000Z</time>
      </trkpt>
      <trkpt lat="48.00406" lon="6.85368">
        <ele>928.9</ele>
        <time>2013-01-19T19:30:17.000Z</time>
      </trkpt>
      <trkpt lat="48.00404" lon="6.85367">
        <ele>926</ele>
        <time>2013-01-19T19:30:54.000Z</time>
      </trkpt>
      <trkpt lat="48.00402" lon="6.85367">
        <ele>925.5</ele>
        <time>2013-01-19T19:30:55.000Z</time>
      </trkpt>
      <trkpt lat="48.00398" lon="6.85363">
        <ele>923.4</ele>
        <time>2013-01-19T19:30:57.000Z</time>
      </trkpt>
      <trkpt lat="48.00398" lon="6.85362">
        <ele>922.9</ele>
        <time>2013-01-19T19:30:58.000Z</time>
      </trkpt>
      <trkpt lat="48.00395" lon="6.85359">
        <ele>917.4</ele>
        <time>2013-01-19T19:31:03.000Z</time>
      </trkpt>
      <trkpt lat="48.00394" lon="6.85355">
        <ele>916.4</ele>
        <time>2013-01-19T19:31:04.000Z</time>
      </trkpt>
      <trkpt lat="48.00392" lon="6.8535">
        <ele>917.1</ele>
        <time>2013-01-19T19:31:06.000Z</time>
      </trkpt>
      <trkpt lat="48.00391" lon="6.85348">
        <ele>916.6</ele>
        <time>2013-01-19T19:31:07.000Z</time>
      </trkpt>
      <trkpt lat="48.0039" lon="6.85342">
        <ele>916.5</ele>
        <time>2013-01-19T19:31:11.000Z</time>
      </trkpt>
      <trkpt lat="48.0039" lon="6.8534">
        <ele>916.2</ele>
        <time>2013-01-19T19:31:12.000Z</time>
      </trkpt>
      <trkpt lat="48.00389" lon="6.85334">
        <ele>916.7</ele>
        <time>2013-01-19T19:31:15.000Z</time>
      </trkpt>
      <trkpt lat="48.00387" lon="6.85331">
        <ele>916.6</ele>
        <time>2013-01-19T19:31:16.000Z</time>
      </trkpt>
      <trkpt lat="48.00386" lon="6.85327">
        <ele>916.1</ele>
        <time>2013-01-19T19:31:19.000Z</time>
      </trkpt>
      <trkpt lat="48.00386" lon="6.85324">
        <ele>915.9</ele>
        <time>2013-01-19T19:31:20.000Z</time>
      </trkpt>
      <trkpt lat="48.00386" lon="6.85318">
        <ele>918</ele>
        <time>2013-01-19T19:31:24.000Z</time>
      </trkpt>
      <trkpt lat="48.00386" lon="6.85317">
        <ele>918.1</ele>
        <time>2013-01-19T19:31:25.000Z</time>
      </trkpt>
      <trkpt lat="48.00388" lon="6.85311">
        <ele>918.5</ele>
        <time>2013-01-19T19:31:29.000Z</time>
      </trkpt>
      <trkpt lat="48.00388" lon="6.85308">
        <ele>918.7</ele>
        <time>2013-01-19T19:31:30.000Z</time>
      </trkpt>
      <trkpt lat="48.00388" lon="6.85304">
        <ele>919.3</ele>
        <time>2013-01-19T19:31:33.000Z</time>
      </trkpt>
      <trkpt lat="48.00387" lon="6.85302">
        <ele>918.6</ele>
        <time>2013-01-19T19:31:34.000Z</time>
      </trkpt>
      <trkpt lat="48.00386" lon="6.85295">
        <ele>916.8</ele>
        <time>2013-01-19T19:31:38.000Z</time>
      </trkpt>
      <trkpt lat="48.00387" lon="6.85295">
        <ele>916.3</ele>
        <time>2013-01-19T19:31:39.000Z</time>
      </trkpt>
      <trkpt lat="48.00386" lon="6.85288">
        <ele>914.9</ele>
        <time>2013-01-19T19:31:44.000Z</time>
      </trkpt>
      <trkpt lat="48.00387" lon="6.85285">
        <ele>916.6</ele>
        <time>2013-01-19T19:31:45.000Z</time>
      </trkpt>
      <trkpt lat="48.00389" lon="6.8528">
        <ele>913.9</ele>
        <time>2013-01-19T19:31:48.000Z</time>
      </trkpt>
      <trkpt lat="48.0039" lon="6.85278">
        <ele>912.5</ele>
        <time>2013-01-19T19:31:49.000Z</time>
      </trkpt>
      <trkpt lat="48.00391" lon="6.85273">
        <ele>910.9</ele>
        <time>2013-01-19T19:31:52.000Z</time>
      </trkpt>
      <trkpt lat="48.0039" lon="6.85271">
        <ele>909.9</ele>
        <time>2013-01-19T19:31:53.000Z</time>
      </trkpt>
      <trkpt lat="48.00393" lon="6.8527">
        <ele>908.5</ele>
        <time>2013-01-19T19:31:54.000Z</time>
      </trkpt>
      <trkpt lat="48.00393" lon="6.85266">
        <ele>909.4</ele>
        <time>2013-01-19T19:31:55.000Z</time>
      </trkpt>
      <trkpt lat="48.00393" lon="6.8526">
        <ele>909.6</ele>
        <time>2013-01-19T19:31:58.000Z</time>
      </trkpt>
      <trkpt lat="48.00394" lon="6.85259">
        <ele>910</ele>
        <time>2013-01-19T19:31:59.000Z</time>
      </trkpt>
      <trkpt lat="48.00396" lon="6.85254">
        <ele>910.7</ele>
        <time>2013-01-19T19:32:01.000Z</time>
      </trkpt>
      <trkpt lat="48.00397" lon="6.85252">
        <ele>910.1</ele>
        <time>2013-01-19T19:32:02.000Z</time>
      </trkpt>
      <trkpt lat="48.004" lon="6.8525">
        <ele>908.4</ele>
        <time>2013-01-19T19:32:06.000Z</time>
      </trkpt>
      <trkpt lat="48.00401" lon="6.85249">
        <ele>908.7</ele>
        <time>2013-01-19T19:32:07.000Z</time>
      </trkpt>
      <trkpt lat="48.00403" lon="6.85246">
        <ele>909.2</ele>
        <time>2013-01-19T19:32:10.000Z</time>
      </trkpt>
      <trkpt lat="48.00405" lon="6.85244">
        <ele>909.3</ele>
        <time>2013-01-19T19:32:12.000Z</time>
      </trkpt>
      <trkpt lat="48.00408" lon="6.8524">
        <ele>909.2</ele>
        <time>2013-01-19T19:32:18.000Z</time>
      </trkpt>
      <trkpt lat="48.00409" lon="6.85239">
        <ele>909.5</ele>
        <time>2013-01-19T19:32:19.000Z</time>
      </trkpt>
      <trkpt lat="48.00411" lon="6.85235">
        <ele>909.7</ele>
        <time>2013-01-19T19:32:22.000Z</time>
      </trkpt>
      <trkpt lat="48.00412" lon="6.85234">
        <ele>909.2</ele>
        <time>2013-01-19T19:32:23.000Z</time>
      </trkpt>
      <trkpt lat="48.00414" lon="6.8523">
        <ele>910.1</ele>
        <time>2013-01-19T19:32:26.000Z</time>
      </trkpt>
      <trkpt lat="48.00415" lon="6.85227">
        <ele>909.9</ele>
        <time>2013-01-19T19:32:27.000Z</time>
      </trkpt>
      <trkpt lat="48.00416" lon="6.85222">
        <ele>910</ele>
        <time>2013-01-19T19:32:30.000Z</time>
      </trkpt>
      <trkpt lat="48.00417" lon="6.8522">
        <ele>909.8</ele>
        <time>2013-01-19T19:32:31.000Z</time>
      </trkpt>
      <trkpt lat="48.00417" lon="6.85214">
        <ele>913.3</ele>
        <time>2013-01-19T19:32:37.000Z</time>
      </trkpt>
      <trkpt lat="48.00417" lon="6.85213">
        <ele>913.4</ele>
        <time>2013-01-19T19:32:38.000Z</time>
      </trkpt>
      <trkpt lat="48.0042" lon="6.85209">
        <ele>912.4</ele>
        <time>2013-01-19T19:32:42.000Z</time>
      </trkpt>
      <trkpt lat="48.00421" lon="6.85206">
        <ele>910.2</ele>
        <time>2013-01-19T19:32:43.000Z</time>
      </trkpt>
      <trkpt lat="48.00423" lon="6.85202">
        <ele>910.1</ele>
        <time>2013-01-19T19:32:45.000Z</time>
      </trkpt>
      <trkpt lat="48.00424" lon="6.85201">
        <ele>909.5</ele>
        <time>2013-01-19T19:32:46.000Z</time>
      </trkpt>
      <trkpt lat="48.00428" lon="6.85198">
        <ele>909.4</ele>
        <time>2013-01-19T19:32:49.000Z</time>
      </trkpt>
      <trkpt lat="48.00429" lon="6.85197">
        <ele>909.2</ele>
        <time>2013-01-19T19:32:50.000Z</time>
      </trkpt>
      <trkpt lat="48.00431" lon="6.85193">
        <ele>909.9</ele>
        <time>2013-01-19T19:32:53.000Z</time>
      </trkpt>
      <trkpt lat="48.00432" lon="6.85192">
        <ele>910.4</ele>
        <time>2013-01-19T19:32:54.000Z</time>
      </trkpt>
      <trkpt lat="48.00435" lon="6.8519">
        <ele>909.8</ele>
        <time>2013-01-19T19:32:57.000Z</time>
      </trkpt>
      <trkpt lat="48.00436" lon="6.85189">
        <ele>910.2</ele>
        <time>2013-01-19T19:32:58.000Z</time>
      </trkpt>
      <trkpt lat="48.00439" lon="6.85185">
        <ele>911</ele>
        <time>2013-01-19T19:33:01.000Z</time>
      </trkpt>
      <trkpt lat="48.00439" lon="6.85182">
        <ele>911</ele>
        <time>2013-01-19T19:33:02.000Z</time>
      </trkpt>
      <trkpt lat="48.00439" lon="6.85177">
        <ele>912.1</ele>
        <time>2013-01-19T19:33:18.000Z</time>
      </trkpt>
      <trkpt lat="48.00439" lon="6.85175">
        <ele>912.3</ele>
        <time>2013-01-19T19:33:19.000Z</time>
      </trkpt>
      <trkpt lat="48.00439" lon="6.85169">
        <ele>910.9</ele>
        <time>2013-01-19T19:33:22.000Z</time>
      </trkpt>
      <trkpt lat="48.00439" lon="6.85167">
        <ele>910.5</ele>
        <time>2013-01-19T19:33:23.000Z</time>
      </trkpt>
      <trkpt lat="48.00437" lon="6.85164">
        <ele>909.8</ele>
        <time>2013-01-19T19:33:26.000Z</time>
      </trkpt>
      <trkpt lat="48.00436" lon="6.85161">
        <ele>909.5</ele>
        <time>2013-01-19T19:33:27.000Z</time>
      </trkpt>
      <trkpt lat="48.00434" lon="6.85156">
        <ele>909.6</ele>
        <time>2013-01-19T19:33:30.000Z</time>
      </trkpt>
      <trkpt lat="48.00434" lon="6.85153">
        <ele>910</ele>
        <time>2013-01-19T19:33:31.000Z</time>
      </trkpt>
      <trkpt lat="48.00432" lon="6.85147">
        <ele>911.4</ele>
        <time>2013-01-19T19:33:34.000Z</time>
      </trkpt>
      <trkpt lat="48.00432" lon="6.85147">
        <ele>911.8</ele>
        <time>2013-01-19T19:33:35.000Z</time>
      </trkpt>
      <trkpt lat="48.00432" lon="6.8514">
        <ele>915.2</ele>
        <time>2013-01-19T19:33:40.000Z</time>
      </trkpt>
      <trkpt lat="48.00431" lon="6.85139">
        <ele>916</ele>
        <time>2013-01-19T19:33:41.000Z</time>
      </trkpt>
      <trkpt lat="48.00432" lon="6.85132">
        <ele>916.6</ele>
        <time>2013-01-19T19:33:46.000Z</time>
      </trkpt>
      <trkpt lat="48.00431" lon="6.85131">
        <ele>916.6</ele>
        <time>2013-01-19T19:33:47.000Z</time>
      </trkpt>
      <trkpt lat="48.00429" lon="6.85125">
        <ele>918.2</ele>
        <time>2013-01-19T19:33:52.000Z</time>
      </trkpt>
      <trkpt lat="48.00429" lon="6.85124">
        <ele>917.9</ele>
        <time>2013-01-19T19:33:53.000Z</time>
      </trkpt>
      <trkpt lat="48.00428" lon="6.85118">
        <ele>910.9</ele>
        <time>2013-01-19T19:34:05.000Z</time>
      </trkpt>
      <trkpt lat="48.00429" lon="6.85116">
        <ele>910.6</ele>
        <time>2013-01-19T19:34:06.000Z</time>
      </trkpt>
      <trkpt lat="48.0043" lon="6.8511">
        <ele>907.5</ele>
        <time>2013-01-19T19:34:10.000Z</time>
      </trkpt>
      <trkpt lat="48.00431" lon="6.85109">
        <ele>907.3</ele>
        <time>2013-01-19T19:34:11.000Z</time>
      </trkpt>
      <trkpt lat="48.00431" lon="6.85103">
        <ele>902.9</ele>
        <time>2013-01-19T19:34:17.000Z</time>
      </trkpt>
      <trkpt lat="48.00432" lon="6.85101">
        <ele>901.6</ele>
        <time>2013-01-19T19:34:18.000Z</time>
      </trkpt>
      <trkpt lat="48.00431" lon="6.85097">
        <ele>900.9</ele>
        <time>2013-01-19T19:34:21.000Z</time>
      </trkpt>
      <trkpt lat="48.0043" lon="6.85093">
        <ele>901.4</ele>
        <time>2013-01-19T19:34:22.000Z</time>
      </trkpt>
      <trkpt lat="48.00428" lon="6.85088">
        <ele>904.5</ele>
        <time>2013-01-19T19:35:28.000Z</time>
      </trkpt>
      <trkpt lat="48.00428" lon="6.85088">
        <ele>904.5</ele>
        <time>2013-01-19T19:35:29.000Z</time>
      </trkpt>
      <trkpt lat="48.00426" lon="6.85083">
        <ele>904.4</ele>
        <time>2013-01-19T19:35:41.000Z</time>
      </trkpt>
      <trkpt lat="48.00426" lon="6.8508">
        <ele>903.7</ele>
        <time>2013-01-19T19:35:42.000Z</time>
      </trkpt>
      <trkpt lat="48.00426" lon="6.85075">
        <ele>903.9</ele>
        <time>2013-01-19T19:35:45.000Z</time>
      </trkpt>
      <trkpt lat="48.00427" lon="6.85074">
        <ele>903.4</ele>
        <time>2013-01-19T19:35:46.000Z</time>
      </trkpt>
      <trkpt lat="48.00426" lon="6.8507">
        <ele>902.4</ele>
        <time>2013-01-19T19:35:49.000Z</time>
      </trkpt>
      <trkpt lat="48.00425" lon="6.85067">
        <ele>901.5</ele>
        <time>2013-01-19T19:35:50.000Z</time>
      </trkpt>
      <trkpt lat="48.00424" lon="6.85063">
        <ele>901.8</ele>
        <time>2013-01-19T19:35:52.000Z</time>
      </trkpt>
      <trkpt lat="48.00423" lon="6.8506">
        <ele>901.5</ele>
        <time>2013-01-19T19:35:53.000Z</time>
      </trkpt>
      <trkpt lat="48.00422" lon="6.85055">
        <ele>902.1</ele>
        <time>2013-01-19T19:35:56.000Z</time>
      </trkpt>
      <trkpt lat="48.0042" lon="6.85053">
        <ele>901.3</ele>
        <time>2013-01-19T19:35:57.000Z</time>
      </trkpt>
      <trkpt lat="48.00418" lon="6.85048">
        <ele>900.4</ele>
        <time>2013-01-19T19:36:00.000Z</time>
      </trkpt>
      <trkpt lat="48.00418" lon="6.85046">
        <ele>899.7</ele>
        <time>2013-01-19T19:36:01.000Z</time>
      </trkpt>
      <trkpt lat="48.00417" lon="6.8504">
        <ele>899.1</ele>
        <time>2013-01-19T19:36:05.000Z</time>
      </trkpt>
      <trkpt lat="48.00416" lon="6.85039">
        <ele>899.6</ele>
        <time>2013-01-19T19:36:06.000Z</time>
      </trkpt>
      <trkpt lat="48.00414" lon="6.85033">
        <ele>899.2</ele>
        <time>2013-01-19T19:36:11.000Z</time>
      </trkpt>
      <trkpt lat="48.00414" lon="6.85033">
        <ele>898.6</ele>
        <time>2013-01-19T19:36:12.000Z</time>
      </trkpt>
      <trkpt lat="48.00413" lon="6.85027">
        <ele>897.4</ele>
        <time>2013-01-19T19:36:17.000Z</time>
      </trkpt>
      <trkpt lat="48.00412" lon="6.85023">
        <ele>896.7</ele>
        <time>2013-01-19T19:36:18.000Z</time>
      </trkpt>
      <trkpt lat="48.0041" lon="6.85019">
        <ele>896.1</ele>
        <time>2013-01-19T19:36:20.000Z</time>
      </trkpt>
      <trkpt lat="48.0041" lon="6.85017">
        <ele>896.1</ele>
        <time>2013-01-19T19:36:21.000Z</time>
      </trkpt>
      <trkpt lat="48.00407" lon="6.85013">
        <ele>895.5</ele>
        <time>2013-01-19T19:36:24.000Z</time>
      </trkpt>
      <trkpt lat="48.00407" lon="6.85012">
        <ele>895.9</ele>
        <time>2013-01-19T19:36:25.000Z</time>
      </trkpt>
      <trkpt lat="48.00405" lon="6.85007">
        <ele>894.4</ele>
        <time>2013-01-19T19:36:30.000Z</time>
      </trkpt>
      <trkpt lat="48.00404" lon="6.85006">
        <ele>894.4</ele>
        <time>2013-01-19T19:36:31.000Z</time>
      </trkpt>
      <trkpt lat="48.00404" lon="6.85001">
        <ele>895.8</ele>
        <time>2013-01-19T19:36:39.000Z</time>
      </trkpt>
      <trkpt lat="48.00404" lon="6.84998">
        <ele>895.8</ele>
        <time>2013-01-19T19:36:40.000Z</time>
      </trkpt>
      <trkpt lat="48.00405" lon="6.84993">
        <ele>896.2</ele>
        <time>2013-01-19T19:36:44.000Z</time>
      </trkpt>
      <trkpt lat="48.00405" lon="6.84992">
        <ele>896.2</ele>
        <time>2013-01-19T19:36:45.000Z</time>
      </trkpt>
      <trkpt lat="48.00406" lon="6.84985">
        <ele>896.4</ele>
        <time>2013-01-19T19:36:51.000Z</time>
      </trkpt>
      <trkpt lat="48.00406" lon="6.84985">
        <ele>896.3</ele>
        <time>2013-01-19T19:36:52.000Z</time>
      </trkpt>
      <trkpt lat="48.00403" lon="6.8498">
        <ele>896.5</ele>
        <time>2013-01-19T19:36:57.000Z</time>
      </trkpt>
      <trkpt lat="48.00403" lon="6.84978">
        <ele>896.6</ele>
        <time>2013-01-19T19:36:58.000Z</time>
      </trkpt>
      <trkpt lat="48.00403" lon="6.84973">
        <ele>895.5</ele>
        <time>2013-01-19T19:37:01.000Z</time>
      </trkpt>
      <trkpt lat="48.00403" lon="6.84971">
        <ele>894.7</ele>
        <time>2013-01-19T19:37:02.000Z</time>
      </trkpt>
      <trkpt lat="48.00402" lon="6.84965">
        <ele>893.7</ele>
        <time>2013-01-19T19:37:06.000Z</time>
      </trkpt>
      <trkpt lat="48.00403" lon="6.84964">
        <ele>893.9</ele>
        <time>2013-01-19T19:37:07.000Z</time>
      </trkpt>
      <trkpt lat="48.00404" lon="6.84958">
        <ele>893.9</ele>
        <time>2013-01-19T19:37:10.000Z</time>
      </trkpt>
      <trkpt lat="48.00404" lon="6.84956">
        <ele>894.3</ele>
        <time>2013-01-19T19:37:11.000Z</time>
      </trkpt>
      <trkpt lat="48.00406" lon="6.8495">
        <ele>894</ele>
        <time>2013-01-19T19:37:16.000Z</time>
      </trkpt>
      <trkpt lat="48.00406" lon="6.84948">
        <ele>893.9</ele>
        <time>2013-01-19T19:37:17.000Z</time>
      </trkpt>
      <trkpt lat="48.00407" lon="6.84943">
        <ele>894.8</ele>
        <time>2013-01-19T19:37:20.000Z</time>
      </trkpt>
      <trkpt lat="48.00407" lon="6.84941">
        <ele>895.2</ele>
        <time>2013-01-19T19:37:21.000Z</time>
      </trkpt>
      <trkpt lat="48.00409" lon="6.84936">
        <ele>896.7</ele>
        <time>2013-01-19T19:37:24.000Z</time>
      </trkpt>
      <trkpt lat="48.00409" lon="6.84934">
        <ele>896.8</ele>
        <time>2013-01-19T19:37:25.000Z</time>
      </trkpt>
      <trkpt lat="48.00407" lon="6.84929">
        <ele>897.2</ele>
        <time>2013-01-19T19:37:31.000Z</time>
      </trkpt>
      <trkpt lat="48.00407" lon="6.84927">
        <ele>896.5</ele>
        <time>2013-01-19T19:37:32.000Z</time>
      </trkpt>
      <trkpt lat="48.00407" lon="6.84921">
        <ele>896.4</ele>
        <time>2013-01-19T19:37:36.000Z</time>
      </trkpt>
      <trkpt lat="48.00407" lon="6.8492">
        <ele>896.1</ele>
        <time>2013-01-19T19:37:37.000Z</time>
      </trkpt>
      <trkpt lat="48.00405" lon="6.84914">
        <ele>896</ele>
        <time>2013-01-19T19:37:42.000Z</time>
      </trkpt>
      <trkpt lat="48.00405" lon="6.84913">
        <ele>895.6</ele>
        <time>2013-01-19T19:37:43.000Z</time>
      </trkpt>
      <trkpt lat="48.00403" lon="6.84909">
        <ele>894.7</ele>
        <time>2013-01-19T19:37:47.000Z</time>
      </trkpt>
      <trkpt lat="48.00402" lon="6.84904">
        <ele>894.2</ele>
        <time>2013-01-19T19:37:48.000Z</time>
      </trkpt>
      <trkpt lat="48.00399" lon="6.849">
        <ele>892.5</ele>
        <time>2013-01-19T19:37:51.000Z</time>
      </trkpt>
      <trkpt lat="48.00398" lon="6.84899">
        <ele>891.5</ele>
        <time>2013-01-19T19:37:52.000Z</time>
      </trkpt>
      <trkpt lat="48.00396" lon="6.84894">
        <ele>890.7</ele>
        <time>2013-01-19T19:37:56.000Z</time>
      </trkpt>
      <trkpt lat="48.00395" lon="6.84893">
        <ele>890.2</ele>
        <time>2013-01-19T19:37:57.000Z</time>
      </trkpt>
      <trkpt lat="48.00393" lon="6.84888">
        <ele>890.3</ele>
        <time>2013-01-19T19:38:00.000Z</time>
      </trkpt>
      <trkpt lat="48.00393" lon="6.84887">
        <ele>890.1</ele>
        <time>2013-01-19T19:38:01.000Z</time>
      </trkpt>
      <trkpt lat="48.0039" lon="6.84882">
        <ele>892.7</ele>
        <time>2013-01-19T19:38:03.000Z</time>
      </trkpt>
      <trkpt lat="48.0039" lon="6.84881">
        <ele>893</ele>
        <time>2013-01-19T19:38:04.000Z</time>
      </trkpt>
      <trkpt lat="48.00387" lon="6.84876">
        <ele>891.9</ele>
        <time>2013-01-19T19:38:09.000Z</time>
      </trkpt>
      <trkpt lat="48.00387" lon="6.84875">
        <ele>892.1</ele>
        <time>2013-01-19T19:38:10.000Z</time>
      </trkpt>
      <trkpt lat="48.00383" lon="6.84873">
        <ele>893</ele>
        <time>2013-01-19T19:38:35.000Z</time>
      </trkpt>
      <trkpt lat="48.00382" lon="6.84873">
        <ele>893.3</ele>
        <time>2013-01-19T19:38:36.000Z</time>
      </trkpt>
      <trkpt lat="48.00383" lon="6.84879">
        <ele>897.8</ele>
        <time>2013-01-19T19:39:11.000Z</time>
      </trkpt>
      <trkpt lat="48.00382" lon="6.8488">
        <ele>898.7</ele>
        <time>2013-01-19T19:39:12.000Z</time>
      </trkpt>
      <trkpt lat="48.0038" lon="6.84874">
        <ele>897.8</ele>
        <time>2013-01-19T19:41:01.000Z</time>
      </trkpt>
      <trkpt lat="48.00379" lon="6.84873">
        <ele>897.2</ele>
        <time>2013-01-19T19:41:02.000Z</time>
      </trkpt>
      <trkpt lat="48.00377" lon="6.8487">
        <ele>894</ele>
        <time>2013-01-19T19:41:06.000Z</time>
      </trkpt>
      <trkpt lat="48.00376" lon="6.84868">
        <ele>893.4</ele>
        <time>2013-01-19T19:41:07.000Z</time>
      </trkpt>
      <trkpt lat="48.00373" lon="6.84864">
        <ele>892.1</ele>
        <time>2013-01-19T19:41:10.000Z</time>
      </trkpt>
      <trkpt lat="48.00373" lon="6.84861">
        <ele>890.7</ele>
        <time>2013-01-19T19:41:11.000Z</time>
      </trkpt>
      <trkpt lat="48.00371" lon="6.84856">
        <ele>890</ele>
        <time>2013-01-19T19:41:14.000Z</time>
      </trkpt>
      <trkpt lat="48.00371" lon="6.84854">
        <ele>889.6</ele>
        <time>2013-01-19T19:41:15.000Z</time>
      </trkpt>
      <trkpt lat="48.00369" lon="6.84849">
        <ele>890</ele>
        <time>2013-01-19T19:41:17.000Z</time>
      </trkpt>
      <trkpt lat="48.00368" lon="6.84848">
        <ele>890.6</ele>
        <time>2013-01-19T19:41:18.000Z</time>
      </trkpt>
      <trkpt lat="48.00366" lon="6.84843">
        <ele>889.6</ele>
        <time>2013-01-19T19:41:23.000Z</time>
      </trkpt>
      <trkpt lat="48.00366" lon="6.84842">
        <ele>889.6</ele>
        <time>2013-01-19T19:41:24.000Z</time>
      </trkpt>
      <trkpt lat="48.00366" lon="6.84839">
        <ele>889.7</ele>
        <time>2013-01-19T19:41:25.000Z</time>
      </trkpt>
      <trkpt lat="48.00363" lon="6.84836">
        <ele>892.4</ele>
        <time>2013-01-19T19:41:26.000Z</time>
      </trkpt>
      <trkpt lat="48.0036" lon="6.84833">
        <ele>893</ele>
        <time>2013-01-19T19:41:28.000Z</time>
      </trkpt>
      <trkpt lat="48.00359" lon="6.84831">
        <ele>893.3</ele>
        <time>2013-01-19T19:41:29.000Z</time>
      </trkpt>
      <trkpt lat="48.00357" lon="6.84825">
        <ele>884.3</ele>
        <time>2013-01-19T19:41:42.000Z</time>
      </trkpt>
      <trkpt lat="48.00357" lon="6.84824">
        <ele>883.6</ele>
        <time>2013-01-19T19:41:43.000Z</time>
      </trkpt>
      <trkpt lat="48.00356" lon="6.84822">
        <ele>884.9</ele>
        <time>2013-01-19T19:50:40.000Z</time>
      </trkpt>
    </trkseg>
  </trk>
</gpx>